<?xml version="1.0" encoding="UTF-8" standalone="no" ?>
<gpx xmlns="http://www.topografix.com/GPX/1/1" xmlns:xsi="http://www.w3.org/2001/XMLSchema-instance" xsi:schemaLocation="http://www.topografix.com/GPX/1/1 http://www.topografix.com/GPX/1/1/gpx.xsd" version="1.1" creator="VisuGPX - https://www.visugpx.com">
  <metadata>
    <name>TAR Servoz Chamonix Buet</name>
  </metadata>
  <trk>
    <name><![CDATA[TAR Servoz Chamonix Buet_1]]></name>
    <trkseg>
      <trkpt lat="45.93114" lon="6.76829">
        <ele>821</ele>
        <time>2000-01-01T07:50:54.000Z</time>
        <extensions>
          <visugpx:TrkExtension xmlns:visugpx="https://www.visugpx.com/editgpx/">
            <visugpx:node>4</visugpx:node>
            </visugpx:TrkExtension>
        </extensions>
      </trkpt>
      <trkpt lat="45.93098" lon="6.76869">
        <ele>821</ele>
        <time>2000-01-01T07:51:04.000Z</time>
      </trkpt>
      <trkpt lat="45.93083" lon="6.76909">
        <ele>821</ele>
        <time>2000-01-01T07:51:14.000Z</time>
      </trkpt>
      <trkpt lat="45.93066" lon="6.76952">
        <ele>821</ele>
        <time>2000-01-01T07:51:24.000Z</time>
      </trkpt>
      <trkpt lat="45.93074" lon="6.76961">
        <ele>816</ele>
        <time>2000-01-01T07:51:34.000Z</time>
      </trkpt>
      <trkpt lat="45.93185" lon="6.76965">
        <ele>821</ele>
        <time>2000-01-01T07:51:44.000Z</time>
      </trkpt>
      <trkpt lat="45.93208" lon="6.77013">
        <ele>822</ele>
        <time>2000-01-01T07:51:54.000Z</time>
      </trkpt>
      <trkpt lat="45.93207" lon="6.77026">
        <ele>829.7</ele>
        <time>2000-01-01T07:52:04.000Z</time>
      </trkpt>
      <trkpt lat="45.93184" lon="6.77039">
        <ele>824</ele>
        <time>2000-01-01T07:52:14.000Z</time>
      </trkpt>
      <trkpt lat="45.93167" lon="6.77063">
        <ele>830</ele>
        <time>2000-01-01T07:52:24.000Z</time>
      </trkpt>
      <trkpt lat="45.93166" lon="6.77069">
        <ele>840.6</ele>
        <time>2000-01-01T07:52:34.000Z</time>
      </trkpt>
      <trkpt lat="45.93169" lon="6.77071">
        <ele>842.4</ele>
        <time>2000-01-01T07:52:44.000Z</time>
      </trkpt>
      <trkpt lat="45.93182" lon="6.7707">
        <ele>830</ele>
        <time>2000-01-01T07:52:54.000Z</time>
      </trkpt>
      <trkpt lat="45.93182" lon="6.77075">
        <ele>848.1</ele>
        <time>2000-01-01T07:53:04.000Z</time>
      </trkpt>
      <trkpt lat="45.93126" lon="6.77111">
        <ele>842</ele>
        <time>2000-01-01T07:53:14.000Z</time>
      </trkpt>
      <trkpt lat="45.93125" lon="6.77116">
        <ele>852.2</ele>
        <time>2000-01-01T07:53:24.000Z</time>
      </trkpt>
      <trkpt lat="45.93127" lon="6.7712">
        <ele>854.9</ele>
        <time>2000-01-01T07:53:34.000Z</time>
      </trkpt>
      <trkpt lat="45.93131" lon="6.77121">
        <ele>856.3</ele>
        <time>2000-01-01T07:53:44.000Z</time>
      </trkpt>
      <trkpt lat="45.93164" lon="6.77112">
        <ele>857</ele>
        <time>2000-01-01T07:53:54.000Z</time>
      </trkpt>
      <trkpt lat="45.93189" lon="6.77107">
        <ele>857</ele>
        <time>2000-01-01T07:54:04.000Z</time>
      </trkpt>
      <trkpt lat="45.93203" lon="6.77097">
        <ele>863.9</ele>
        <time>2000-01-01T07:54:14.000Z</time>
      </trkpt>
      <trkpt lat="45.93216" lon="6.77097">
        <ele>860</ele>
        <time>2000-01-01T07:54:24.000Z</time>
      </trkpt>
      <trkpt lat="45.93249" lon="6.77117">
        <ele>864</ele>
        <time>2000-01-01T07:54:34.000Z</time>
      </trkpt>
      <trkpt lat="45.93251" lon="6.77125">
        <ele>876.9</ele>
        <time>2000-01-01T07:54:44.000Z</time>
      </trkpt>
      <trkpt lat="45.93237" lon="6.77149">
        <ele>872</ele>
        <time>2000-01-01T07:54:54.000Z</time>
      </trkpt>
      <trkpt lat="45.93212" lon="6.77174">
        <ele>878</ele>
        <time>2000-01-01T07:55:04.000Z</time>
      </trkpt>
      <trkpt lat="45.9319" lon="6.77195">
        <ele>891</ele>
        <time>2000-01-01T07:55:14.000Z</time>
      </trkpt>
      <trkpt lat="45.93164" lon="6.77221">
        <ele>900</ele>
        <time>2000-01-01T07:55:24.000Z</time>
      </trkpt>
      <trkpt lat="45.93144" lon="6.77223">
        <ele>906</ele>
        <time>2000-01-01T07:55:34.000Z</time>
      </trkpt>
      <trkpt lat="45.93125" lon="6.77239">
        <ele>909</ele>
        <time>2000-01-01T07:55:44.000Z</time>
      </trkpt>
      <trkpt lat="45.93117" lon="6.77237">
        <ele>903.5</ele>
        <time>2000-01-01T07:55:54.000Z</time>
      </trkpt>
      <trkpt lat="45.93106" lon="6.7723">
        <ele>909</ele>
        <time>2000-01-01T07:56:04.000Z</time>
      </trkpt>
      <trkpt lat="45.93098" lon="6.77234">
        <ele>904.3</ele>
        <time>2000-01-01T07:56:14.000Z</time>
      </trkpt>
      <trkpt lat="45.93122" lon="6.77264">
        <ele>916</ele>
        <time>2000-01-01T07:56:24.000Z</time>
      </trkpt>
      <trkpt lat="45.93139" lon="6.77278">
        <ele>918</ele>
        <time>2000-01-01T07:56:34.000Z</time>
      </trkpt>
      <trkpt lat="45.93141" lon="6.77282">
        <ele>909.5</ele>
        <time>2000-01-01T07:56:44.000Z</time>
      </trkpt>
      <trkpt lat="45.93136" lon="6.77293">
        <ele>913</ele>
        <time>2000-01-01T07:56:54.000Z</time>
      </trkpt>
      <trkpt lat="45.93105" lon="6.77291">
        <ele>921</ele>
        <time>2000-01-01T07:57:04.000Z</time>
      </trkpt>
      <trkpt lat="45.93088" lon="6.77297">
        <ele>924.5</ele>
        <time>2000-01-01T07:57:14.000Z</time>
      </trkpt>
      <trkpt lat="45.93068" lon="6.77344">
        <ele>936</ele>
        <time>2000-01-01T07:57:24.000Z</time>
      </trkpt>
      <trkpt lat="45.93066" lon="6.77347">
        <ele>934.2</ele>
        <time>2000-01-01T07:57:34.000Z</time>
      </trkpt>
      <trkpt lat="45.9306" lon="6.77364">
        <ele>936.3</ele>
        <time>2000-01-01T07:57:44.000Z</time>
      </trkpt>
      <trkpt lat="45.93051" lon="6.77374">
        <ele>938</ele>
        <time>2000-01-01T07:57:54.000Z</time>
      </trkpt>
      <trkpt lat="45.93005" lon="6.77371">
        <ele>938</ele>
        <time>2000-01-01T07:58:04.000Z</time>
      </trkpt>
      <trkpt lat="45.92993" lon="6.77377">
        <ele>946.1</ele>
        <time>2000-01-01T07:58:14.000Z</time>
      </trkpt>
      <trkpt lat="45.92984" lon="6.7737">
        <ele>939</ele>
        <time>2000-01-01T07:58:24.000Z</time>
      </trkpt>
      <trkpt lat="45.92974" lon="6.77371">
        <ele>948.2</ele>
        <time>2000-01-01T07:58:34.000Z</time>
      </trkpt>
      <trkpt lat="45.92967" lon="6.7738">
        <ele>939</ele>
        <time>2000-01-01T07:58:44.000Z</time>
      </trkpt>
      <trkpt lat="45.92967" lon="6.77401">
        <ele>953.8</ele>
        <time>2000-01-01T07:58:54.000Z</time>
      </trkpt>
      <trkpt lat="45.92977" lon="6.77461">
        <ele>960</ele>
        <time>2000-01-01T07:59:04.000Z</time>
      </trkpt>
      <trkpt lat="45.92982" lon="6.77511">
        <ele>961</ele>
        <time>2000-01-01T07:59:14.000Z</time>
      </trkpt>
      <trkpt lat="45.92993" lon="6.77543">
        <ele>963</ele>
        <time>2000-01-01T07:59:24.000Z</time>
      </trkpt>
      <trkpt lat="45.93008" lon="6.77553">
        <ele>967.3</ele>
        <time>2000-01-01T07:59:34.000Z</time>
      </trkpt>
      <trkpt lat="45.93015" lon="6.77561">
        <ele>970</ele>
        <time>2000-01-01T07:59:44.000Z</time>
      </trkpt>
      <trkpt lat="45.93023" lon="6.77578">
        <ele>969.7</ele>
        <time>2000-01-01T07:59:54.000Z</time>
      </trkpt>
      <trkpt lat="45.93025" lon="6.77601">
        <ele>981</ele>
        <time>2000-01-01T08:00:04.000Z</time>
      </trkpt>
      <trkpt lat="45.93017" lon="6.77607">
        <ele>977.4</ele>
        <time>2000-01-01T08:00:14.000Z</time>
      </trkpt>
      <trkpt lat="45.93008" lon="6.77604">
        <ele>978.7</ele>
        <time>2000-01-01T08:00:24.000Z</time>
      </trkpt>
      <trkpt lat="45.92997" lon="6.77574">
        <ele>981</ele>
        <time>2000-01-01T08:00:34.000Z</time>
      </trkpt>
      <trkpt lat="45.92992" lon="6.77568">
        <ele>975.6</ele>
        <time>2000-01-01T08:00:44.000Z</time>
      </trkpt>
      <trkpt lat="45.92987" lon="6.77567">
        <ele>977.2</ele>
        <time>2000-01-01T08:00:54.000Z</time>
      </trkpt>
      <trkpt lat="45.92981" lon="6.77573">
        <ele>986</ele>
        <time>2000-01-01T08:01:04.000Z</time>
      </trkpt>
      <trkpt lat="45.92981" lon="6.77582">
        <ele>982.6</ele>
        <time>2000-01-01T08:01:14.000Z</time>
      </trkpt>
      <trkpt lat="45.92984" lon="6.77599">
        <ele>985.1</ele>
        <time>2000-01-01T08:01:24.000Z</time>
      </trkpt>
      <trkpt lat="45.92981" lon="6.77599">
        <ele>986</ele>
        <time>2000-01-01T08:01:34.000Z</time>
      </trkpt>
      <trkpt lat="45.92978" lon="6.77596">
        <ele>986.7</ele>
        <time>2000-01-01T08:01:44.000Z</time>
      </trkpt>
      <trkpt lat="45.92969" lon="6.77574">
        <ele>986</ele>
        <time>2000-01-01T08:01:54.000Z</time>
      </trkpt>
      <trkpt lat="45.9296" lon="6.77542">
        <ele>988</ele>
        <time>2000-01-01T08:02:04.000Z</time>
      </trkpt>
      <trkpt lat="45.92947" lon="6.77523">
        <ele>983.1</ele>
        <time>2000-01-01T08:02:14.000Z</time>
      </trkpt>
      <trkpt lat="45.92888" lon="6.77504">
        <ele>990</ele>
        <time>2000-01-01T08:02:24.000Z</time>
      </trkpt>
      <trkpt lat="45.9288" lon="6.77503">
        <ele>991.9</ele>
        <time>2000-01-01T08:02:34.000Z</time>
      </trkpt>
      <trkpt lat="45.92874" lon="6.77507">
        <ele>993.9</ele>
        <time>2000-01-01T08:02:44.000Z</time>
      </trkpt>
      <trkpt lat="45.9287" lon="6.77513">
        <ele>990</ele>
        <time>2000-01-01T08:02:54.000Z</time>
      </trkpt>
      <trkpt lat="45.92873" lon="6.77526">
        <ele>1000.3</ele>
        <time>2000-01-01T08:03:04.000Z</time>
      </trkpt>
      <trkpt lat="45.92892" lon="6.77546">
        <ele>999</ele>
        <time>2000-01-01T08:03:14.000Z</time>
      </trkpt>
      <trkpt lat="45.92911" lon="6.77591">
        <ele>1003</ele>
        <time>2000-01-01T08:03:24.000Z</time>
      </trkpt>
      <trkpt lat="45.92911" lon="6.776">
        <ele>1016.4</ele>
        <time>2000-01-01T08:03:34.000Z</time>
      </trkpt>
      <trkpt lat="45.92908" lon="6.77608">
        <ele>1020.3</ele>
        <time>2000-01-01T08:03:44.000Z</time>
      </trkpt>
      <trkpt lat="45.92905" lon="6.77609">
        <ele>1021.3</ele>
        <time>2000-01-01T08:03:54.000Z</time>
      </trkpt>
      <trkpt lat="45.92901" lon="6.77608">
        <ele>1019</ele>
        <time>2000-01-01T08:04:04.000Z</time>
      </trkpt>
      <trkpt lat="45.9288" lon="6.77578">
        <ele>1019</ele>
        <time>2000-01-01T08:04:14.000Z</time>
      </trkpt>
      <trkpt lat="45.92869" lon="6.77571">
        <ele>1015.3</ele>
        <time>2000-01-01T08:04:24.000Z</time>
      </trkpt>
      <trkpt lat="45.92849" lon="6.77566">
        <ele>1015</ele>
        <time>2000-01-01T08:04:34.000Z</time>
      </trkpt>
      <trkpt lat="45.92813" lon="6.77561">
        <ele>1015</ele>
        <time>2000-01-01T08:04:44.000Z</time>
      </trkpt>
      <trkpt lat="45.92775" lon="6.77565">
        <ele>1015</ele>
        <time>2000-01-01T08:04:54.000Z</time>
      </trkpt>
      <trkpt lat="45.92754" lon="6.77583">
        <ele>1022</ele>
        <time>2000-01-01T08:05:04.000Z</time>
      </trkpt>
      <trkpt lat="45.92733" lon="6.77606">
        <ele>1023</ele>
        <time>2000-01-01T08:05:14.000Z</time>
      </trkpt>
      <trkpt lat="45.92733" lon="6.77645">
        <ele>1039</ele>
        <time>2000-01-01T08:05:24.000Z</time>
      </trkpt>
      <trkpt lat="45.92729" lon="6.77671">
        <ele>1051.7</ele>
        <time>2000-01-01T08:05:34.000Z</time>
      </trkpt>
      <trkpt lat="45.92723" lon="6.77685">
        <ele>1049</ele>
        <time>2000-01-01T08:05:44.000Z</time>
      </trkpt>
      <trkpt lat="45.92708" lon="6.77702">
        <ele>1065</ele>
        <time>2000-01-01T08:05:54.000Z</time>
      </trkpt>
      <trkpt lat="45.92683" lon="6.77713">
        <ele>1082</ele>
        <time>2000-01-01T08:06:04.000Z</time>
      </trkpt>
      <trkpt lat="45.92681" lon="6.77713">
        <ele>1080.8</ele>
        <time>2000-01-01T08:06:14.000Z</time>
      </trkpt>
      <trkpt lat="45.92662" lon="6.77723">
        <ele>1082</ele>
        <time>2000-01-01T08:06:24.000Z</time>
      </trkpt>
      <trkpt lat="45.9263" lon="6.77742">
        <ele>1101</ele>
        <time>2000-01-01T08:06:34.000Z</time>
      </trkpt>
      <trkpt lat="45.92607" lon="6.77761">
        <ele>1101</ele>
        <time>2000-01-01T08:06:44.000Z</time>
      </trkpt>
      <trkpt lat="45.92586" lon="6.77765">
        <ele>1111</ele>
        <time>2000-01-01T08:06:54.000Z</time>
      </trkpt>
      <trkpt lat="45.92554" lon="6.77756">
        <ele>1115</ele>
        <time>2000-01-01T08:07:04.000Z</time>
      </trkpt>
      <trkpt lat="45.92516" lon="6.77756">
        <ele>1120</ele>
        <time>2000-01-01T08:07:14.000Z</time>
      </trkpt>
      <trkpt lat="45.92495" lon="6.77772">
        <ele>1132</ele>
        <time>2000-01-01T08:07:24.000Z</time>
      </trkpt>
      <trkpt lat="45.92475" lon="6.77792">
        <ele>1134</ele>
        <time>2000-01-01T08:07:34.000Z</time>
      </trkpt>
      <trkpt lat="45.92456" lon="6.77798">
        <ele>1137</ele>
        <time>2000-01-01T08:07:44.000Z</time>
      </trkpt>
      <trkpt lat="45.92443" lon="6.77789">
        <ele>1134.2</ele>
        <time>2000-01-01T08:07:54.000Z</time>
      </trkpt>
      <trkpt lat="45.92401" lon="6.77784">
        <ele>1143</ele>
        <time>2000-01-01T08:08:04.000Z</time>
      </trkpt>
      <trkpt lat="45.92376" lon="6.77778">
        <ele>1150</ele>
        <time>2000-01-01T08:08:14.000Z</time>
      </trkpt>
      <trkpt lat="45.92347" lon="6.77772">
        <ele>1148</ele>
        <time>2000-01-01T08:08:24.000Z</time>
      </trkpt>
      <trkpt lat="45.92305" lon="6.7777">
        <ele>1149</ele>
        <time>2000-01-01T08:08:34.000Z</time>
      </trkpt>
      <trkpt lat="45.92277" lon="6.77784">
        <ele>1151</ele>
        <time>2000-01-01T08:08:44.000Z</time>
      </trkpt>
      <trkpt lat="45.92244" lon="6.77809">
        <ele>1162</ele>
        <time>2000-01-01T08:08:54.000Z</time>
      </trkpt>
      <trkpt lat="45.92268" lon="6.77813">
        <ele>1162</ele>
        <time>2000-01-01T08:09:04.000Z</time>
      </trkpt>
      <trkpt lat="45.92294" lon="6.77817">
        <ele>1172</ele>
        <time>2000-01-01T08:09:14.000Z</time>
      </trkpt>
      <trkpt lat="45.9229" lon="6.77823">
        <ele>1168.3</ele>
        <time>2000-01-01T08:09:24.000Z</time>
      </trkpt>
      <trkpt lat="45.92315" lon="6.77852">
        <ele>1177</ele>
        <time>2000-01-01T08:09:34.000Z</time>
      </trkpt>
      <trkpt lat="45.92336" lon="6.77866">
        <ele>1182</ele>
        <time>2000-01-01T08:09:44.000Z</time>
      </trkpt>
      <trkpt lat="45.92358" lon="6.77881">
        <ele>1195</ele>
        <time>2000-01-01T08:09:54.000Z</time>
      </trkpt>
      <trkpt lat="45.92386" lon="6.77911">
        <ele>1201</ele>
        <time>2000-01-01T08:10:04.000Z</time>
      </trkpt>
      <trkpt lat="45.92395" lon="6.77926">
        <ele>1199.2</ele>
        <time>2000-01-01T08:10:14.000Z</time>
      </trkpt>
      <trkpt lat="45.92373" lon="6.77927">
        <ele>1208</ele>
        <time>2000-01-01T08:10:24.000Z</time>
      </trkpt>
      <trkpt lat="45.92353" lon="6.77923">
        <ele>1208</ele>
        <time>2000-01-01T08:10:34.000Z</time>
      </trkpt>
      <trkpt lat="45.92318" lon="6.77906">
        <ele>1207</ele>
        <time>2000-01-01T08:10:44.000Z</time>
      </trkpt>
      <trkpt lat="45.92282" lon="6.77899">
        <ele>1207</ele>
        <time>2000-01-01T08:10:54.000Z</time>
      </trkpt>
      <trkpt lat="45.92254" lon="6.77902">
        <ele>1207</ele>
        <time>2000-01-01T08:11:04.000Z</time>
      </trkpt>
      <trkpt lat="45.92243" lon="6.77905">
        <ele>1218.1</ele>
        <time>2000-01-01T08:11:14.000Z</time>
      </trkpt>
      <trkpt lat="45.92257" lon="6.77928">
        <ele>1231</ele>
        <time>2000-01-01T08:11:24.000Z</time>
      </trkpt>
      <trkpt lat="45.92291" lon="6.77962">
        <ele>1243</ele>
        <time>2000-01-01T08:11:34.000Z</time>
      </trkpt>
      <trkpt lat="45.92292" lon="6.77968">
        <ele>1238.1</ele>
        <time>2000-01-01T08:11:44.000Z</time>
      </trkpt>
      <trkpt lat="45.92267" lon="6.77961">
        <ele>1252</ele>
        <time>2000-01-01T08:11:54.000Z</time>
      </trkpt>
      <trkpt lat="45.92241" lon="6.77968">
        <ele>1252</ele>
        <time>2000-01-01T08:12:04.000Z</time>
      </trkpt>
      <trkpt lat="45.9223" lon="6.77973">
        <ele>1253.7</ele>
        <time>2000-01-01T08:12:14.000Z</time>
      </trkpt>
      <trkpt lat="45.92245" lon="6.77993">
        <ele>1268</ele>
        <time>2000-01-01T08:12:24.000Z</time>
      </trkpt>
      <trkpt lat="45.9227" lon="6.78021">
        <ele>1283</ele>
        <time>2000-01-01T08:12:34.000Z</time>
      </trkpt>
      <trkpt lat="45.92246" lon="6.78042">
        <ele>1283</ele>
        <time>2000-01-01T08:12:44.000Z</time>
      </trkpt>
      <trkpt lat="45.92215" lon="6.78031">
        <ele>1290</ele>
        <time>2000-01-01T08:12:54.000Z</time>
      </trkpt>
      <trkpt lat="45.92233" lon="6.78081">
        <ele>1305</ele>
        <time>2000-01-01T08:13:04.000Z</time>
      </trkpt>
      <trkpt lat="45.92207" lon="6.78082">
        <ele>1305</ele>
        <time>2000-01-01T08:13:14.000Z</time>
      </trkpt>
      <trkpt lat="45.92191" lon="6.78086">
        <ele>1307.2</ele>
        <time>2000-01-01T08:13:24.000Z</time>
      </trkpt>
      <trkpt lat="45.92199" lon="6.78118">
        <ele>1312</ele>
        <time>2000-01-01T08:13:34.000Z</time>
      </trkpt>
      <trkpt lat="45.92168" lon="6.78125">
        <ele>1317</ele>
        <time>2000-01-01T08:13:44.000Z</time>
      </trkpt>
      <trkpt lat="45.92159" lon="6.7813">
        <ele>1323.8</ele>
        <time>2000-01-01T08:13:54.000Z</time>
      </trkpt>
      <trkpt lat="45.9214" lon="6.78153">
        <ele>1333</ele>
        <time>2000-01-01T08:14:04.000Z</time>
      </trkpt>
      <trkpt lat="45.92137" lon="6.78164">
        <ele>1333.8</ele>
        <time>2000-01-01T08:14:14.000Z</time>
      </trkpt>
      <trkpt lat="45.92133" lon="6.78195">
        <ele>1333</ele>
        <time>2000-01-01T08:14:24.000Z</time>
      </trkpt>
      <trkpt lat="45.92136" lon="6.78203">
        <ele>1338.6</ele>
        <time>2000-01-01T08:14:34.000Z</time>
      </trkpt>
      <trkpt lat="45.92163" lon="6.78229">
        <ele>1334</ele>
        <time>2000-01-01T08:14:44.000Z</time>
      </trkpt>
      <trkpt lat="45.92148" lon="6.78245">
        <ele>1346.4</ele>
        <time>2000-01-01T08:14:54.000Z</time>
      </trkpt>
      <trkpt lat="45.92129" lon="6.78271">
        <ele>1343</ele>
        <time>2000-01-01T08:15:04.000Z</time>
      </trkpt>
      <trkpt lat="45.92163" lon="6.78274">
        <ele>1352</ele>
        <time>2000-01-01T08:15:14.000Z</time>
      </trkpt>
      <trkpt lat="45.92162" lon="6.78284">
        <ele>1360.1</ele>
        <time>2000-01-01T08:15:24.000Z</time>
      </trkpt>
      <trkpt lat="45.92142" lon="6.783">
        <ele>1354</ele>
        <time>2000-01-01T08:15:34.000Z</time>
      </trkpt>
      <trkpt lat="45.92126" lon="6.78321">
        <ele>1379</ele>
        <time>2000-01-01T08:15:44.000Z</time>
      </trkpt>
      <trkpt lat="45.92105" lon="6.78351">
        <ele>1394</ele>
        <time>2000-01-01T08:15:54.000Z</time>
      </trkpt>
      <trkpt lat="45.9208" lon="6.78386">
        <ele>1402</ele>
        <time>2000-01-01T08:16:04.000Z</time>
      </trkpt>
      <trkpt lat="45.92088" lon="6.78416">
        <ele>1410</ele>
        <time>2000-01-01T08:16:14.000Z</time>
      </trkpt>
      <trkpt lat="45.92067" lon="6.78437">
        <ele>1414</ele>
        <time>2000-01-01T08:16:24.000Z</time>
      </trkpt>
      <trkpt lat="45.92043" lon="6.7846">
        <ele>1437</ele>
        <time>2000-01-01T08:16:34.000Z</time>
      </trkpt>
      <trkpt lat="45.9207" lon="6.78474">
        <ele>1446</ele>
        <time>2000-01-01T08:16:44.000Z</time>
      </trkpt>
      <trkpt lat="45.9205" lon="6.78499">
        <ele>1453</ele>
        <time>2000-01-01T08:16:54.000Z</time>
      </trkpt>
      <trkpt lat="45.92025" lon="6.78531">
        <ele>1460</ele>
        <time>2000-01-01T08:17:04.000Z</time>
      </trkpt>
      <trkpt lat="45.91999" lon="6.78543">
        <ele>1460</ele>
        <time>2000-01-01T08:17:14.000Z</time>
      </trkpt>
      <trkpt lat="45.91977" lon="6.78563">
        <ele>1463</ele>
        <time>2000-01-01T08:17:24.000Z</time>
      </trkpt>
      <trkpt lat="45.91937" lon="6.78583">
        <ele>1463</ele>
        <time>2000-01-01T08:17:34.000Z</time>
      </trkpt>
      <trkpt lat="45.91909" lon="6.78593">
        <ele>1465</ele>
        <time>2000-01-01T08:17:44.000Z</time>
      </trkpt>
      <trkpt lat="45.91886" lon="6.78602">
        <ele>1467</ele>
        <time>2000-01-01T08:17:54.000Z</time>
      </trkpt>
      <trkpt lat="45.91863" lon="6.78611">
        <ele>1467</ele>
        <time>2000-01-01T08:18:04.000Z</time>
      </trkpt>
      <trkpt lat="45.91861" lon="6.7863">
        <ele>1469.8</ele>
        <time>2000-01-01T08:18:14.000Z</time>
      </trkpt>
      <trkpt lat="45.91837" lon="6.78658">
        <ele>1478</ele>
        <time>2000-01-01T08:18:24.000Z</time>
      </trkpt>
      <trkpt lat="45.91813" lon="6.7868">
        <ele>1484</ele>
        <time>2000-01-01T08:18:34.000Z</time>
      </trkpt>
      <trkpt lat="45.91775" lon="6.78714">
        <ele>1490</ele>
        <time>2000-01-01T08:18:44.000Z</time>
      </trkpt>
      <trkpt lat="45.91748" lon="6.78719">
        <ele>1490</ele>
        <time>2000-01-01T08:18:54.000Z</time>
      </trkpt>
      <trkpt lat="45.91711" lon="6.78727">
        <ele>1497</ele>
        <time>2000-01-01T08:19:04.000Z</time>
      </trkpt>
      <trkpt lat="45.91676" lon="6.78758">
        <ele>1505</ele>
        <time>2000-01-01T08:19:14.000Z</time>
      </trkpt>
      <trkpt lat="45.91659" lon="6.78786">
        <ele>1510</ele>
        <time>2000-01-01T08:19:24.000Z</time>
      </trkpt>
      <trkpt lat="45.91639" lon="6.78819">
        <ele>1518</ele>
        <time>2000-01-01T08:19:34.000Z</time>
      </trkpt>
      <trkpt lat="45.91633" lon="6.78837">
        <ele>1522.7</ele>
        <time>2000-01-01T08:19:44.000Z</time>
      </trkpt>
      <trkpt lat="45.91566" lon="6.78865">
        <ele>1535</ele>
        <time>2000-01-01T08:19:54.000Z</time>
      </trkpt>
      <trkpt lat="45.9155" lon="6.78887">
        <ele>1549</ele>
        <time>2000-01-01T08:20:04.000Z</time>
      </trkpt>
      <trkpt lat="45.91542" lon="6.78915">
        <ele>1552</ele>
        <time>2000-01-01T08:20:14.000Z</time>
      </trkpt>
      <trkpt lat="45.91542" lon="6.78928">
        <ele>1547.5</ele>
        <time>2000-01-01T08:20:24.000Z</time>
      </trkpt>
      <trkpt lat="45.91551" lon="6.78958">
        <ele>1551</ele>
        <time>2000-01-01T08:20:34.000Z</time>
      </trkpt>
      <trkpt lat="45.91581" lon="6.78959">
        <ele>1551</ele>
        <time>2000-01-01T08:20:44.000Z</time>
      </trkpt>
      <trkpt lat="45.91611" lon="6.78964">
        <ele>1552</ele>
        <time>2000-01-01T08:20:54.000Z</time>
      </trkpt>
      <trkpt lat="45.91641" lon="6.78957">
        <ele>1551</ele>
        <time>2000-01-01T08:21:04.000Z</time>
      </trkpt>
      <trkpt lat="45.91668" lon="6.78945">
        <ele>1551</ele>
        <time>2000-01-01T08:21:14.000Z</time>
      </trkpt>
      <trkpt lat="45.91696" lon="6.78939">
        <ele>1548</ele>
        <time>2000-01-01T08:21:24.000Z</time>
      </trkpt>
      <trkpt lat="45.91728" lon="6.78937">
        <ele>1550</ele>
        <time>2000-01-01T08:21:34.000Z</time>
      </trkpt>
      <trkpt lat="45.91766" lon="6.78932">
        <ele>1552</ele>
        <time>2000-01-01T08:21:44.000Z</time>
      </trkpt>
      <trkpt lat="45.91794" lon="6.78922">
        <ele>1565</ele>
        <time>2000-01-01T08:21:54.000Z</time>
      </trkpt>
      <trkpt lat="45.91821" lon="6.78907">
        <ele>1576</ele>
        <time>2000-01-01T08:22:04.000Z</time>
      </trkpt>
      <trkpt lat="45.91863" lon="6.78882">
        <ele>1583</ele>
        <time>2000-01-01T08:22:14.000Z</time>
      </trkpt>
      <trkpt lat="45.91892" lon="6.78872">
        <ele>1590</ele>
        <time>2000-01-01T08:22:24.000Z</time>
      </trkpt>
      <trkpt lat="45.91911" lon="6.78861">
        <ele>1589</ele>
        <time>2000-01-01T08:22:34.000Z</time>
      </trkpt>
      <trkpt lat="45.91939" lon="6.78849">
        <ele>1589</ele>
        <time>2000-01-01T08:22:44.000Z</time>
      </trkpt>
      <trkpt lat="45.91957" lon="6.78849">
        <ele>1611.3</ele>
        <time>2000-01-01T08:22:54.000Z</time>
      </trkpt>
      <trkpt lat="45.92007" lon="6.78836">
        <ele>1599</ele>
        <time>2000-01-01T08:23:04.000Z</time>
      </trkpt>
      <trkpt lat="45.92038" lon="6.78816">
        <ele>1609</ele>
        <time>2000-01-01T08:23:14.000Z</time>
      </trkpt>
      <trkpt lat="45.9206" lon="6.78808">
        <ele>1617</ele>
        <time>2000-01-01T08:23:24.000Z</time>
      </trkpt>
      <trkpt lat="45.92078" lon="6.78812">
        <ele>1630.3</ele>
        <time>2000-01-01T08:23:34.000Z</time>
      </trkpt>
      <trkpt lat="45.92104" lon="6.78825">
        <ele>1629</ele>
        <time>2000-01-01T08:23:44.000Z</time>
      </trkpt>
      <trkpt lat="45.92132" lon="6.78804">
        <ele>1642</ele>
        <time>2000-01-01T08:23:54.000Z</time>
      </trkpt>
      <trkpt lat="45.92156" lon="6.78802">
        <ele>1642</ele>
        <time>2000-01-01T08:24:04.000Z</time>
      </trkpt>
      <trkpt lat="45.9218" lon="6.78799">
        <ele>1646</ele>
        <time>2000-01-01T08:24:14.000Z</time>
      </trkpt>
      <trkpt lat="45.92205" lon="6.78812">
        <ele>1651</ele>
        <time>2000-01-01T08:24:24.000Z</time>
      </trkpt>
      <trkpt lat="45.92222" lon="6.78812">
        <ele>1669.2</ele>
        <time>2000-01-01T08:24:34.000Z</time>
      </trkpt>
      <trkpt lat="45.92242" lon="6.78817">
        <ele>1655</ele>
        <time>2000-01-01T08:24:44.000Z</time>
      </trkpt>
      <trkpt lat="45.92255" lon="6.78791">
        <ele>1656</ele>
        <time>2000-01-01T08:24:54.000Z</time>
      </trkpt>
      <trkpt lat="45.92272" lon="6.78765">
        <ele>1657</ele>
        <time>2000-01-01T08:25:04.000Z</time>
      </trkpt>
      <trkpt lat="45.92299" lon="6.78753">
        <ele>1657</ele>
        <time>2000-01-01T08:25:14.000Z</time>
      </trkpt>
      <trkpt lat="45.9232" lon="6.78752">
        <ele>1663</ele>
        <time>2000-01-01T08:25:24.000Z</time>
      </trkpt>
      <trkpt lat="45.92362" lon="6.78758">
        <ele>1671</ele>
        <time>2000-01-01T08:25:34.000Z</time>
      </trkpt>
      <trkpt lat="45.92408" lon="6.78758">
        <ele>1679</ele>
        <time>2000-01-01T08:25:44.000Z</time>
      </trkpt>
      <trkpt lat="45.92432" lon="6.78781">
        <ele>1694</ele>
        <time>2000-01-01T08:25:54.000Z</time>
      </trkpt>
      <trkpt lat="45.9241" lon="6.7884">
        <ele>1714</ele>
        <time>2000-01-01T08:26:04.000Z</time>
      </trkpt>
      <trkpt lat="45.92396" lon="6.78857">
        <ele>1726.6</ele>
        <time>2000-01-01T08:26:14.000Z</time>
      </trkpt>
      <trkpt lat="45.92428" lon="6.78872">
        <ele>1728</ele>
        <time>2000-01-01T08:26:24.000Z</time>
      </trkpt>
      <trkpt lat="45.92422" lon="6.789">
        <ele>1735</ele>
        <time>2000-01-01T08:26:34.000Z</time>
      </trkpt>
      <trkpt lat="45.92408" lon="6.78913">
        <ele>1742.6</ele>
        <time>2000-01-01T08:26:44.000Z</time>
      </trkpt>
      <trkpt lat="45.92376" lon="6.78966">
        <ele>1756</ele>
        <time>2000-01-01T08:26:54.000Z</time>
      </trkpt>
      <trkpt lat="45.92353" lon="6.79019">
        <ele>1765</ele>
        <time>2000-01-01T08:27:04.000Z</time>
      </trkpt>
      <trkpt lat="45.92332" lon="6.79038">
        <ele>1773</ele>
        <time>2000-01-01T08:27:14.000Z</time>
      </trkpt>
      <trkpt lat="45.92307" lon="6.79061">
        <ele>1781</ele>
        <time>2000-01-01T08:27:24.000Z</time>
      </trkpt>
      <trkpt lat="45.9234" lon="6.79083">
        <ele>1795</ele>
        <time>2000-01-01T08:27:34.000Z</time>
      </trkpt>
      <trkpt lat="45.92308" lon="6.7911">
        <ele>1807</ele>
        <time>2000-01-01T08:27:44.000Z</time>
      </trkpt>
      <trkpt lat="45.92328" lon="6.79132">
        <ele>1805</ele>
        <time>2000-01-01T08:27:54.000Z</time>
      </trkpt>
      <trkpt lat="45.92351" lon="6.79158">
        <ele>1810</ele>
        <time>2000-01-01T08:28:04.000Z</time>
      </trkpt>
      <trkpt lat="45.92324" lon="6.79165">
        <ele>1816</ele>
        <time>2000-01-01T08:28:14.000Z</time>
      </trkpt>
      <trkpt lat="45.92338" lon="6.79184">
        <ele>1816</ele>
        <time>2000-01-01T08:28:24.000Z</time>
      </trkpt>
      <trkpt lat="45.92319" lon="6.79182">
        <ele>1823</ele>
        <time>2000-01-01T08:28:34.000Z</time>
      </trkpt>
      <trkpt lat="45.92331" lon="6.79202">
        <ele>1849.1</ele>
        <time>2000-01-01T08:28:44.000Z</time>
      </trkpt>
      <trkpt lat="45.92307" lon="6.79231">
        <ele>1851</ele>
        <time>2000-01-01T08:28:54.000Z</time>
      </trkpt>
      <trkpt lat="45.92283" lon="6.79238">
        <ele>1868</ele>
        <time>2000-01-01T08:29:04.000Z</time>
      </trkpt>
      <trkpt lat="45.92257" lon="6.79246">
        <ele>1875</ele>
        <time>2000-01-01T08:29:14.000Z</time>
      </trkpt>
      <trkpt lat="45.92241" lon="6.79245">
        <ele>1892.7</ele>
        <time>2000-01-01T08:29:24.000Z</time>
      </trkpt>
      <trkpt lat="45.92229" lon="6.79256">
        <ele>1883</ele>
        <time>2000-01-01T08:29:34.000Z</time>
      </trkpt>
      <trkpt lat="45.92219" lon="6.79279">
        <ele>1896</ele>
        <time>2000-01-01T08:29:44.000Z</time>
      </trkpt>
      <trkpt lat="45.92217" lon="6.79306">
        <ele>1907</ele>
        <time>2000-01-01T08:29:54.000Z</time>
      </trkpt>
      <trkpt lat="45.92219" lon="6.79343">
        <ele>1916</ele>
        <time>2000-01-01T08:30:04.000Z</time>
      </trkpt>
      <trkpt lat="45.92248" lon="6.79324">
        <ele>1926</ele>
        <time>2000-01-01T08:30:14.000Z</time>
      </trkpt>
      <trkpt lat="45.92246" lon="6.7934">
        <ele>1938.9</ele>
        <time>2000-01-01T08:30:24.000Z</time>
      </trkpt>
      <trkpt lat="45.92254" lon="6.79339">
        <ele>1926</ele>
        <time>2000-01-01T08:30:34.000Z</time>
      </trkpt>
      <trkpt lat="45.92244" lon="6.79362">
        <ele>1934</ele>
        <time>2000-01-01T08:30:44.000Z</time>
      </trkpt>
      <trkpt lat="45.92254" lon="6.79366">
        <ele>1944.9</ele>
        <time>2000-01-01T08:30:54.000Z</time>
      </trkpt>
      <trkpt lat="45.92254" lon="6.794">
        <ele>1941</ele>
        <time>2000-01-01T08:31:04.000Z</time>
      </trkpt>
      <trkpt lat="45.92246" lon="6.79431">
        <ele>1947</ele>
        <time>2000-01-01T08:31:14.000Z</time>
      </trkpt>
      <trkpt lat="45.92247" lon="6.79443">
        <ele>1961.4</ele>
        <time>2000-01-01T08:31:24.000Z</time>
      </trkpt>
      <trkpt lat="45.92229" lon="6.79481">
        <ele>1953</ele>
        <time>2000-01-01T08:31:34.000Z</time>
      </trkpt>
      <trkpt lat="45.92226" lon="6.79531">
        <ele>1967</ele>
        <time>2000-01-01T08:31:44.000Z</time>
      </trkpt>
      <trkpt lat="45.92216" lon="6.79552">
        <ele>1977.9</ele>
        <time>2000-01-01T08:31:54.000Z</time>
      </trkpt>
      <trkpt lat="45.92214" lon="6.79567">
        <ele>1974</ele>
        <time>2000-01-01T08:32:04.000Z</time>
      </trkpt>
      <trkpt lat="45.92206" lon="6.79585">
        <ele>1983.6</ele>
        <time>2000-01-01T08:32:14.000Z</time>
      </trkpt>
      <trkpt lat="45.92139" lon="6.79669">
        <ele>1973</ele>
        <time>2000-01-01T08:32:24.000Z</time>
      </trkpt>
      <trkpt lat="45.92122" lon="6.79696">
        <ele>1973</ele>
        <time>2000-01-01T08:32:34.000Z</time>
      </trkpt>
      <trkpt lat="45.92103" lon="6.79727">
        <ele>1983</ele>
        <time>2000-01-01T08:32:44.000Z</time>
      </trkpt>
      <trkpt lat="45.92084" lon="6.79751">
        <ele>1981</ele>
        <time>2000-01-01T08:32:54.000Z</time>
      </trkpt>
      <trkpt lat="45.9206" lon="6.79781">
        <ele>1979</ele>
        <time>2000-01-01T08:33:04.000Z</time>
      </trkpt>
      <trkpt lat="45.92032" lon="6.79793">
        <ele>1975</ele>
        <time>2000-01-01T08:33:14.000Z</time>
      </trkpt>
      <trkpt lat="45.92009" lon="6.79803">
        <ele>1971</ele>
        <time>2000-01-01T08:33:24.000Z</time>
      </trkpt>
      <trkpt lat="45.91984" lon="6.79814">
        <ele>1969</ele>
        <time>2000-01-01T08:33:34.000Z</time>
      </trkpt>
      <trkpt lat="45.91958" lon="6.79832">
        <ele>1968</ele>
        <time>2000-01-01T08:33:44.000Z</time>
      </trkpt>
      <trkpt lat="45.91918" lon="6.79848">
        <ele>1964</ele>
        <time>2000-01-01T08:33:54.000Z</time>
      </trkpt>
      <trkpt lat="45.91886" lon="6.79871">
        <ele>1961</ele>
        <time>2000-01-01T08:34:04.000Z</time>
      </trkpt>
      <trkpt lat="45.91871" lon="6.79871">
        <ele>1965.8</ele>
        <time>2000-01-01T08:34:14.000Z</time>
      </trkpt>
      <trkpt lat="45.91859" lon="6.79876">
        <ele>1949</ele>
        <time>2000-01-01T08:34:24.000Z</time>
      </trkpt>
      <trkpt lat="45.91844" lon="6.79885">
        <ele>1963.8</ele>
        <time>2000-01-01T08:34:34.000Z</time>
      </trkpt>
      <trkpt lat="45.91817" lon="6.79896">
        <ele>1946</ele>
        <time>2000-01-01T08:34:44.000Z</time>
      </trkpt>
      <trkpt lat="45.91776" lon="6.79926">
        <ele>1945</ele>
        <time>2000-01-01T08:34:54.000Z</time>
      </trkpt>
      <trkpt lat="45.91755" lon="6.79949">
        <ele>1945</ele>
        <time>2000-01-01T08:35:04.000Z</time>
      </trkpt>
      <trkpt lat="45.91754" lon="6.79951">
        <ele>1961.6</ele>
        <time>2000-01-01T08:35:14.000Z</time>
      </trkpt>
      <trkpt lat="45.91704" lon="6.80009">
        <ele>1952</ele>
        <time>2000-01-01T08:35:24.000Z</time>
      </trkpt>
      <trkpt lat="45.91672" lon="6.80038">
        <ele>1949</ele>
        <time>2000-01-01T08:35:34.000Z</time>
      </trkpt>
      <trkpt lat="45.91651" lon="6.80071">
        <ele>1946</ele>
        <time>2000-01-01T08:35:44.000Z</time>
      </trkpt>
      <trkpt lat="45.91633" lon="6.80099">
        <ele>1946</ele>
        <time>2000-01-01T08:35:54.000Z</time>
      </trkpt>
      <trkpt lat="45.91609" lon="6.80135">
        <ele>1946</ele>
        <time>2000-01-01T08:36:04.000Z</time>
      </trkpt>
      <trkpt lat="45.91595" lon="6.80179">
        <ele>1946</ele>
        <time>2000-01-01T08:36:14.000Z</time>
      </trkpt>
      <trkpt lat="45.91581" lon="6.80223">
        <ele>1956</ele>
        <time>2000-01-01T08:36:24.000Z</time>
      </trkpt>
      <trkpt lat="45.91571" lon="6.80255">
        <ele>1954</ele>
        <time>2000-01-01T08:36:34.000Z</time>
      </trkpt>
      <trkpt lat="45.91559" lon="6.80292">
        <ele>1953</ele>
        <time>2000-01-01T08:36:44.000Z</time>
      </trkpt>
      <trkpt lat="45.91539" lon="6.80327">
        <ele>1953</ele>
        <time>2000-01-01T08:36:54.000Z</time>
      </trkpt>
      <trkpt lat="45.91529" lon="6.80362">
        <ele>1953</ele>
        <time>2000-01-01T08:37:04.000Z</time>
      </trkpt>
      <trkpt lat="45.91516" lon="6.80405">
        <ele>1949</ele>
        <time>2000-01-01T08:37:14.000Z</time>
      </trkpt>
      <trkpt lat="45.91499" lon="6.80446">
        <ele>1950</ele>
        <time>2000-01-01T08:37:24.000Z</time>
      </trkpt>
      <trkpt lat="45.91493" lon="6.80482">
        <ele>1949</ele>
        <time>2000-01-01T08:37:34.000Z</time>
      </trkpt>
      <trkpt lat="45.91485" lon="6.80526">
        <ele>1949</ele>
        <time>2000-01-01T08:37:44.000Z</time>
      </trkpt>
      <trkpt lat="45.91467" lon="6.80569">
        <ele>1945</ele>
        <time>2000-01-01T08:37:54.000Z</time>
      </trkpt>
      <trkpt lat="45.91457" lon="6.80619">
        <ele>1941</ele>
        <time>2000-01-01T08:38:04.000Z</time>
      </trkpt>
      <trkpt lat="45.9146" lon="6.80665">
        <ele>1941</ele>
        <time>2000-01-01T08:38:14.000Z</time>
      </trkpt>
      <trkpt lat="45.91456" lon="6.80702">
        <ele>1943</ele>
        <time>2000-01-01T08:38:24.000Z</time>
      </trkpt>
      <trkpt lat="45.9145" lon="6.8075">
        <ele>1939</ele>
        <time>2000-01-01T08:38:34.000Z</time>
      </trkpt>
      <trkpt lat="45.91439" lon="6.8078">
        <ele>1938</ele>
        <time>2000-01-01T08:38:44.000Z</time>
      </trkpt>
      <trkpt lat="45.91439" lon="6.80828">
        <ele>1938</ele>
        <time>2000-01-01T08:38:54.000Z</time>
      </trkpt>
      <trkpt lat="45.91432" lon="6.80861">
        <ele>1938</ele>
        <time>2000-01-01T08:39:04.000Z</time>
      </trkpt>
      <trkpt lat="45.91424" lon="6.80898">
        <ele>1939</ele>
        <time>2000-01-01T08:39:14.000Z</time>
      </trkpt>
      <trkpt lat="45.91411" lon="6.80934">
        <ele>1935</ele>
        <time>2000-01-01T08:39:24.000Z</time>
      </trkpt>
      <trkpt lat="45.9139" lon="6.80991">
        <ele>1931</ele>
        <time>2000-01-01T08:39:34.000Z</time>
      </trkpt>
      <trkpt lat="45.91384" lon="6.81002">
        <ele>1930.1</ele>
        <time>2000-01-01T08:39:44.000Z</time>
      </trkpt>
      <trkpt lat="45.91379" lon="6.81019">
        <ele>1918</ele>
        <time>2000-01-01T08:39:54.000Z</time>
      </trkpt>
      <trkpt lat="45.9137" lon="6.80991">
        <ele>1918</ele>
        <time>2000-01-01T08:40:04.000Z</time>
      </trkpt>
      <trkpt lat="45.91367" lon="6.80975">
        <ele>1921.7</ele>
        <time>2000-01-01T08:40:14.000Z</time>
      </trkpt>
      <trkpt lat="45.91369" lon="6.80946">
        <ele>1917</ele>
        <time>2000-01-01T08:40:24.000Z</time>
      </trkpt>
      <trkpt lat="45.91368" lon="6.80922">
        <ele>1920.3</ele>
        <time>2000-01-01T08:40:34.000Z</time>
      </trkpt>
      <trkpt lat="45.91343" lon="6.8085">
        <ele>1906</ele>
        <time>2000-01-01T08:40:44.000Z</time>
      </trkpt>
      <trkpt lat="45.91338" lon="6.8083">
        <ele>1917.3</ele>
        <time>2000-01-01T08:40:54.000Z</time>
      </trkpt>
      <trkpt lat="45.91336" lon="6.80805">
        <ele>1902</ele>
        <time>2000-01-01T08:41:04.000Z</time>
      </trkpt>
      <trkpt lat="45.91339" lon="6.80772">
        <ele>1899</ele>
        <time>2000-01-01T08:41:14.000Z</time>
      </trkpt>
      <trkpt lat="45.91335" lon="6.80714">
        <ele>1898</ele>
        <time>2000-01-01T08:41:24.000Z</time>
      </trkpt>
      <trkpt lat="45.91328" lon="6.80678">
        <ele>1895</ele>
        <time>2000-01-01T08:41:34.000Z</time>
      </trkpt>
      <trkpt lat="45.91318" lon="6.80631">
        <ele>1889</ele>
        <time>2000-01-01T08:41:44.000Z</time>
      </trkpt>
      <trkpt lat="45.91326" lon="6.80591">
        <ele>1884</ele>
        <time>2000-01-01T08:41:54.000Z</time>
      </trkpt>
      <trkpt lat="45.91339" lon="6.80527">
        <ele>1871</ele>
        <time>2000-01-01T08:42:04.000Z</time>
      </trkpt>
      <trkpt lat="45.91343" lon="6.80486">
        <ele>1859</ele>
        <time>2000-01-01T08:42:14.000Z</time>
      </trkpt>
      <trkpt lat="45.91349" lon="6.80422">
        <ele>1858</ele>
        <time>2000-01-01T08:42:24.000Z</time>
      </trkpt>
      <trkpt lat="45.91355" lon="6.8038">
        <ele>1857</ele>
        <time>2000-01-01T08:42:34.000Z</time>
      </trkpt>
      <trkpt lat="45.9136" lon="6.80345">
        <ele>1854</ele>
        <time>2000-01-01T08:42:44.000Z</time>
      </trkpt>
      <trkpt lat="45.91365" lon="6.80307">
        <ele>1851</ele>
        <time>2000-01-01T08:42:54.000Z</time>
      </trkpt>
      <trkpt lat="45.9135" lon="6.80246">
        <ele>1845</ele>
        <time>2000-01-01T08:43:04.000Z</time>
      </trkpt>
      <trkpt lat="45.91328" lon="6.80272">
        <ele>1840</ele>
        <time>2000-01-01T08:43:14.000Z</time>
      </trkpt>
      <trkpt lat="45.91292" lon="6.80314">
        <ele>1821</ele>
        <time>2000-01-01T08:43:24.000Z</time>
      </trkpt>
      <trkpt lat="45.91274" lon="6.80349">
        <ele>1803</ele>
        <time>2000-01-01T08:43:34.000Z</time>
      </trkpt>
      <trkpt lat="45.91259" lon="6.80379">
        <ele>1800</ele>
        <time>2000-01-01T08:43:44.000Z</time>
      </trkpt>
      <trkpt lat="45.91242" lon="6.80413">
        <ele>1797</ele>
        <time>2000-01-01T08:43:54.000Z</time>
      </trkpt>
      <trkpt lat="45.91219" lon="6.80438">
        <ele>1783</ele>
        <time>2000-01-01T08:44:04.000Z</time>
      </trkpt>
      <trkpt lat="45.91205" lon="6.80469">
        <ele>1777</ele>
        <time>2000-01-01T08:44:14.000Z</time>
      </trkpt>
      <trkpt lat="45.91189" lon="6.80506">
        <ele>1775</ele>
        <time>2000-01-01T08:44:24.000Z</time>
      </trkpt>
      <trkpt lat="45.91171" lon="6.80543">
        <ele>1774</ele>
        <time>2000-01-01T08:44:34.000Z</time>
      </trkpt>
      <trkpt lat="45.91171" lon="6.80559">
        <ele>1784.1</ele>
        <time>2000-01-01T08:44:44.000Z</time>
      </trkpt>
      <trkpt lat="45.9116" lon="6.80574">
        <ele>1772</ele>
        <time>2000-01-01T08:44:54.000Z</time>
      </trkpt>
      <trkpt lat="45.91145" lon="6.80604">
        <ele>1770</ele>
        <time>2000-01-01T08:45:04.000Z</time>
      </trkpt>
      <trkpt lat="45.91128" lon="6.8064">
        <ele>1767</ele>
        <time>2000-01-01T08:45:14.000Z</time>
      </trkpt>
      <trkpt lat="45.91124" lon="6.80662">
        <ele>1775.8</ele>
        <time>2000-01-01T08:45:24.000Z</time>
      </trkpt>
      <trkpt lat="45.91075" lon="6.80753">
        <ele>1765</ele>
        <time>2000-01-01T08:45:34.000Z</time>
      </trkpt>
      <trkpt lat="45.91062" lon="6.80792">
        <ele>1763</ele>
        <time>2000-01-01T08:45:44.000Z</time>
      </trkpt>
      <trkpt lat="45.91051" lon="6.80825">
        <ele>1761</ele>
        <time>2000-01-01T08:45:54.000Z</time>
      </trkpt>
      <trkpt lat="45.91039" lon="6.80862">
        <ele>1759</ele>
        <time>2000-01-01T08:46:04.000Z</time>
      </trkpt>
      <trkpt lat="45.91042" lon="6.80876">
        <ele>1767.4</ele>
        <time>2000-01-01T08:46:14.000Z</time>
      </trkpt>
      <trkpt lat="45.91023" lon="6.80927">
        <ele>1757</ele>
        <time>2000-01-01T08:46:24.000Z</time>
      </trkpt>
      <trkpt lat="45.91026" lon="6.80952">
        <ele>1753.4</ele>
        <time>2000-01-01T08:46:34.000Z</time>
      </trkpt>
      <trkpt lat="45.91035" lon="6.8097">
        <ele>1754</ele>
        <time>2000-01-01T08:46:44.000Z</time>
      </trkpt>
      <trkpt lat="45.91041" lon="6.80999">
        <ele>1748</ele>
        <time>2000-01-01T08:46:54.000Z</time>
      </trkpt>
      <trkpt lat="45.91038" lon="6.81036">
        <ele>1745</ele>
        <time>2000-01-01T08:47:04.000Z</time>
      </trkpt>
      <trkpt lat="45.91035" lon="6.8108">
        <ele>1723</ele>
        <time>2000-01-01T08:47:14.000Z</time>
      </trkpt>
      <trkpt lat="45.91021" lon="6.81097">
        <ele>1722.5</ele>
        <time>2000-01-01T08:47:24.000Z</time>
      </trkpt>
      <trkpt lat="45.91009" lon="6.81141">
        <ele>1706</ele>
        <time>2000-01-01T08:47:34.000Z</time>
      </trkpt>
      <trkpt lat="45.91002" lon="6.81199">
        <ele>1691</ele>
        <time>2000-01-01T08:47:44.000Z</time>
      </trkpt>
      <trkpt lat="45.90992" lon="6.81234">
        <ele>1693</ele>
        <time>2000-01-01T08:47:54.000Z</time>
      </trkpt>
      <trkpt lat="45.90991" lon="6.81279">
        <ele>1689</ele>
        <time>2000-01-01T08:48:04.000Z</time>
      </trkpt>
      <trkpt lat="45.90992" lon="6.81319">
        <ele>1685</ele>
        <time>2000-01-01T08:48:14.000Z</time>
      </trkpt>
      <trkpt lat="45.90978" lon="6.81362">
        <ele>1677</ele>
        <time>2000-01-01T08:48:24.000Z</time>
      </trkpt>
      <trkpt lat="45.90965" lon="6.81404">
        <ele>1669</ele>
        <time>2000-01-01T08:48:34.000Z</time>
      </trkpt>
      <trkpt lat="45.90947" lon="6.81459">
        <ele>1639</ele>
        <time>2000-01-01T08:48:44.000Z</time>
      </trkpt>
      <trkpt lat="45.90937" lon="6.81505">
        <ele>1613</ele>
        <time>2000-01-01T08:48:54.000Z</time>
      </trkpt>
      <trkpt lat="45.90926" lon="6.81551">
        <ele>1610</ele>
        <time>2000-01-01T08:49:04.000Z</time>
      </trkpt>
      <trkpt lat="45.90918" lon="6.81585">
        <ele>1605</ele>
        <time>2000-01-01T08:49:14.000Z</time>
      </trkpt>
      <trkpt lat="45.9091" lon="6.81622">
        <ele>1604</ele>
        <time>2000-01-01T08:49:24.000Z</time>
      </trkpt>
      <trkpt lat="45.90904" lon="6.8162">
        <ele>1603</ele>
        <time>2000-01-01T08:49:34.000Z</time>
      </trkpt>
      <trkpt lat="45.90922" lon="6.81689">
        <ele>1604</ele>
        <time>2000-01-01T08:49:44.000Z</time>
      </trkpt>
      <trkpt lat="45.9093" lon="6.81695">
        <ele>1616.6</ele>
        <time>2000-01-01T08:49:54.000Z</time>
      </trkpt>
      <trkpt lat="45.90934" lon="6.81706">
        <ele>1616.9</ele>
        <time>2000-01-01T08:50:04.000Z</time>
      </trkpt>
      <trkpt lat="45.90934" lon="6.81704">
        <ele>1605</ele>
        <time>2000-01-01T08:50:14.000Z</time>
      </trkpt>
      <trkpt lat="45.90947" lon="6.81736">
        <ele>1625</ele>
        <time>2000-01-01T08:50:24.000Z</time>
      </trkpt>
      <trkpt lat="45.90963" lon="6.81775">
        <ele>1628</ele>
        <time>2000-01-01T08:50:34.000Z</time>
      </trkpt>
      <trkpt lat="45.90964" lon="6.81801">
        <ele>1622.2</ele>
        <time>2000-01-01T08:50:44.000Z</time>
      </trkpt>
      <trkpt lat="45.90976" lon="6.81818">
        <ele>1623</ele>
        <time>2000-01-01T08:50:54.000Z</time>
      </trkpt>
      <trkpt lat="45.90982" lon="6.8186">
        <ele>1630</ele>
        <time>2000-01-01T08:51:04.000Z</time>
      </trkpt>
      <trkpt lat="45.90997" lon="6.81893">
        <ele>1628</ele>
        <time>2000-01-01T08:51:14.000Z</time>
      </trkpt>
      <trkpt lat="45.91008" lon="6.81934">
        <ele>1633</ele>
        <time>2000-01-01T08:51:24.000Z</time>
      </trkpt>
      <trkpt lat="45.91007" lon="6.81929">
        <ele>1625</ele>
        <time>2000-01-01T08:51:34.000Z</time>
      </trkpt>
      <trkpt lat="45.91009" lon="6.81936">
        <ele>1623.8</ele>
        <time>2000-01-01T08:51:44.000Z</time>
      </trkpt>
      <trkpt lat="45.91045" lon="6.81982">
        <ele>1638</ele>
        <time>2000-01-01T08:51:54.000Z</time>
      </trkpt>
      <trkpt lat="45.91057" lon="6.82027">
        <ele>1640</ele>
        <time>2000-01-01T08:52:04.000Z</time>
      </trkpt>
      <trkpt lat="45.91087" lon="6.82065">
        <ele>1638</ele>
        <time>2000-01-01T08:52:14.000Z</time>
      </trkpt>
      <trkpt lat="45.91109" lon="6.82086">
        <ele>1637</ele>
        <time>2000-01-01T08:52:24.000Z</time>
      </trkpt>
      <trkpt lat="45.91068" lon="6.82068">
        <ele>1631</ele>
        <time>2000-01-01T08:52:34.000Z</time>
      </trkpt>
      <trkpt lat="45.91072" lon="6.82086">
        <ele>1620.5</ele>
        <time>2000-01-01T08:52:44.000Z</time>
      </trkpt>
      <trkpt lat="45.91057" lon="6.82073">
        <ele>1629</ele>
        <time>2000-01-01T08:52:54.000Z</time>
      </trkpt>
      <trkpt lat="45.91047" lon="6.82053">
        <ele>1619.6</ele>
        <time>2000-01-01T08:53:04.000Z</time>
      </trkpt>
      <trkpt lat="45.91034" lon="6.8205">
        <ele>1627</ele>
        <time>2000-01-01T08:53:14.000Z</time>
      </trkpt>
      <trkpt lat="45.91032" lon="6.82067">
        <ele>1607.4</ele>
        <time>2000-01-01T08:53:24.000Z</time>
      </trkpt>
      <trkpt lat="45.91022" lon="6.82065">
        <ele>1617</ele>
        <time>2000-01-01T08:53:34.000Z</time>
      </trkpt>
      <trkpt lat="45.91022" lon="6.82084">
        <ele>1597.6</ele>
        <time>2000-01-01T08:53:44.000Z</time>
      </trkpt>
      <trkpt lat="45.91005" lon="6.82084">
        <ele>1591</ele>
        <time>2000-01-01T08:53:54.000Z</time>
      </trkpt>
      <trkpt lat="45.90985" lon="6.82069">
        <ele>1573</ele>
        <time>2000-01-01T08:54:04.000Z</time>
      </trkpt>
      <trkpt lat="45.90982" lon="6.8208">
        <ele>1577</ele>
        <time>2000-01-01T08:54:14.000Z</time>
      </trkpt>
      <trkpt lat="45.91002" lon="6.82132">
        <ele>1570</ele>
        <time>2000-01-01T08:54:24.000Z</time>
      </trkpt>
      <trkpt lat="45.91002" lon="6.8215">
        <ele>1549</ele>
        <time>2000-01-01T08:54:34.000Z</time>
      </trkpt>
      <trkpt lat="45.90999" lon="6.82155">
        <ele>1543.9</ele>
        <time>2000-01-01T08:54:44.000Z</time>
      </trkpt>
      <trkpt lat="45.90973" lon="6.82111">
        <ele>1568</ele>
        <time>2000-01-01T08:54:54.000Z</time>
      </trkpt>
      <trkpt lat="45.90935" lon="6.82108">
        <ele>1540</ele>
        <time>2000-01-01T08:55:04.000Z</time>
      </trkpt>
      <trkpt lat="45.90916" lon="6.82125">
        <ele>1540</ele>
        <time>2000-01-01T08:55:14.000Z</time>
      </trkpt>
      <trkpt lat="45.90889" lon="6.82138">
        <ele>1530</ele>
        <time>2000-01-01T08:55:24.000Z</time>
      </trkpt>
      <trkpt lat="45.90848" lon="6.82157">
        <ele>1521</ele>
        <time>2000-01-01T08:55:34.000Z</time>
      </trkpt>
      <trkpt lat="45.90832" lon="6.82175">
        <ele>1521</ele>
        <time>2000-01-01T08:55:44.000Z</time>
      </trkpt>
      <trkpt lat="45.90847" lon="6.82175">
        <ele>1523.5</ele>
        <time>2000-01-01T08:55:54.000Z</time>
      </trkpt>
      <trkpt lat="45.90855" lon="6.82182">
        <ele>1521</ele>
        <time>2000-01-01T08:56:04.000Z</time>
      </trkpt>
      <trkpt lat="45.9085" lon="6.82192">
        <ele>1516.9</ele>
        <time>2000-01-01T08:56:14.000Z</time>
      </trkpt>
      <trkpt lat="45.90893" lon="6.8218">
        <ele>1514</ele>
        <time>2000-01-01T08:56:24.000Z</time>
      </trkpt>
      <trkpt lat="45.90913" lon="6.82199">
        <ele>1488</ele>
        <time>2000-01-01T08:56:34.000Z</time>
      </trkpt>
      <trkpt lat="45.90935" lon="6.8222">
        <ele>1472</ele>
        <time>2000-01-01T08:56:44.000Z</time>
      </trkpt>
      <trkpt lat="45.90953" lon="6.82221">
        <ele>1488.6</ele>
        <time>2000-01-01T08:56:54.000Z</time>
      </trkpt>
      <trkpt lat="45.90993" lon="6.82245">
        <ele>1466</ele>
        <time>2000-01-01T08:57:04.000Z</time>
      </trkpt>
      <trkpt lat="45.90996" lon="6.82263">
        <ele>1490.9</ele>
        <time>2000-01-01T08:57:14.000Z</time>
      </trkpt>
      <trkpt lat="45.90964" lon="6.82317">
        <ele>1460</ele>
        <time>2000-01-01T08:57:24.000Z</time>
      </trkpt>
      <trkpt lat="45.90947" lon="6.82342">
        <ele>1439</ele>
        <time>2000-01-01T08:57:34.000Z</time>
      </trkpt>
      <trkpt lat="45.9093" lon="6.82367">
        <ele>1437</ele>
        <time>2000-01-01T08:57:44.000Z</time>
      </trkpt>
      <trkpt lat="45.90917" lon="6.82409">
        <ele>1436</ele>
        <time>2000-01-01T08:57:54.000Z</time>
      </trkpt>
      <trkpt lat="45.90903" lon="6.82456">
        <ele>1434</ele>
        <time>2000-01-01T08:58:04.000Z</time>
      </trkpt>
      <trkpt lat="45.90894" lon="6.82471">
        <ele>1473.1</ele>
        <time>2000-01-01T08:58:14.000Z</time>
      </trkpt>
      <trkpt lat="45.90888" lon="6.82464">
        <ele>1433</ele>
        <time>2000-01-01T08:58:24.000Z</time>
      </trkpt>
      <trkpt lat="45.90886" lon="6.82455">
        <ele>1466.5</ele>
        <time>2000-01-01T08:58:34.000Z</time>
      </trkpt>
      <trkpt lat="45.90883" lon="6.82434">
        <ele>1424</ele>
        <time>2000-01-01T08:58:44.000Z</time>
      </trkpt>
      <trkpt lat="45.90876" lon="6.82446">
        <ele>1457.5</ele>
        <time>2000-01-01T08:58:54.000Z</time>
      </trkpt>
      <trkpt lat="45.90871" lon="6.82482">
        <ele>1425</ele>
        <time>2000-01-01T08:59:04.000Z</time>
      </trkpt>
      <trkpt lat="45.90865" lon="6.82511">
        <ele>1426</ele>
        <time>2000-01-01T08:59:14.000Z</time>
      </trkpt>
      <trkpt lat="45.9086" lon="6.82544">
        <ele>1425</ele>
        <time>2000-01-01T08:59:24.000Z</time>
      </trkpt>
      <trkpt lat="45.90868" lon="6.82581">
        <ele>1425</ele>
        <time>2000-01-01T08:59:34.000Z</time>
      </trkpt>
      <trkpt lat="45.90888" lon="6.82601">
        <ele>1426</ele>
        <time>2000-01-01T08:59:44.000Z</time>
      </trkpt>
      <trkpt lat="45.90904" lon="6.82634">
        <ele>1426</ele>
        <time>2000-01-01T08:59:54.000Z</time>
      </trkpt>
      <trkpt lat="45.90919" lon="6.82669">
        <ele>1423</ele>
        <time>2000-01-01T09:00:04.000Z</time>
      </trkpt>
      <trkpt lat="45.90931" lon="6.82709">
        <ele>1420</ele>
        <time>2000-01-01T09:00:14.000Z</time>
      </trkpt>
      <trkpt lat="45.9094" lon="6.82748">
        <ele>1420</ele>
        <time>2000-01-01T09:00:24.000Z</time>
      </trkpt>
      <trkpt lat="45.90937" lon="6.82782">
        <ele>1391</ele>
        <time>2000-01-01T09:00:34.000Z</time>
      </trkpt>
      <trkpt lat="45.90935" lon="6.82809">
        <ele>1386</ele>
        <time>2000-01-01T09:00:44.000Z</time>
      </trkpt>
      <trkpt lat="45.90945" lon="6.82835">
        <ele>1381</ele>
        <time>2000-01-01T09:00:54.000Z</time>
      </trkpt>
      <trkpt lat="45.90961" lon="6.82852">
        <ele>1379</ele>
        <time>2000-01-01T09:01:04.000Z</time>
      </trkpt>
      <trkpt lat="45.90981" lon="6.82862">
        <ele>1379</ele>
        <time>2000-01-01T09:01:14.000Z</time>
      </trkpt>
      <trkpt lat="45.90982" lon="6.82881">
        <ele>1393.2</ele>
        <time>2000-01-01T09:01:24.000Z</time>
      </trkpt>
      <trkpt lat="45.90994" lon="6.82911">
        <ele>1395</ele>
        <time>2000-01-01T09:01:34.000Z</time>
      </trkpt>
      <trkpt lat="45.9101" lon="6.82926">
        <ele>1395</ele>
        <time>2000-01-01T09:01:44.000Z</time>
      </trkpt>
      <trkpt lat="45.91022" lon="6.82953">
        <ele>1388</ele>
        <time>2000-01-01T09:01:54.000Z</time>
      </trkpt>
      <trkpt lat="45.91027" lon="6.82982">
        <ele>1385</ele>
        <time>2000-01-01T09:02:04.000Z</time>
      </trkpt>
      <trkpt lat="45.91026" lon="6.82987">
        <ele>1383.5</ele>
        <time>2000-01-01T09:02:14.000Z</time>
      </trkpt>
      <trkpt lat="45.91021" lon="6.82988">
        <ele>1381.2</ele>
        <time>2000-01-01T09:02:24.000Z</time>
      </trkpt>
      <trkpt lat="45.91015" lon="6.82984">
        <ele>1379.7</ele>
        <time>2000-01-01T09:02:34.000Z</time>
      </trkpt>
      <trkpt lat="45.90999" lon="6.82956">
        <ele>1382</ele>
        <time>2000-01-01T09:02:44.000Z</time>
      </trkpt>
      <trkpt lat="45.90994" lon="6.82954">
        <ele>1373.9</ele>
        <time>2000-01-01T09:02:54.000Z</time>
      </trkpt>
      <trkpt lat="45.90992" lon="6.82962">
        <ele>1371.2</ele>
        <time>2000-01-01T09:03:04.000Z</time>
      </trkpt>
      <trkpt lat="45.90996" lon="6.82973">
        <ele>1364</ele>
        <time>2000-01-01T09:03:14.000Z</time>
      </trkpt>
      <trkpt lat="45.90994" lon="6.82984">
        <ele>1369.5</ele>
        <time>2000-01-01T09:03:24.000Z</time>
      </trkpt>
      <trkpt lat="45.90997" lon="6.83003">
        <ele>1358</ele>
        <time>2000-01-01T09:03:34.000Z</time>
      </trkpt>
      <trkpt lat="45.91007" lon="6.83017">
        <ele>1366.4</ele>
        <time>2000-01-01T09:03:44.000Z</time>
      </trkpt>
      <trkpt lat="45.91035" lon="6.83037">
        <ele>1349</ele>
        <time>2000-01-01T09:03:54.000Z</time>
      </trkpt>
      <trkpt lat="45.91046" lon="6.83059">
        <ele>1356.9</ele>
        <time>2000-01-01T09:04:04.000Z</time>
      </trkpt>
      <trkpt lat="45.91049" lon="6.83084">
        <ele>1317</ele>
        <time>2000-01-01T09:04:14.000Z</time>
      </trkpt>
      <trkpt lat="45.91048" lon="6.83101">
        <ele>1358.7</ele>
        <time>2000-01-01T09:04:24.000Z</time>
      </trkpt>
      <trkpt lat="45.91037" lon="6.83126">
        <ele>1313</ele>
        <time>2000-01-01T09:04:34.000Z</time>
      </trkpt>
      <trkpt lat="45.9103" lon="6.83154">
        <ele>1319</ele>
        <time>2000-01-01T09:04:44.000Z</time>
      </trkpt>
      <trkpt lat="45.91032" lon="6.83185">
        <ele>1321</ele>
        <time>2000-01-01T09:04:54.000Z</time>
      </trkpt>
      <trkpt lat="45.91041" lon="6.83216">
        <ele>1324</ele>
        <time>2000-01-01T09:05:04.000Z</time>
      </trkpt>
      <trkpt lat="45.9106" lon="6.83277">
        <ele>1324</ele>
        <time>2000-01-01T09:05:14.000Z</time>
      </trkpt>
      <trkpt lat="45.9107" lon="6.83302">
        <ele>1323</ele>
        <time>2000-01-01T09:05:24.000Z</time>
      </trkpt>
      <trkpt lat="45.9108" lon="6.83364">
        <ele>1322</ele>
        <time>2000-01-01T09:05:34.000Z</time>
      </trkpt>
      <trkpt lat="45.91091" lon="6.83386">
        <ele>1325</ele>
        <time>2000-01-01T09:05:44.000Z</time>
      </trkpt>
      <trkpt lat="45.91107" lon="6.83398">
        <ele>1316.9</ele>
        <time>2000-01-01T09:05:54.000Z</time>
      </trkpt>
      <trkpt lat="45.91124" lon="6.83406">
        <ele>1328</ele>
        <time>2000-01-01T09:06:04.000Z</time>
      </trkpt>
      <trkpt lat="45.91141" lon="6.83421">
        <ele>1327</ele>
        <time>2000-01-01T09:06:14.000Z</time>
      </trkpt>
      <trkpt lat="45.91145" lon="6.83428">
        <ele>1307.4</ele>
        <time>2000-01-01T09:06:24.000Z</time>
      </trkpt>
      <trkpt lat="45.91154" lon="6.83431">
        <ele>1307.5</ele>
        <time>2000-01-01T09:06:34.000Z</time>
      </trkpt>
      <trkpt lat="45.91166" lon="6.83445">
        <ele>1326</ele>
        <time>2000-01-01T09:06:44.000Z</time>
      </trkpt>
      <trkpt lat="45.91162" lon="6.83453">
        <ele>1296.9</ele>
        <time>2000-01-01T09:06:54.000Z</time>
      </trkpt>
      <trkpt lat="45.91154" lon="6.83453">
        <ele>1295.3</ele>
        <time>2000-01-01T09:07:04.000Z</time>
      </trkpt>
      <trkpt lat="45.91143" lon="6.8345">
        <ele>1315</ele>
        <time>2000-01-01T09:07:14.000Z</time>
      </trkpt>
      <trkpt lat="45.91131" lon="6.83451">
        <ele>1293</ele>
        <time>2000-01-01T09:07:24.000Z</time>
      </trkpt>
      <trkpt lat="45.91103" lon="6.83465">
        <ele>1306</ele>
        <time>2000-01-01T09:07:34.000Z</time>
      </trkpt>
      <trkpt lat="45.91101" lon="6.83471">
        <ele>1275.9</ele>
        <time>2000-01-01T09:07:44.000Z</time>
      </trkpt>
      <trkpt lat="45.91106" lon="6.83477">
        <ele>1274.1</ele>
        <time>2000-01-01T09:07:54.000Z</time>
      </trkpt>
      <trkpt lat="45.91111" lon="6.83479">
        <ele>1274.6</ele>
        <time>2000-01-01T09:08:04.000Z</time>
      </trkpt>
      <trkpt lat="45.91138" lon="6.83476">
        <ele>1298</ele>
        <time>2000-01-01T09:08:14.000Z</time>
      </trkpt>
      <trkpt lat="45.9115" lon="6.83479">
        <ele>1278.5</ele>
        <time>2000-01-01T09:08:24.000Z</time>
      </trkpt>
      <trkpt lat="45.91177" lon="6.83499">
        <ele>1289</ele>
        <time>2000-01-01T09:08:34.000Z</time>
      </trkpt>
      <trkpt lat="45.91187" lon="6.83502">
        <ele>1273.1</ele>
        <time>2000-01-01T09:08:44.000Z</time>
      </trkpt>
      <trkpt lat="45.91197" lon="6.83531">
        <ele>1270</ele>
        <time>2000-01-01T09:08:54.000Z</time>
      </trkpt>
      <trkpt lat="45.91203" lon="6.83559">
        <ele>1267</ele>
        <time>2000-01-01T09:09:04.000Z</time>
      </trkpt>
      <trkpt lat="45.91219" lon="6.83585">
        <ele>1242</ele>
        <time>2000-01-01T09:09:14.000Z</time>
      </trkpt>
      <trkpt lat="45.91237" lon="6.83612">
        <ele>1224</ele>
        <time>2000-01-01T09:09:24.000Z</time>
      </trkpt>
      <trkpt lat="45.91262" lon="6.83631">
        <ele>1224</ele>
        <time>2000-01-01T09:09:34.000Z</time>
      </trkpt>
      <trkpt lat="45.91265" lon="6.83647">
        <ele>1222.6</ele>
        <time>2000-01-01T09:09:44.000Z</time>
      </trkpt>
      <trkpt lat="45.91272" lon="6.83721">
        <ele>1208</ele>
        <time>2000-01-01T09:09:54.000Z</time>
      </trkpt>
      <trkpt lat="45.91278" lon="6.83761">
        <ele>1198</ele>
        <time>2000-01-01T09:10:04.000Z</time>
      </trkpt>
      <trkpt lat="45.91285" lon="6.83775">
        <ele>1199.9</ele>
        <time>2000-01-01T09:10:14.000Z</time>
      </trkpt>
      <trkpt lat="45.9129" lon="6.83807">
        <ele>1186</ele>
        <time>2000-01-01T09:10:24.000Z</time>
      </trkpt>
      <trkpt lat="45.91281" lon="6.83797">
        <ele>1192.5</ele>
        <time>2000-01-01T09:10:34.000Z</time>
      </trkpt>
      <trkpt lat="45.9127" lon="6.83796">
        <ele>1186</ele>
        <time>2000-01-01T09:10:44.000Z</time>
      </trkpt>
      <trkpt lat="45.91257" lon="6.83789">
        <ele>1184.8</ele>
        <time>2000-01-01T09:10:54.000Z</time>
      </trkpt>
      <trkpt lat="45.91245" lon="6.83768">
        <ele>1177</ele>
        <time>2000-01-01T09:11:04.000Z</time>
      </trkpt>
      <trkpt lat="45.91236" lon="6.83764">
        <ele>1183.2</ele>
        <time>2000-01-01T09:11:14.000Z</time>
      </trkpt>
      <trkpt lat="45.91226" lon="6.83744">
        <ele>1169</ele>
        <time>2000-01-01T09:11:24.000Z</time>
      </trkpt>
      <trkpt lat="45.91222" lon="6.83743">
        <ele>1182.4</ele>
        <time>2000-01-01T09:11:34.000Z</time>
      </trkpt>
      <trkpt lat="45.91218" lon="6.8375">
        <ele>1179.3</ele>
        <time>2000-01-01T09:11:44.000Z</time>
      </trkpt>
      <trkpt lat="45.91219" lon="6.83767">
        <ele>1169</ele>
        <time>2000-01-01T09:11:54.000Z</time>
      </trkpt>
      <trkpt lat="45.91229" lon="6.83799">
        <ele>1166</ele>
        <time>2000-01-01T09:12:04.000Z</time>
      </trkpt>
      <trkpt lat="45.91239" lon="6.83835">
        <ele>1153</ele>
        <time>2000-01-01T09:12:14.000Z</time>
      </trkpt>
      <trkpt lat="45.91235" lon="6.83863">
        <ele>1153</ele>
        <time>2000-01-01T09:12:24.000Z</time>
      </trkpt>
      <trkpt lat="45.91231" lon="6.83862">
        <ele>1156.7</ele>
        <time>2000-01-01T09:12:34.000Z</time>
      </trkpt>
      <trkpt lat="45.91225" lon="6.83844">
        <ele>1156.2</ele>
        <time>2000-01-01T09:12:44.000Z</time>
      </trkpt>
      <trkpt lat="45.9122" lon="6.83836">
        <ele>1153</ele>
        <time>2000-01-01T09:12:54.000Z</time>
      </trkpt>
      <trkpt lat="45.91217" lon="6.8384">
        <ele>1153.5</ele>
        <time>2000-01-01T09:13:04.000Z</time>
      </trkpt>
      <trkpt lat="45.91216" lon="6.83856">
        <ele>1151.2</ele>
        <time>2000-01-01T09:13:14.000Z</time>
      </trkpt>
      <trkpt lat="45.91221" lon="6.8388">
        <ele>1146</ele>
        <time>2000-01-01T09:13:24.000Z</time>
      </trkpt>
      <trkpt lat="45.91224" lon="6.83886">
        <ele>1151</ele>
        <time>2000-01-01T09:13:34.000Z</time>
      </trkpt>
      <trkpt lat="45.91232" lon="6.8395">
        <ele>1145</ele>
        <time>2000-01-01T09:13:44.000Z</time>
      </trkpt>
      <trkpt lat="45.91255" lon="6.83974">
        <ele>1145</ele>
        <time>2000-01-01T09:13:54.000Z</time>
      </trkpt>
      <trkpt lat="45.91272" lon="6.84024">
        <ele>1144</ele>
        <time>2000-01-01T09:14:04.000Z</time>
      </trkpt>
      <trkpt lat="45.91287" lon="6.84051">
        <ele>1137</ele>
        <time>2000-01-01T09:14:14.000Z</time>
      </trkpt>
      <trkpt lat="45.91301" lon="6.84071">
        <ele>1134</ele>
        <time>2000-01-01T09:14:24.000Z</time>
      </trkpt>
      <trkpt lat="45.91329" lon="6.8411">
        <ele>1119</ele>
        <time>2000-01-01T09:14:34.000Z</time>
      </trkpt>
      <trkpt lat="45.91348" lon="6.84169">
        <ele>1122</ele>
        <time>2000-01-01T09:14:44.000Z</time>
      </trkpt>
      <trkpt lat="45.91362" lon="6.84169">
        <ele>1117</ele>
        <time>2000-01-01T09:14:54.000Z</time>
      </trkpt>
      <trkpt lat="45.9136" lon="6.8411">
        <ele>1113</ele>
        <time>2000-01-01T09:15:04.000Z</time>
      </trkpt>
      <trkpt lat="45.91378" lon="6.84163">
        <ele>1112</ele>
        <time>2000-01-01T09:15:14.000Z</time>
      </trkpt>
      <trkpt lat="45.9139" lon="6.84191">
        <ele>1112</ele>
        <time>2000-01-01T09:15:24.000Z</time>
      </trkpt>
      <trkpt lat="45.91403" lon="6.8422">
        <ele>1116</ele>
        <time>2000-01-01T09:15:34.000Z</time>
      </trkpt>
      <trkpt lat="45.914" lon="6.84182">
        <ele>1120</ele>
        <time>2000-01-01T09:15:44.000Z</time>
      </trkpt>
      <trkpt lat="45.91397" lon="6.84132">
        <ele>1130</ele>
        <time>2000-01-01T09:15:54.000Z</time>
      </trkpt>
      <trkpt lat="45.91423" lon="6.84186">
        <ele>1131</ele>
        <time>2000-01-01T09:16:04.000Z</time>
      </trkpt>
      <trkpt lat="45.91437" lon="6.84188">
        <ele>1151.4</ele>
        <time>2000-01-01T09:16:14.000Z</time>
      </trkpt>
      <trkpt lat="45.91426" lon="6.84139">
        <ele>1145</ele>
        <time>2000-01-01T09:16:24.000Z</time>
      </trkpt>
      <trkpt lat="45.91448" lon="6.84151">
        <ele>1147</ele>
        <time>2000-01-01T09:16:34.000Z</time>
      </trkpt>
      <trkpt lat="45.91439" lon="6.8412">
        <ele>1150</ele>
        <time>2000-01-01T09:16:44.000Z</time>
      </trkpt>
      <trkpt lat="45.91429" lon="6.84088">
        <ele>1156</ele>
        <time>2000-01-01T09:16:54.000Z</time>
      </trkpt>
      <trkpt lat="45.91439" lon="6.84086">
        <ele>1178.7</ele>
        <time>2000-01-01T09:17:04.000Z</time>
      </trkpt>
      <trkpt lat="45.91468" lon="6.84139">
        <ele>1157</ele>
        <time>2000-01-01T09:17:14.000Z</time>
      </trkpt>
      <trkpt lat="45.91477" lon="6.84138">
        <ele>1184.6</ele>
        <time>2000-01-01T09:17:24.000Z</time>
      </trkpt>
      <trkpt lat="45.91473" lon="6.8409">
        <ele>1169</ele>
        <time>2000-01-01T09:17:34.000Z</time>
      </trkpt>
      <trkpt lat="45.91492" lon="6.84118">
        <ele>1169</ele>
        <time>2000-01-01T09:17:44.000Z</time>
      </trkpt>
      <trkpt lat="45.91504" lon="6.84133">
        <ele>1200.3</ele>
        <time>2000-01-01T09:17:54.000Z</time>
      </trkpt>
      <trkpt lat="45.91513" lon="6.84139">
        <ele>1167</ele>
        <time>2000-01-01T09:18:04.000Z</time>
      </trkpt>
      <trkpt lat="45.91513" lon="6.84149">
        <ele>1205.2</ele>
        <time>2000-01-01T09:18:14.000Z</time>
      </trkpt>
      <trkpt lat="45.91505" lon="6.84162">
        <ele>1168</ele>
        <time>2000-01-01T09:18:24.000Z</time>
      </trkpt>
      <trkpt lat="45.91502" lon="6.84176">
        <ele>1198</ele>
        <time>2000-01-01T09:18:34.000Z</time>
      </trkpt>
      <trkpt lat="45.91505" lon="6.84197">
        <ele>1167</ele>
        <time>2000-01-01T09:18:44.000Z</time>
      </trkpt>
      <trkpt lat="45.91503" lon="6.84216">
        <ele>1202.8</ele>
        <time>2000-01-01T09:18:54.000Z</time>
      </trkpt>
      <trkpt lat="45.91498" lon="6.84238">
        <ele>1167</ele>
        <time>2000-01-01T09:19:04.000Z</time>
      </trkpt>
      <trkpt lat="45.91502" lon="6.84249">
        <ele>1205.2</ele>
        <time>2000-01-01T09:19:14.000Z</time>
      </trkpt>
      <trkpt lat="45.91523" lon="6.8428">
        <ele>1171</ele>
        <time>2000-01-01T09:19:24.000Z</time>
      </trkpt>
      <trkpt lat="45.91547" lon="6.84305">
        <ele>1175</ele>
        <time>2000-01-01T09:19:34.000Z</time>
      </trkpt>
      <trkpt lat="45.91567" lon="6.84347">
        <ele>1197</ele>
        <time>2000-01-01T09:19:44.000Z</time>
      </trkpt>
      <trkpt lat="45.91583" lon="6.84366">
        <ele>1195</ele>
        <time>2000-01-01T09:19:54.000Z</time>
      </trkpt>
      <trkpt lat="45.91596" lon="6.84421">
        <ele>1199</ele>
        <time>2000-01-01T09:20:04.000Z</time>
      </trkpt>
      <trkpt lat="45.9161" lon="6.84458">
        <ele>1197</ele>
        <time>2000-01-01T09:20:14.000Z</time>
      </trkpt>
      <trkpt lat="45.91621" lon="6.84474">
        <ele>1202.2</ele>
        <time>2000-01-01T09:20:24.000Z</time>
      </trkpt>
      <trkpt lat="45.91622" lon="6.8448">
        <ele>1195</ele>
        <time>2000-01-01T09:20:34.000Z</time>
      </trkpt>
      <trkpt lat="45.91602" lon="6.84472">
        <ele>1195</ele>
        <time>2000-01-01T09:20:44.000Z</time>
      </trkpt>
      <trkpt lat="45.91586" lon="6.84453">
        <ele>1190</ele>
        <time>2000-01-01T09:20:54.000Z</time>
      </trkpt>
      <trkpt lat="45.91592" lon="6.84482">
        <ele>1191</ele>
        <time>2000-01-01T09:21:04.000Z</time>
      </trkpt>
      <trkpt lat="45.91618" lon="6.84518">
        <ele>1192</ele>
        <time>2000-01-01T09:21:14.000Z</time>
      </trkpt>
      <trkpt lat="45.91637" lon="6.8454">
        <ele>1182</ele>
        <time>2000-01-01T09:21:24.000Z</time>
      </trkpt>
      <trkpt lat="45.91653" lon="6.84573">
        <ele>1181</ele>
        <time>2000-01-01T09:21:34.000Z</time>
      </trkpt>
      <trkpt lat="45.91661" lon="6.84609">
        <ele>1180</ele>
        <time>2000-01-01T09:21:44.000Z</time>
      </trkpt>
      <trkpt lat="45.91661" lon="6.84627">
        <ele>1177.7</ele>
        <time>2000-01-01T09:21:54.000Z</time>
      </trkpt>
      <trkpt lat="45.91668" lon="6.84641">
        <ele>1183</ele>
        <time>2000-01-01T09:22:04.000Z</time>
      </trkpt>
      <trkpt lat="45.91691" lon="6.84669">
        <ele>1179</ele>
        <time>2000-01-01T09:22:14.000Z</time>
      </trkpt>
      <trkpt lat="45.91703" lon="6.84691">
        <ele>1185</ele>
        <time>2000-01-01T09:22:24.000Z</time>
      </trkpt>
      <trkpt lat="45.91722" lon="6.84707">
        <ele>1188</ele>
        <time>2000-01-01T09:22:34.000Z</time>
      </trkpt>
      <trkpt lat="45.91737" lon="6.84727">
        <ele>1186</ele>
        <time>2000-01-01T09:22:44.000Z</time>
      </trkpt>
      <trkpt lat="45.91765" lon="6.84761">
        <ele>1189</ele>
        <time>2000-01-01T09:22:54.000Z</time>
      </trkpt>
      <trkpt lat="45.91782" lon="6.8481">
        <ele>1188</ele>
        <time>2000-01-01T09:23:04.000Z</time>
      </trkpt>
      <trkpt lat="45.91799" lon="6.84837">
        <ele>1188</ele>
        <time>2000-01-01T09:23:14.000Z</time>
      </trkpt>
      <trkpt lat="45.91819" lon="6.84851">
        <ele>1203</ele>
        <time>2000-01-01T09:23:24.000Z</time>
      </trkpt>
      <trkpt lat="45.91833" lon="6.8488">
        <ele>1209</ele>
        <time>2000-01-01T09:23:34.000Z</time>
      </trkpt>
      <trkpt lat="45.9185" lon="6.84925">
        <ele>1216</ele>
        <time>2000-01-01T09:23:44.000Z</time>
      </trkpt>
      <trkpt lat="45.9187" lon="6.84944">
        <ele>1218</ele>
        <time>2000-01-01T09:23:54.000Z</time>
      </trkpt>
      <trkpt lat="45.9189" lon="6.84964">
        <ele>1216</ele>
        <time>2000-01-01T09:24:04.000Z</time>
      </trkpt>
      <trkpt lat="45.91906" lon="6.84996">
        <ele>1218</ele>
        <time>2000-01-01T09:24:14.000Z</time>
      </trkpt>
      <trkpt lat="45.91938" lon="6.85013">
        <ele>1221</ele>
        <time>2000-01-01T09:24:24.000Z</time>
      </trkpt>
      <trkpt lat="45.91963" lon="6.85024">
        <ele>1228</ele>
        <time>2000-01-01T09:24:34.000Z</time>
      </trkpt>
      <trkpt lat="45.91996" lon="6.85042">
        <ele>1233</ele>
        <time>2000-01-01T09:24:44.000Z</time>
      </trkpt>
      <trkpt lat="45.92027" lon="6.85067">
        <ele>1235</ele>
        <time>2000-01-01T09:24:54.000Z</time>
      </trkpt>
      <trkpt lat="45.92065" lon="6.85094">
        <ele>1229</ele>
        <time>2000-01-01T09:25:04.000Z</time>
      </trkpt>
      <trkpt lat="45.921" lon="6.85116">
        <ele>1224</ele>
        <time>2000-01-01T09:25:14.000Z</time>
      </trkpt>
      <trkpt lat="45.92133" lon="6.85135">
        <ele>1230</ele>
        <time>2000-01-01T09:25:24.000Z</time>
      </trkpt>
      <trkpt lat="45.9215" lon="6.8513">
        <ele>1220.6</ele>
        <time>2000-01-01T09:25:34.000Z</time>
      </trkpt>
      <trkpt lat="45.92165" lon="6.85119">
        <ele>1227</ele>
        <time>2000-01-01T09:25:44.000Z</time>
      </trkpt>
      <trkpt lat="45.92174" lon="6.85125">
        <ele>1228.3</ele>
        <time>2000-01-01T09:25:54.000Z</time>
      </trkpt>
      <trkpt lat="45.92178" lon="6.85144">
        <ele>1228</ele>
        <time>2000-01-01T09:26:04.000Z</time>
      </trkpt>
      <trkpt lat="45.92188" lon="6.85167">
        <ele>1222.4</ele>
        <time>2000-01-01T09:26:14.000Z</time>
      </trkpt>
      <trkpt lat="45.92196" lon="6.85179">
        <ele>1227</ele>
        <time>2000-01-01T09:26:24.000Z</time>
      </trkpt>
      <trkpt lat="45.92211" lon="6.85201">
        <ele>1227</ele>
        <time>2000-01-01T09:26:34.000Z</time>
      </trkpt>
      <trkpt lat="45.92221" lon="6.85205">
        <ele>1224.5</ele>
        <time>2000-01-01T09:26:44.000Z</time>
      </trkpt>
      <trkpt lat="45.92229" lon="6.8523">
        <ele>1219</ele>
        <time>2000-01-01T09:26:54.000Z</time>
      </trkpt>
      <trkpt lat="45.92237" lon="6.8526">
        <ele>1214</ele>
        <time>2000-01-01T09:27:04.000Z</time>
      </trkpt>
      <trkpt lat="45.92252" lon="6.85286">
        <ele>1210</ele>
        <time>2000-01-01T09:27:14.000Z</time>
      </trkpt>
      <trkpt lat="45.92261" lon="6.85309">
        <ele>1207.3</ele>
        <time>2000-01-01T09:27:24.000Z</time>
      </trkpt>
      <trkpt lat="45.92267" lon="6.85329">
        <ele>1204</ele>
        <time>2000-01-01T09:27:34.000Z</time>
      </trkpt>
      <trkpt lat="45.92281" lon="6.85331">
        <ele>1203.7</ele>
        <time>2000-01-01T09:27:44.000Z</time>
      </trkpt>
      <trkpt lat="45.92299" lon="6.85331">
        <ele>1199</ele>
        <time>2000-01-01T09:27:54.000Z</time>
      </trkpt>
      <trkpt lat="45.92316" lon="6.85368">
        <ele>1200</ele>
        <time>2000-01-01T09:28:04.000Z</time>
      </trkpt>
      <trkpt lat="45.92327" lon="6.85417">
        <ele>1199</ele>
        <time>2000-01-01T09:28:14.000Z</time>
      </trkpt>
      <trkpt lat="45.92326" lon="6.85441">
        <ele>1193</ele>
        <time>2000-01-01T09:28:24.000Z</time>
      </trkpt>
      <trkpt lat="45.92323" lon="6.85488">
        <ele>1198</ele>
        <time>2000-01-01T09:28:34.000Z</time>
      </trkpt>
      <trkpt lat="45.92325" lon="6.85517">
        <ele>1197</ele>
        <time>2000-01-01T09:28:44.000Z</time>
      </trkpt>
      <trkpt lat="45.92336" lon="6.85543">
        <ele>1198</ele>
        <time>2000-01-01T09:28:54.000Z</time>
      </trkpt>
      <trkpt lat="45.92352" lon="6.85582">
        <ele>1197</ele>
        <time>2000-01-01T09:29:04.000Z</time>
      </trkpt>
      <trkpt lat="45.92375" lon="6.85616">
        <ele>1197</ele>
        <time>2000-01-01T09:29:14.000Z</time>
      </trkpt>
      <trkpt lat="45.92379" lon="6.85643">
        <ele>1194</ele>
        <time>2000-01-01T09:29:24.000Z</time>
      </trkpt>
      <trkpt lat="45.92374" lon="6.85683">
        <ele>1189</ele>
        <time>2000-01-01T09:29:34.000Z</time>
      </trkpt>
      <trkpt lat="45.92373" lon="6.85737">
        <ele>1177</ele>
        <time>2000-01-01T09:29:44.000Z</time>
      </trkpt>
      <trkpt lat="45.92377" lon="6.85801">
        <ele>1163</ele>
        <time>2000-01-01T09:29:54.000Z</time>
      </trkpt>
      <trkpt lat="45.92375" lon="6.85864">
        <ele>1158</ele>
        <time>2000-01-01T09:30:04.000Z</time>
      </trkpt>
      <trkpt lat="45.92376" lon="6.8592">
        <ele>1150</ele>
        <time>2000-01-01T09:30:14.000Z</time>
      </trkpt>
      <trkpt lat="45.92388" lon="6.85961">
        <ele>1149</ele>
        <time>2000-01-01T09:30:24.000Z</time>
      </trkpt>
      <trkpt lat="45.92408" lon="6.85998">
        <ele>1146</ele>
        <time>2000-01-01T09:30:34.000Z</time>
      </trkpt>
      <trkpt lat="45.92442" lon="6.86033">
        <ele>1148</ele>
        <time>2000-01-01T09:30:44.000Z</time>
      </trkpt>
      <trkpt lat="45.92463" lon="6.86046">
        <ele>1144</ele>
        <time>2000-01-01T09:30:54.000Z</time>
      </trkpt>
      <trkpt lat="45.92485" lon="6.86059">
        <ele>1141</ele>
        <time>2000-01-01T09:31:04.000Z</time>
      </trkpt>
      <trkpt lat="45.92506" lon="6.86074">
        <ele>1135</ele>
        <time>2000-01-01T09:31:14.000Z</time>
      </trkpt>
      <trkpt lat="45.92527" lon="6.86089">
        <ele>1130</ele>
        <time>2000-01-01T09:31:24.000Z</time>
      </trkpt>
      <trkpt lat="45.92535" lon="6.86105">
        <ele>1133.3</ele>
        <time>2000-01-01T09:31:34.000Z</time>
      </trkpt>
      <trkpt lat="45.92513" lon="6.86125">
        <ele>1126</ele>
        <time>2000-01-01T09:31:44.000Z</time>
      </trkpt>
      <trkpt lat="45.92521" lon="6.86181">
        <ele>1115</ele>
        <time>2000-01-01T09:31:54.000Z</time>
      </trkpt>
      <trkpt lat="45.92523" lon="6.86212">
        <ele>1104</ele>
        <time>2000-01-01T09:32:04.000Z</time>
      </trkpt>
      <trkpt lat="45.92522" lon="6.86259">
        <ele>1100</ele>
        <time>2000-01-01T09:32:14.000Z</time>
      </trkpt>
      <trkpt lat="45.92522" lon="6.86294">
        <ele>1099</ele>
        <time>2000-01-01T09:32:24.000Z</time>
      </trkpt>
      <trkpt lat="45.92537" lon="6.86336">
        <ele>1097</ele>
        <time>2000-01-01T09:32:34.000Z</time>
      </trkpt>
      <trkpt lat="45.92544" lon="6.8637">
        <ele>1091</ele>
        <time>2000-01-01T09:32:44.000Z</time>
      </trkpt>
      <trkpt lat="45.92551" lon="6.86407">
        <ele>1085</ele>
        <time>2000-01-01T09:32:54.000Z</time>
      </trkpt>
      <trkpt lat="45.92562" lon="6.86452">
        <ele>1076</ele>
        <time>2000-01-01T09:33:04.000Z</time>
      </trkpt>
      <trkpt lat="45.92572" lon="6.86498">
        <ele>1070</ele>
        <time>2000-01-01T09:33:14.000Z</time>
      </trkpt>
      <trkpt lat="45.9258" lon="6.86531">
        <ele>1067</ele>
        <time>2000-01-01T09:33:24.000Z</time>
      </trkpt>
      <trkpt lat="45.92588" lon="6.86565">
        <ele>1064</ele>
        <time>2000-01-01T09:33:34.000Z</time>
      </trkpt>
      <trkpt lat="45.92591" lon="6.86601">
        <ele>1060</ele>
        <time>2000-01-01T09:33:44.000Z</time>
      </trkpt>
      <trkpt lat="45.92597" lon="6.86639">
        <ele>1057</ele>
        <time>2000-01-01T09:33:54.000Z</time>
      </trkpt>
      <trkpt lat="45.92606" lon="6.86661">
        <ele>1055.4</ele>
        <time>2000-01-01T09:34:04.000Z</time>
      </trkpt>
      <trkpt lat="45.92625" lon="6.8669">
        <ele>1052</ele>
        <time>2000-01-01T09:34:14.000Z</time>
      </trkpt>
      <trkpt lat="45.92632" lon="6.86698">
        <ele>1051</ele>
        <time>2000-01-01T09:34:24.000Z</time>
      </trkpt>
      <trkpt lat="45.92666" lon="6.86771">
        <ele>1038</ele>
        <time>2000-01-01T09:34:34.000Z</time>
      </trkpt>
      <trkpt lat="45.92636" lon="6.86703">
        <ele>1050.5</ele>
        <extensions>
          <visugpx:TrkExtension xmlns:visugpx="https://www.visugpx.com/editgpx/">
            <visugpx:node>3</visugpx:node>
            </visugpx:TrkExtension>
        </extensions>
      </trkpt>
      <trkpt lat="45.92643" lon="6.86711">
        <ele>1049.7</ele>
        <extensions>
          <visugpx:TrkExtension xmlns:visugpx="https://www.visugpx.com/editgpx/">
            <visugpx:node>2</visugpx:node>
            </visugpx:TrkExtension>
        </extensions>
      </trkpt>
      <trkpt lat="45.92647" lon="6.86715">
        <ele>1049.2</ele>
      </trkpt>
      <trkpt lat="45.92665" lon="6.86734">
        <ele>1047.2</ele>
      </trkpt>
      <trkpt lat="45.9268" lon="6.86749">
        <ele>1046.1</ele>
      </trkpt>
      <trkpt lat="45.92701" lon="6.86769">
        <ele>1045.3</ele>
      </trkpt>
      <trkpt lat="45.92723" lon="6.86783">
        <ele>1045.2</ele>
      </trkpt>
      <trkpt lat="45.92735" lon="6.86788">
        <ele>1045.7</ele>
      </trkpt>
      <trkpt lat="45.92743" lon="6.86796">
        <ele>1045.9</ele>
      </trkpt>
      <trkpt lat="45.92763" lon="6.86816">
        <ele>1046</ele>
      </trkpt>
      <trkpt lat="45.92793" lon="6.86854">
        <ele>1046.5</ele>
      </trkpt>
      <trkpt lat="45.92816" lon="6.86884">
        <ele>1046.9</ele>
      </trkpt>
      <trkpt lat="45.92816" lon="6.86882">
        <ele>1041</ele>
        <time>2000-01-01T02:05:44.000Z</time>
        <extensions>
          <visugpx:TrkExtension xmlns:visugpx="https://www.visugpx.com/editgpx/">
            <visugpx:node>1</visugpx:node>
            </visugpx:TrkExtension>
        </extensions>
      </trkpt>
      <trkpt lat="45.92825" lon="6.86859">
        <ele>1047.8</ele>
        <time>2000-01-01T02:05:54.000Z</time>
      </trkpt>
      <trkpt lat="45.92844" lon="6.8682">
        <ele>1045</ele>
        <time>2000-01-01T02:06:04.000Z</time>
      </trkpt>
      <trkpt lat="45.92858" lon="6.86814">
        <ele>1053</ele>
        <time>2000-01-01T02:06:14.000Z</time>
      </trkpt>
      <trkpt lat="45.92866" lon="6.86813">
        <ele>1049</ele>
        <time>2000-01-01T02:06:24.000Z</time>
      </trkpt>
      <trkpt lat="45.92877" lon="6.8682">
        <ele>1055.5</ele>
        <time>2000-01-01T02:06:34.000Z</time>
      </trkpt>
      <trkpt lat="45.92912" lon="6.8689">
        <ele>1050</ele>
        <time>2000-01-01T02:06:44.000Z</time>
      </trkpt>
      <trkpt lat="45.92935" lon="6.86914">
        <ele>1051</ele>
        <time>2000-01-01T02:06:54.000Z</time>
      </trkpt>
      <trkpt lat="45.92971" lon="6.8695">
        <ele>1056</ele>
        <time>2000-01-01T02:07:04.000Z</time>
      </trkpt>
      <trkpt lat="45.92988" lon="6.86975">
        <ele>1062</ele>
        <time>2000-01-01T02:07:14.000Z</time>
      </trkpt>
      <trkpt lat="45.93005" lon="6.87001">
        <ele>1064</ele>
        <time>2000-01-01T02:07:24.000Z</time>
      </trkpt>
      <trkpt lat="45.93028" lon="6.87024">
        <ele>1067</ele>
        <time>2000-01-01T02:07:34.000Z</time>
      </trkpt>
      <trkpt lat="45.93063" lon="6.87058">
        <ele>1067</ele>
        <time>2000-01-01T02:07:44.000Z</time>
      </trkpt>
      <trkpt lat="45.93066" lon="6.87055">
        <ele>1064.3</ele>
        <time>2000-01-01T02:07:54.000Z</time>
      </trkpt>
      <trkpt lat="45.93072" lon="6.87055">
        <ele>1065.6</ele>
        <time>2000-01-01T02:08:04.000Z</time>
      </trkpt>
      <trkpt lat="45.93087" lon="6.87073">
        <ele>1068</ele>
        <time>2000-01-01T02:08:14.000Z</time>
      </trkpt>
      <trkpt lat="45.93098" lon="6.87081">
        <ele>1068.9</ele>
        <time>2000-01-01T02:08:24.000Z</time>
      </trkpt>
      <trkpt lat="45.93104" lon="6.87082">
        <ele>1070.4</ele>
        <time>2000-01-01T02:08:34.000Z</time>
      </trkpt>
      <trkpt lat="45.93113" lon="6.87091">
        <ele>1072</ele>
        <time>2000-01-01T02:08:44.000Z</time>
      </trkpt>
      <trkpt lat="45.9313" lon="6.87092">
        <ele>1075.4</ele>
        <time>2000-01-01T02:08:54.000Z</time>
      </trkpt>
      <trkpt lat="45.93136" lon="6.8709">
        <ele>1079</ele>
        <time>2000-01-01T02:09:04.000Z</time>
      </trkpt>
      <trkpt lat="45.9315" lon="6.87089">
        <ele>1080.8</ele>
        <time>2000-01-01T02:09:14.000Z</time>
      </trkpt>
      <trkpt lat="45.93168" lon="6.87084">
        <ele>1090</ele>
        <time>2000-01-01T02:09:24.000Z</time>
      </trkpt>
      <trkpt lat="45.93204" lon="6.87083">
        <ele>1095</ele>
        <time>2000-01-01T02:09:34.000Z</time>
      </trkpt>
      <trkpt lat="45.9324" lon="6.87083">
        <ele>1096</ele>
        <time>2000-01-01T02:09:44.000Z</time>
      </trkpt>
      <trkpt lat="45.93276" lon="6.87082">
        <ele>1106</ele>
        <time>2000-01-01T02:09:54.000Z</time>
      </trkpt>
      <trkpt lat="45.93321" lon="6.87081">
        <ele>1109</ele>
        <time>2000-01-01T02:10:04.000Z</time>
      </trkpt>
      <trkpt lat="45.93363" lon="6.87076">
        <ele>1112</ele>
        <time>2000-01-01T02:10:14.000Z</time>
      </trkpt>
      <trkpt lat="45.9339" lon="6.87076">
        <ele>1117</ele>
        <time>2000-01-01T02:10:24.000Z</time>
      </trkpt>
      <trkpt lat="45.93429" lon="6.87076">
        <ele>1120</ele>
        <time>2000-01-01T02:10:34.000Z</time>
      </trkpt>
      <trkpt lat="45.93451" lon="6.87087">
        <ele>1124</ele>
        <time>2000-01-01T02:10:44.000Z</time>
      </trkpt>
      <trkpt lat="45.93474" lon="6.87099">
        <ele>1126</ele>
        <time>2000-01-01T02:10:54.000Z</time>
      </trkpt>
      <trkpt lat="45.935" lon="6.87118">
        <ele>1129</ele>
        <time>2000-01-01T02:11:04.000Z</time>
      </trkpt>
      <trkpt lat="45.93522" lon="6.87133">
        <ele>1129</ele>
        <time>2000-01-01T02:11:14.000Z</time>
      </trkpt>
      <trkpt lat="45.93545" lon="6.8715">
        <ele>1129</ele>
        <time>2000-01-01T02:11:24.000Z</time>
      </trkpt>
      <trkpt lat="45.93578" lon="6.87169">
        <ele>1131</ele>
        <time>2000-01-01T02:11:34.000Z</time>
      </trkpt>
      <trkpt lat="45.93596" lon="6.87193">
        <ele>1133</ele>
        <time>2000-01-01T02:11:44.000Z</time>
      </trkpt>
      <trkpt lat="45.93615" lon="6.87218">
        <ele>1142</ele>
        <time>2000-01-01T02:11:54.000Z</time>
      </trkpt>
      <trkpt lat="45.93636" lon="6.87238">
        <ele>1145</ele>
        <time>2000-01-01T02:12:04.000Z</time>
      </trkpt>
      <trkpt lat="45.93662" lon="6.87261">
        <ele>1146</ele>
        <time>2000-01-01T02:12:14.000Z</time>
      </trkpt>
      <trkpt lat="45.93664" lon="6.87261">
        <ele>1144.6</ele>
        <time>2000-01-01T02:12:24.000Z</time>
      </trkpt>
      <trkpt lat="45.93707" lon="6.87272">
        <ele>1147</ele>
        <time>2000-01-01T02:12:34.000Z</time>
      </trkpt>
      <trkpt lat="45.93748" lon="6.87267">
        <ele>1160</ele>
        <time>2000-01-01T02:12:44.000Z</time>
      </trkpt>
      <trkpt lat="45.93753" lon="6.87263">
        <ele>1158.6</ele>
        <time>2000-01-01T02:12:54.000Z</time>
      </trkpt>
      <trkpt lat="45.93752" lon="6.87252">
        <ele>1161.6</ele>
        <time>2000-01-01T02:13:04.000Z</time>
      </trkpt>
      <trkpt lat="45.93725" lon="6.87226">
        <ele>1173</ele>
        <time>2000-01-01T02:13:14.000Z</time>
      </trkpt>
      <trkpt lat="45.93717" lon="6.87212">
        <ele>1168.4</ele>
        <time>2000-01-01T02:13:24.000Z</time>
      </trkpt>
      <trkpt lat="45.93718" lon="6.87208">
        <ele>1169.7</ele>
        <time>2000-01-01T02:13:34.000Z</time>
      </trkpt>
      <trkpt lat="45.9372" lon="6.87207">
        <ele>1170.4</ele>
        <time>2000-01-01T02:13:44.000Z</time>
      </trkpt>
      <trkpt lat="45.9374" lon="6.8721">
        <ele>1176</ele>
        <time>2000-01-01T02:13:54.000Z</time>
      </trkpt>
      <trkpt lat="45.93749" lon="6.87209">
        <ele>1174.6</ele>
        <time>2000-01-01T02:14:04.000Z</time>
      </trkpt>
      <trkpt lat="45.93754" lon="6.87206">
        <ele>1176.3</ele>
        <time>2000-01-01T02:14:14.000Z</time>
      </trkpt>
      <trkpt lat="45.93769" lon="6.87191">
        <ele>1183</ele>
        <time>2000-01-01T02:14:24.000Z</time>
      </trkpt>
      <trkpt lat="45.93792" lon="6.87186">
        <ele>1201</ele>
        <time>2000-01-01T02:14:34.000Z</time>
      </trkpt>
      <trkpt lat="45.93816" lon="6.87196">
        <ele>1201</ele>
        <time>2000-01-01T02:14:44.000Z</time>
      </trkpt>
      <trkpt lat="45.93844" lon="6.87207">
        <ele>1199</ele>
        <time>2000-01-01T02:14:54.000Z</time>
      </trkpt>
      <trkpt lat="45.93869" lon="6.87238">
        <ele>1198</ele>
        <time>2000-01-01T02:15:04.000Z</time>
      </trkpt>
      <trkpt lat="45.939" lon="6.8727">
        <ele>1200</ele>
        <time>2000-01-01T02:15:14.000Z</time>
      </trkpt>
      <trkpt lat="45.93917" lon="6.87295">
        <ele>1201</ele>
        <time>2000-01-01T02:15:24.000Z</time>
      </trkpt>
      <trkpt lat="45.93935" lon="6.87321">
        <ele>1202</ele>
        <time>2000-01-01T02:15:34.000Z</time>
      </trkpt>
      <trkpt lat="45.93958" lon="6.8735">
        <ele>1202</ele>
        <time>2000-01-01T02:15:44.000Z</time>
      </trkpt>
      <trkpt lat="45.93977" lon="6.87375">
        <ele>1199</ele>
        <time>2000-01-01T02:15:54.000Z</time>
      </trkpt>
      <trkpt lat="45.94002" lon="6.87407">
        <ele>1199</ele>
        <time>2000-01-01T02:16:04.000Z</time>
      </trkpt>
      <trkpt lat="45.94041" lon="6.87429">
        <ele>1200</ele>
        <time>2000-01-01T02:16:14.000Z</time>
      </trkpt>
      <trkpt lat="45.94063" lon="6.87446">
        <ele>1201</ele>
        <time>2000-01-01T02:16:24.000Z</time>
      </trkpt>
      <trkpt lat="45.9409" lon="6.87467">
        <ele>1207</ele>
        <time>2000-01-01T02:16:34.000Z</time>
      </trkpt>
      <trkpt lat="45.94109" lon="6.87489">
        <ele>1202</ele>
        <time>2000-01-01T02:16:44.000Z</time>
      </trkpt>
      <trkpt lat="45.94128" lon="6.87505">
        <ele>1201</ele>
        <time>2000-01-01T02:16:54.000Z</time>
      </trkpt>
      <trkpt lat="45.9415" lon="6.87515">
        <ele>1201</ele>
        <time>2000-01-01T02:17:04.000Z</time>
      </trkpt>
      <trkpt lat="45.94163" lon="6.87517">
        <ele>1221</ele>
        <time>2000-01-01T02:17:14.000Z</time>
      </trkpt>
      <trkpt lat="45.94179" lon="6.87511">
        <ele>1208</ele>
        <time>2000-01-01T02:17:24.000Z</time>
      </trkpt>
      <trkpt lat="45.942" lon="6.87494">
        <ele>1213</ele>
        <time>2000-01-01T02:17:34.000Z</time>
      </trkpt>
      <trkpt lat="45.94228" lon="6.87486">
        <ele>1232</ele>
        <time>2000-01-01T02:17:44.000Z</time>
      </trkpt>
      <trkpt lat="45.94242" lon="6.87486">
        <ele>1245.4</ele>
        <time>2000-01-01T02:17:54.000Z</time>
      </trkpt>
      <trkpt lat="45.94253" lon="6.87493">
        <ele>1236</ele>
        <time>2000-01-01T02:18:04.000Z</time>
      </trkpt>
      <trkpt lat="45.94261" lon="6.87505">
        <ele>1254.3</ele>
        <time>2000-01-01T02:18:14.000Z</time>
      </trkpt>
      <trkpt lat="45.94263" lon="6.87524">
        <ele>1234</ele>
        <time>2000-01-01T02:18:24.000Z</time>
      </trkpt>
      <trkpt lat="45.94256" lon="6.87559">
        <ele>1233</ele>
        <time>2000-01-01T02:18:34.000Z</time>
      </trkpt>
      <trkpt lat="45.9426" lon="6.87576">
        <ele>1238.9</ele>
        <time>2000-01-01T02:18:44.000Z</time>
      </trkpt>
      <trkpt lat="45.94264" lon="6.87583">
        <ele>1237</ele>
        <time>2000-01-01T02:18:54.000Z</time>
      </trkpt>
      <trkpt lat="45.94282" lon="6.87592">
        <ele>1242</ele>
        <time>2000-01-01T02:19:04.000Z</time>
      </trkpt>
      <trkpt lat="45.94306" lon="6.87595">
        <ele>1263</ele>
        <time>2000-01-01T02:19:14.000Z</time>
      </trkpt>
      <trkpt lat="45.94339" lon="6.87607">
        <ele>1278</ele>
        <time>2000-01-01T02:19:24.000Z</time>
      </trkpt>
      <trkpt lat="45.94359" lon="6.87625">
        <ele>1278</ele>
        <time>2000-01-01T02:19:34.000Z</time>
      </trkpt>
      <trkpt lat="45.94379" lon="6.87643">
        <ele>1279</ele>
        <time>2000-01-01T02:19:44.000Z</time>
      </trkpt>
      <trkpt lat="45.94403" lon="6.8766">
        <ele>1288</ele>
        <time>2000-01-01T02:19:54.000Z</time>
      </trkpt>
      <trkpt lat="45.94433" lon="6.87663">
        <ele>1297</ele>
        <time>2000-01-01T02:20:04.000Z</time>
      </trkpt>
      <trkpt lat="45.94462" lon="6.87668">
        <ele>1320</ele>
        <time>2000-01-01T02:20:14.000Z</time>
      </trkpt>
      <trkpt lat="45.94475" lon="6.87677">
        <ele>1314.7</ele>
        <time>2000-01-01T02:20:24.000Z</time>
      </trkpt>
      <trkpt lat="45.94484" lon="6.87688">
        <ele>1320</ele>
        <time>2000-01-01T02:20:34.000Z</time>
      </trkpt>
      <trkpt lat="45.94506" lon="6.87699">
        <ele>1314</ele>
        <time>2000-01-01T02:20:44.000Z</time>
      </trkpt>
      <trkpt lat="45.94516" lon="6.87691">
        <ele>1321.1</ele>
        <time>2000-01-01T02:20:54.000Z</time>
      </trkpt>
      <trkpt lat="45.9452" lon="6.87691">
        <ele>1322.7</ele>
        <time>2000-01-01T02:21:04.000Z</time>
      </trkpt>
      <trkpt lat="45.94525" lon="6.87695">
        <ele>1319</ele>
        <time>2000-01-01T02:21:14.000Z</time>
      </trkpt>
      <trkpt lat="45.94534" lon="6.87709">
        <ele>1317.7</ele>
        <time>2000-01-01T02:21:24.000Z</time>
      </trkpt>
      <trkpt lat="45.94538" lon="6.8771">
        <ele>1318.5</ele>
        <time>2000-01-01T02:21:34.000Z</time>
      </trkpt>
      <trkpt lat="45.94558" lon="6.87708">
        <ele>1324</ele>
        <time>2000-01-01T02:21:44.000Z</time>
      </trkpt>
      <trkpt lat="45.94573" lon="6.87705">
        <ele>1333.4</ele>
        <time>2000-01-01T02:21:54.000Z</time>
      </trkpt>
      <trkpt lat="45.94578" lon="6.87707">
        <ele>1325</ele>
        <time>2000-01-01T02:22:04.000Z</time>
      </trkpt>
      <trkpt lat="45.94583" lon="6.87711">
        <ele>1334.3</ele>
        <time>2000-01-01T02:22:14.000Z</time>
      </trkpt>
      <trkpt lat="45.94592" lon="6.87736">
        <ele>1316</ele>
        <time>2000-01-01T02:22:24.000Z</time>
      </trkpt>
      <trkpt lat="45.94595" lon="6.87779">
        <ele>1325</ele>
        <time>2000-01-01T02:22:34.000Z</time>
      </trkpt>
      <trkpt lat="45.94603" lon="6.87786">
        <ele>1324.7</ele>
        <time>2000-01-01T02:22:44.000Z</time>
      </trkpt>
      <trkpt lat="45.9461" lon="6.87787">
        <ele>1330.1</ele>
        <time>2000-01-01T02:22:54.000Z</time>
      </trkpt>
      <trkpt lat="45.94615" lon="6.8779">
        <ele>1328</ele>
        <time>2000-01-01T02:23:04.000Z</time>
      </trkpt>
      <trkpt lat="45.9462" lon="6.87801">
        <ele>1332</ele>
        <time>2000-01-01T02:23:14.000Z</time>
      </trkpt>
      <trkpt lat="45.9464" lon="6.87821">
        <ele>1328</ele>
        <time>2000-01-01T02:23:24.000Z</time>
      </trkpt>
      <trkpt lat="45.94655" lon="6.87828">
        <ele>1340.2</ele>
        <time>2000-01-01T02:23:34.000Z</time>
      </trkpt>
      <trkpt lat="45.9466" lon="6.87851">
        <ele>1328</ele>
        <time>2000-01-01T02:23:44.000Z</time>
      </trkpt>
      <trkpt lat="45.94684" lon="6.87855">
        <ele>1331</ele>
        <time>2000-01-01T02:23:54.000Z</time>
      </trkpt>
      <trkpt lat="45.94709" lon="6.8786">
        <ele>1338</ele>
        <time>2000-01-01T02:24:04.000Z</time>
      </trkpt>
      <trkpt lat="45.94714" lon="6.87881">
        <ele>1335.7</ele>
        <time>2000-01-01T02:24:14.000Z</time>
      </trkpt>
      <trkpt lat="45.94731" lon="6.87894">
        <ele>1346</ele>
        <time>2000-01-01T02:24:24.000Z</time>
      </trkpt>
      <trkpt lat="45.94746" lon="6.87909">
        <ele>1337.7</ele>
        <time>2000-01-01T02:24:34.000Z</time>
      </trkpt>
      <trkpt lat="45.94769" lon="6.87924">
        <ele>1347</ele>
        <time>2000-01-01T02:24:44.000Z</time>
      </trkpt>
      <trkpt lat="45.94778" lon="6.87937">
        <ele>1351.3</ele>
        <time>2000-01-01T02:24:54.000Z</time>
      </trkpt>
      <trkpt lat="45.94776" lon="6.87959">
        <ele>1347</ele>
        <time>2000-01-01T02:25:04.000Z</time>
      </trkpt>
      <trkpt lat="45.94793" lon="6.87987">
        <ele>1347</ele>
        <time>2000-01-01T02:25:14.000Z</time>
      </trkpt>
      <trkpt lat="45.94802" lon="6.88006">
        <ele>1347.5</ele>
        <time>2000-01-01T02:25:24.000Z</time>
      </trkpt>
      <trkpt lat="45.94845" lon="6.88032">
        <ele>1355</ele>
        <time>2000-01-01T02:25:34.000Z</time>
      </trkpt>
      <trkpt lat="45.94857" lon="6.88053">
        <ele>1354</ele>
        <time>2000-01-01T02:25:44.000Z</time>
      </trkpt>
      <trkpt lat="45.94857" lon="6.8807">
        <ele>1357.4</ele>
        <time>2000-01-01T02:25:54.000Z</time>
      </trkpt>
      <trkpt lat="45.94891" lon="6.88103">
        <ele>1354</ele>
        <time>2000-01-01T02:26:04.000Z</time>
      </trkpt>
      <trkpt lat="45.94915" lon="6.88105">
        <ele>1358</ele>
        <time>2000-01-01T02:26:14.000Z</time>
      </trkpt>
      <trkpt lat="45.94939" lon="6.88094">
        <ele>1366</ele>
        <time>2000-01-01T02:26:24.000Z</time>
      </trkpt>
      <trkpt lat="45.94967" lon="6.88081">
        <ele>1379</ele>
        <time>2000-01-01T02:26:34.000Z</time>
      </trkpt>
      <trkpt lat="45.94985" lon="6.88057">
        <ele>1384</ele>
        <time>2000-01-01T02:26:44.000Z</time>
      </trkpt>
      <trkpt lat="45.95006" lon="6.8803">
        <ele>1398</ele>
        <time>2000-01-01T02:26:54.000Z</time>
      </trkpt>
      <trkpt lat="45.95034" lon="6.88019">
        <ele>1399</ele>
        <time>2000-01-01T02:27:04.000Z</time>
      </trkpt>
      <trkpt lat="45.95072" lon="6.8803">
        <ele>1400</ele>
        <time>2000-01-01T02:27:14.000Z</time>
      </trkpt>
      <trkpt lat="45.95095" lon="6.88047">
        <ele>1400</ele>
        <time>2000-01-01T02:27:24.000Z</time>
      </trkpt>
      <trkpt lat="45.95122" lon="6.88068">
        <ele>1400</ele>
        <time>2000-01-01T02:27:34.000Z</time>
      </trkpt>
      <trkpt lat="45.95133" lon="6.88105">
        <ele>1396</ele>
        <time>2000-01-01T02:27:44.000Z</time>
      </trkpt>
      <trkpt lat="45.95134" lon="6.88135">
        <ele>1396</ele>
        <time>2000-01-01T02:27:54.000Z</time>
      </trkpt>
      <trkpt lat="45.95145" lon="6.88169">
        <ele>1395</ele>
        <time>2000-01-01T02:28:04.000Z</time>
      </trkpt>
      <trkpt lat="45.95148" lon="6.88195">
        <ele>1407.2</ele>
        <time>2000-01-01T02:28:14.000Z</time>
      </trkpt>
      <trkpt lat="45.95157" lon="6.88242">
        <ele>1395</ele>
        <time>2000-01-01T02:28:24.000Z</time>
      </trkpt>
      <trkpt lat="45.95151" lon="6.88272">
        <ele>1404</ele>
        <time>2000-01-01T02:28:34.000Z</time>
      </trkpt>
      <trkpt lat="45.9516" lon="6.88311">
        <ele>1408</ele>
        <time>2000-01-01T02:28:44.000Z</time>
      </trkpt>
      <trkpt lat="45.95173" lon="6.88372">
        <ele>1419</ele>
        <time>2000-01-01T02:28:54.000Z</time>
      </trkpt>
      <trkpt lat="45.95206" lon="6.88401">
        <ele>1426</ele>
        <time>2000-01-01T02:29:04.000Z</time>
      </trkpt>
      <trkpt lat="45.95215" lon="6.88428">
        <ele>1421</ele>
        <time>2000-01-01T02:29:14.000Z</time>
      </trkpt>
      <trkpt lat="45.95207" lon="6.88472">
        <ele>1426</ele>
        <time>2000-01-01T02:29:24.000Z</time>
      </trkpt>
      <trkpt lat="45.95215" lon="6.88487">
        <ele>1424.2</ele>
        <time>2000-01-01T02:29:34.000Z</time>
      </trkpt>
      <trkpt lat="45.95227" lon="6.88485">
        <ele>1432</ele>
        <time>2000-01-01T02:29:44.000Z</time>
      </trkpt>
      <trkpt lat="45.95227" lon="6.88473">
        <ele>1434.5</ele>
        <time>2000-01-01T02:29:54.000Z</time>
      </trkpt>
      <trkpt lat="45.95236" lon="6.8847">
        <ele>1441.7</ele>
        <time>2000-01-01T02:30:04.000Z</time>
      </trkpt>
      <trkpt lat="45.9524" lon="6.88476">
        <ele>1432</ele>
        <time>2000-01-01T02:30:14.000Z</time>
      </trkpt>
      <trkpt lat="45.95254" lon="6.88472">
        <ele>1455</ele>
        <time>2000-01-01T02:30:24.000Z</time>
      </trkpt>
      <trkpt lat="45.95255" lon="6.88449">
        <ele>1453</ele>
        <time>2000-01-01T02:30:34.000Z</time>
      </trkpt>
      <trkpt lat="45.95263" lon="6.88443">
        <ele>1464</ele>
        <time>2000-01-01T02:30:44.000Z</time>
      </trkpt>
      <trkpt lat="45.95266" lon="6.88456">
        <ele>1465.3</ele>
        <time>2000-01-01T02:30:54.000Z</time>
      </trkpt>
      <trkpt lat="45.95276" lon="6.88472">
        <ele>1472</ele>
        <time>2000-01-01T02:31:04.000Z</time>
      </trkpt>
      <trkpt lat="45.95284" lon="6.88447">
        <ele>1472</ele>
        <time>2000-01-01T02:31:14.000Z</time>
      </trkpt>
      <trkpt lat="45.9529" lon="6.88482">
        <ele>1472</ele>
        <time>2000-01-01T02:31:24.000Z</time>
      </trkpt>
      <trkpt lat="45.953" lon="6.88498">
        <ele>1479.7</ele>
        <time>2000-01-01T02:31:34.000Z</time>
      </trkpt>
      <trkpt lat="45.95304" lon="6.88475">
        <ele>1494</ele>
        <time>2000-01-01T02:31:44.000Z</time>
      </trkpt>
      <trkpt lat="45.95312" lon="6.88462">
        <ele>1494.7</ele>
        <time>2000-01-01T02:31:54.000Z</time>
      </trkpt>
      <trkpt lat="45.95314" lon="6.88446">
        <ele>1502</ele>
        <time>2000-01-01T02:32:04.000Z</time>
      </trkpt>
      <trkpt lat="45.95321" lon="6.88447">
        <ele>1502.4</ele>
        <time>2000-01-01T02:32:14.000Z</time>
      </trkpt>
      <trkpt lat="45.95321" lon="6.88435">
        <ele>1504.3</ele>
        <time>2000-01-01T02:32:24.000Z</time>
      </trkpt>
      <trkpt lat="45.95327" lon="6.88435">
        <ele>1511</ele>
        <time>2000-01-01T02:32:34.000Z</time>
      </trkpt>
      <trkpt lat="45.95325" lon="6.88409">
        <ele>1510.6</ele>
        <time>2000-01-01T02:32:44.000Z</time>
      </trkpt>
      <trkpt lat="45.95332" lon="6.88401">
        <ele>1515</ele>
        <time>2000-01-01T02:32:54.000Z</time>
      </trkpt>
      <trkpt lat="45.95334" lon="6.88417">
        <ele>1515.3</ele>
        <time>2000-01-01T02:33:04.000Z</time>
      </trkpt>
      <trkpt lat="45.95342" lon="6.88403">
        <ele>1515</ele>
        <time>2000-01-01T02:33:14.000Z</time>
      </trkpt>
      <trkpt lat="45.95341" lon="6.8842">
        <ele>1518.8</ele>
        <time>2000-01-01T02:33:24.000Z</time>
      </trkpt>
      <trkpt lat="45.9535" lon="6.88429">
        <ele>1522</ele>
        <time>2000-01-01T02:33:34.000Z</time>
      </trkpt>
      <trkpt lat="45.95352" lon="6.88394">
        <ele>1524</ele>
        <time>2000-01-01T02:33:44.000Z</time>
      </trkpt>
      <trkpt lat="45.95363" lon="6.88397">
        <ele>1535.6</ele>
        <time>2000-01-01T02:33:54.000Z</time>
      </trkpt>
      <trkpt lat="45.95368" lon="6.88423">
        <ele>1526</ele>
        <time>2000-01-01T02:34:04.000Z</time>
      </trkpt>
      <trkpt lat="45.95373" lon="6.88421">
        <ele>1537</ele>
        <time>2000-01-01T02:34:14.000Z</time>
      </trkpt>
      <trkpt lat="45.95373" lon="6.88401">
        <ele>1529</ele>
        <time>2000-01-01T02:34:24.000Z</time>
      </trkpt>
      <trkpt lat="45.9538" lon="6.88407">
        <ele>1543.6</ele>
        <time>2000-01-01T02:34:34.000Z</time>
      </trkpt>
      <trkpt lat="45.95384" lon="6.88402">
        <ele>1546.8</ele>
        <time>2000-01-01T02:34:44.000Z</time>
      </trkpt>
      <trkpt lat="45.95388" lon="6.88416">
        <ele>1540</ele>
        <time>2000-01-01T02:34:54.000Z</time>
      </trkpt>
      <trkpt lat="45.95402" lon="6.88425">
        <ele>1552.3</ele>
        <time>2000-01-01T02:35:04.000Z</time>
      </trkpt>
      <trkpt lat="45.95411" lon="6.88424">
        <ele>1550</ele>
        <time>2000-01-01T02:35:14.000Z</time>
      </trkpt>
      <trkpt lat="45.95431" lon="6.88478">
        <ele>1550</ele>
        <time>2000-01-01T02:35:24.000Z</time>
      </trkpt>
      <trkpt lat="45.95461" lon="6.88512">
        <ele>1561</ele>
        <time>2000-01-01T02:35:34.000Z</time>
      </trkpt>
      <trkpt lat="45.95485" lon="6.88566">
        <ele>1572</ele>
        <time>2000-01-01T02:35:44.000Z</time>
      </trkpt>
      <trkpt lat="45.955" lon="6.88622">
        <ele>1586</ele>
        <time>2000-01-01T02:35:54.000Z</time>
      </trkpt>
      <trkpt lat="45.95503" lon="6.88588">
        <ele>1587</ele>
        <time>2000-01-01T02:36:04.000Z</time>
      </trkpt>
      <trkpt lat="45.95507" lon="6.88551">
        <ele>1588</ele>
        <time>2000-01-01T02:36:14.000Z</time>
      </trkpt>
      <trkpt lat="45.95506" lon="6.88534">
        <ele>1597</ele>
        <time>2000-01-01T02:36:24.000Z</time>
      </trkpt>
      <trkpt lat="45.95499" lon="6.88504">
        <ele>1597</ele>
        <time>2000-01-01T02:36:34.000Z</time>
      </trkpt>
      <trkpt lat="45.95491" lon="6.8848">
        <ele>1594.1</ele>
        <time>2000-01-01T02:36:44.000Z</time>
      </trkpt>
      <trkpt lat="45.95485" lon="6.88444">
        <ele>1598</ele>
        <time>2000-01-01T02:36:54.000Z</time>
      </trkpt>
      <trkpt lat="45.95484" lon="6.88416">
        <ele>1602</ele>
        <time>2000-01-01T02:37:04.000Z</time>
      </trkpt>
      <trkpt lat="45.95487" lon="6.88396">
        <ele>1611.7</ele>
        <time>2000-01-01T02:37:14.000Z</time>
      </trkpt>
      <trkpt lat="45.95503" lon="6.88419">
        <ele>1604</ele>
        <time>2000-01-01T02:37:24.000Z</time>
      </trkpt>
      <trkpt lat="45.95516" lon="6.88452">
        <ele>1607</ele>
        <time>2000-01-01T02:37:34.000Z</time>
      </trkpt>
      <trkpt lat="45.95523" lon="6.8848">
        <ele>1608</ele>
        <time>2000-01-01T02:37:44.000Z</time>
      </trkpt>
      <trkpt lat="45.95525" lon="6.8851">
        <ele>1610</ele>
        <time>2000-01-01T02:37:54.000Z</time>
      </trkpt>
      <trkpt lat="45.95538" lon="6.8852">
        <ele>1625.7</ele>
        <time>2000-01-01T02:38:04.000Z</time>
      </trkpt>
      <trkpt lat="45.95544" lon="6.88514">
        <ele>1610</ele>
        <time>2000-01-01T02:38:14.000Z</time>
      </trkpt>
      <trkpt lat="45.95545" lon="6.88503">
        <ele>1633.6</ele>
        <time>2000-01-01T02:38:24.000Z</time>
      </trkpt>
      <trkpt lat="45.95536" lon="6.88474">
        <ele>1614</ele>
        <time>2000-01-01T02:38:34.000Z</time>
      </trkpt>
      <trkpt lat="45.95541" lon="6.88466">
        <ele>1637.6</ele>
        <time>2000-01-01T02:38:44.000Z</time>
      </trkpt>
      <trkpt lat="45.95549" lon="6.88474">
        <ele>1642.7</ele>
        <time>2000-01-01T02:38:54.000Z</time>
      </trkpt>
      <trkpt lat="45.95551" lon="6.88492">
        <ele>1619</ele>
        <time>2000-01-01T02:39:04.000Z</time>
      </trkpt>
      <trkpt lat="45.95562" lon="6.88512">
        <ele>1647.5</ele>
        <time>2000-01-01T02:39:14.000Z</time>
      </trkpt>
      <trkpt lat="45.95557" lon="6.88523">
        <ele>1624</ele>
        <time>2000-01-01T02:39:24.000Z</time>
      </trkpt>
      <trkpt lat="45.95557" lon="6.88545">
        <ele>1638.1</ele>
        <time>2000-01-01T02:39:34.000Z</time>
      </trkpt>
      <trkpt lat="45.95591" lon="6.88568">
        <ele>1643</ele>
        <time>2000-01-01T02:39:44.000Z</time>
      </trkpt>
      <trkpt lat="45.95593" lon="6.88562">
        <ele>1663.2</ele>
        <time>2000-01-01T02:39:54.000Z</time>
      </trkpt>
      <trkpt lat="45.95583" lon="6.88529">
        <ele>1655</ele>
        <time>2000-01-01T02:40:04.000Z</time>
      </trkpt>
      <trkpt lat="45.95581" lon="6.88513">
        <ele>1664.6</ele>
        <time>2000-01-01T02:40:14.000Z</time>
      </trkpt>
      <trkpt lat="45.95583" lon="6.88492">
        <ele>1658</ele>
        <time>2000-01-01T02:40:24.000Z</time>
      </trkpt>
      <trkpt lat="45.95593" lon="6.88508">
        <ele>1675.4</ele>
        <time>2000-01-01T02:40:34.000Z</time>
      </trkpt>
      <trkpt lat="45.95604" lon="6.88542">
        <ele>1665</ele>
        <time>2000-01-01T02:40:44.000Z</time>
      </trkpt>
      <trkpt lat="45.95627" lon="6.88568">
        <ele>1672</ele>
        <time>2000-01-01T02:40:54.000Z</time>
      </trkpt>
      <trkpt lat="45.9564" lon="6.88597">
        <ele>1683</ele>
        <time>2000-01-01T02:41:04.000Z</time>
      </trkpt>
      <trkpt lat="45.95649" lon="6.88608">
        <ele>1690.3</ele>
        <time>2000-01-01T02:41:14.000Z</time>
      </trkpt>
      <trkpt lat="45.95656" lon="6.88586">
        <ele>1683</ele>
        <time>2000-01-01T02:41:24.000Z</time>
      </trkpt>
      <trkpt lat="45.95652" lon="6.88552">
        <ele>1692</ele>
        <time>2000-01-01T02:41:34.000Z</time>
      </trkpt>
      <trkpt lat="45.95639" lon="6.88527">
        <ele>1693</ele>
        <time>2000-01-01T02:41:44.000Z</time>
      </trkpt>
      <trkpt lat="45.95638" lon="6.88496">
        <ele>1688</ele>
        <time>2000-01-01T02:41:54.000Z</time>
      </trkpt>
      <trkpt lat="45.95619" lon="6.88459">
        <ele>1687</ele>
        <time>2000-01-01T02:42:04.000Z</time>
      </trkpt>
      <trkpt lat="45.95616" lon="6.88424">
        <ele>1687</ele>
        <time>2000-01-01T02:42:14.000Z</time>
      </trkpt>
      <trkpt lat="45.95607" lon="6.88391">
        <ele>1688</ele>
        <time>2000-01-01T02:42:24.000Z</time>
      </trkpt>
      <trkpt lat="45.95597" lon="6.88354">
        <ele>1690</ele>
        <time>2000-01-01T02:42:34.000Z</time>
      </trkpt>
      <trkpt lat="45.95602" lon="6.88331">
        <ele>1720.1</ele>
        <time>2000-01-01T02:42:44.000Z</time>
      </trkpt>
      <trkpt lat="45.956" lon="6.88294">
        <ele>1697</ele>
        <time>2000-01-01T02:42:54.000Z</time>
      </trkpt>
      <trkpt lat="45.95606" lon="6.88264">
        <ele>1721</ele>
        <time>2000-01-01T02:43:04.000Z</time>
      </trkpt>
      <trkpt lat="45.95622" lon="6.88232">
        <ele>1721</ele>
        <time>2000-01-01T02:43:14.000Z</time>
      </trkpt>
      <trkpt lat="45.95645" lon="6.88186">
        <ele>1720</ele>
        <time>2000-01-01T02:43:24.000Z</time>
      </trkpt>
      <trkpt lat="45.95657" lon="6.88155">
        <ele>1720</ele>
        <time>2000-01-01T02:43:34.000Z</time>
      </trkpt>
      <trkpt lat="45.95671" lon="6.88119">
        <ele>1729</ele>
        <time>2000-01-01T02:43:44.000Z</time>
      </trkpt>
      <trkpt lat="45.95676" lon="6.88159">
        <ele>1739</ele>
        <time>2000-01-01T02:43:54.000Z</time>
      </trkpt>
      <trkpt lat="45.95665" lon="6.88201">
        <ele>1742</ele>
        <time>2000-01-01T02:44:04.000Z</time>
      </trkpt>
      <trkpt lat="45.95664" lon="6.88239">
        <ele>1754</ele>
        <time>2000-01-01T02:44:14.000Z</time>
      </trkpt>
      <trkpt lat="45.95677" lon="6.88266">
        <ele>1760</ele>
        <time>2000-01-01T02:44:24.000Z</time>
      </trkpt>
      <trkpt lat="45.95693" lon="6.88291">
        <ele>1767</ele>
        <time>2000-01-01T02:44:34.000Z</time>
      </trkpt>
      <trkpt lat="45.9571" lon="6.88316">
        <ele>1771</ele>
        <time>2000-01-01T02:44:44.000Z</time>
      </trkpt>
      <trkpt lat="45.95727" lon="6.88351">
        <ele>1784</ele>
        <time>2000-01-01T02:44:54.000Z</time>
      </trkpt>
      <trkpt lat="45.95741" lon="6.88379">
        <ele>1805</ele>
        <time>2000-01-01T02:45:04.000Z</time>
      </trkpt>
      <trkpt lat="45.95756" lon="6.8841">
        <ele>1805</ele>
        <time>2000-01-01T02:45:14.000Z</time>
      </trkpt>
      <trkpt lat="45.95775" lon="6.88443">
        <ele>1804</ele>
        <time>2000-01-01T02:45:24.000Z</time>
      </trkpt>
      <trkpt lat="45.95791" lon="6.8847">
        <ele>1804</ele>
        <time>2000-01-01T02:45:34.000Z</time>
      </trkpt>
      <trkpt lat="45.95809" lon="6.88501">
        <ele>1816</ele>
        <time>2000-01-01T02:45:44.000Z</time>
      </trkpt>
      <trkpt lat="45.9582" lon="6.88515">
        <ele>1814.8</ele>
        <time>2000-01-01T02:45:54.000Z</time>
      </trkpt>
      <trkpt lat="45.95833" lon="6.88525">
        <ele>1829</ele>
        <time>2000-01-01T02:46:04.000Z</time>
      </trkpt>
      <trkpt lat="45.95856" lon="6.88536">
        <ele>1838</ele>
        <time>2000-01-01T02:46:14.000Z</time>
      </trkpt>
      <trkpt lat="45.95882" lon="6.88549">
        <ele>1839</ele>
        <time>2000-01-01T02:46:24.000Z</time>
      </trkpt>
      <trkpt lat="45.95893" lon="6.88559">
        <ele>1837.3</ele>
        <time>2000-01-01T02:46:34.000Z</time>
      </trkpt>
      <trkpt lat="45.95926" lon="6.88603">
        <ele>1840</ele>
        <time>2000-01-01T02:46:44.000Z</time>
      </trkpt>
      <trkpt lat="45.95941" lon="6.88619">
        <ele>1849.2</ele>
        <time>2000-01-01T02:46:54.000Z</time>
      </trkpt>
      <trkpt lat="45.95949" lon="6.88633">
        <ele>1848</ele>
        <time>2000-01-01T02:47:04.000Z</time>
      </trkpt>
      <trkpt lat="45.95962" lon="6.88641">
        <ele>1855.6</ele>
        <time>2000-01-01T02:47:14.000Z</time>
      </trkpt>
      <trkpt lat="45.95965" lon="6.88655">
        <ele>1859</ele>
        <time>2000-01-01T02:47:24.000Z</time>
      </trkpt>
      <trkpt lat="45.9597" lon="6.88665">
        <ele>1859.9</ele>
        <time>2000-01-01T02:47:34.000Z</time>
      </trkpt>
      <trkpt lat="45.95973" lon="6.88696">
        <ele>1860</ele>
        <time>2000-01-01T02:47:44.000Z</time>
      </trkpt>
      <trkpt lat="45.95977" lon="6.88697">
        <ele>1869.4</ele>
        <time>2000-01-01T02:47:54.000Z</time>
      </trkpt>
      <trkpt lat="45.95978" lon="6.88699">
        <ele>1870</ele>
        <time>2000-01-01T02:48:04.000Z</time>
      </trkpt>
      <trkpt lat="45.95974" lon="6.88709">
        <ele>1868.8</ele>
        <time>2000-01-01T02:48:14.000Z</time>
      </trkpt>
      <trkpt lat="45.95976" lon="6.88722">
        <ele>1862</ele>
        <time>2000-01-01T02:48:24.000Z</time>
      </trkpt>
      <trkpt lat="45.95998" lon="6.88752">
        <ele>1869</ele>
        <time>2000-01-01T02:48:34.000Z</time>
      </trkpt>
      <trkpt lat="45.96021" lon="6.88764">
        <ele>1873</ele>
        <time>2000-01-01T02:48:44.000Z</time>
      </trkpt>
      <trkpt lat="45.96026" lon="6.88765">
        <ele>1869.2</ele>
        <time>2000-01-01T02:48:54.000Z</time>
      </trkpt>
      <trkpt lat="45.96039" lon="6.88751">
        <ele>1873</ele>
        <time>2000-01-01T02:49:04.000Z</time>
      </trkpt>
      <trkpt lat="45.96051" lon="6.88742">
        <ele>1875</ele>
        <time>2000-01-01T02:49:14.000Z</time>
      </trkpt>
      <trkpt lat="45.96069" lon="6.88733">
        <ele>1885</ele>
        <time>2000-01-01T02:49:24.000Z</time>
      </trkpt>
      <trkpt lat="45.96081" lon="6.88725">
        <ele>1880</ele>
        <time>2000-01-01T02:49:34.000Z</time>
      </trkpt>
      <trkpt lat="45.96111" lon="6.88688">
        <ele>1890</ele>
        <time>2000-01-01T02:49:44.000Z</time>
      </trkpt>
      <trkpt lat="45.96143" lon="6.88674">
        <ele>1891</ele>
        <time>2000-01-01T02:49:54.000Z</time>
      </trkpt>
      <trkpt lat="45.96164" lon="6.88651">
        <ele>1893</ele>
        <time>2000-01-01T02:50:04.000Z</time>
      </trkpt>
      <trkpt lat="45.9619" lon="6.88622">
        <ele>1887</ele>
        <time>2000-01-01T02:50:14.000Z</time>
      </trkpt>
      <trkpt lat="45.96199" lon="6.88624">
        <ele>1876.2</ele>
        <time>2000-01-01T02:50:24.000Z</time>
      </trkpt>
      <trkpt lat="45.96198" lon="6.88635">
        <ele>1873.5</ele>
        <time>2000-01-01T02:50:34.000Z</time>
      </trkpt>
      <trkpt lat="45.96191" lon="6.88651">
        <ele>1882</ele>
        <time>2000-01-01T02:50:44.000Z</time>
      </trkpt>
      <trkpt lat="45.96189" lon="6.88671">
        <ele>1868.7</ele>
        <time>2000-01-01T02:50:54.000Z</time>
      </trkpt>
      <trkpt lat="45.96193" lon="6.88718">
        <ele>1852</ele>
        <time>2000-01-01T02:51:04.000Z</time>
      </trkpt>
      <trkpt lat="45.96198" lon="6.88744">
        <ele>1848</ele>
        <time>2000-01-01T02:51:14.000Z</time>
      </trkpt>
      <trkpt lat="45.96214" lon="6.88716">
        <ele>1848</ele>
        <time>2000-01-01T02:51:24.000Z</time>
      </trkpt>
      <trkpt lat="45.96234" lon="6.887">
        <ele>1847</ele>
        <time>2000-01-01T02:51:34.000Z</time>
      </trkpt>
      <trkpt lat="45.96257" lon="6.88691">
        <ele>1847</ele>
        <time>2000-01-01T02:51:44.000Z</time>
      </trkpt>
      <trkpt lat="45.96273" lon="6.88688">
        <ele>1848.2</ele>
        <time>2000-01-01T02:51:54.000Z</time>
      </trkpt>
      <trkpt lat="45.96292" lon="6.88689">
        <ele>1847</ele>
        <time>2000-01-01T02:52:04.000Z</time>
      </trkpt>
      <trkpt lat="45.96334" lon="6.8871">
        <ele>1847</ele>
        <time>2000-01-01T02:52:14.000Z</time>
      </trkpt>
      <trkpt lat="45.96355" lon="6.88731">
        <ele>1854</ele>
        <time>2000-01-01T02:52:24.000Z</time>
      </trkpt>
      <trkpt lat="45.9637" lon="6.8874">
        <ele>1858.7</ele>
        <time>2000-01-01T02:52:34.000Z</time>
      </trkpt>
      <trkpt lat="45.96382" lon="6.88751">
        <ele>1859</ele>
        <time>2000-01-01T02:52:44.000Z</time>
      </trkpt>
      <trkpt lat="45.96389" lon="6.88753">
        <ele>1861.7</ele>
        <time>2000-01-01T02:52:54.000Z</time>
      </trkpt>
      <trkpt lat="45.96394" lon="6.88758">
        <ele>1863.2</ele>
        <time>2000-01-01T02:53:04.000Z</time>
      </trkpt>
      <trkpt lat="45.96399" lon="6.88768">
        <ele>1859</ele>
        <time>2000-01-01T02:53:14.000Z</time>
      </trkpt>
      <trkpt lat="45.96413" lon="6.8881">
        <ele>1859</ele>
        <time>2000-01-01T02:53:24.000Z</time>
      </trkpt>
      <trkpt lat="45.96421" lon="6.88823">
        <ele>1861.1</ele>
        <time>2000-01-01T02:53:34.000Z</time>
      </trkpt>
      <trkpt lat="45.96427" lon="6.88823">
        <ele>1861.8</ele>
        <time>2000-01-01T02:53:44.000Z</time>
      </trkpt>
      <trkpt lat="45.96434" lon="6.88826">
        <ele>1859</ele>
        <time>2000-01-01T02:53:54.000Z</time>
      </trkpt>
      <trkpt lat="45.96455" lon="6.88848">
        <ele>1858</ele>
        <time>2000-01-01T02:54:04.000Z</time>
      </trkpt>
      <trkpt lat="45.96462" lon="6.88859">
        <ele>1854.2</ele>
        <time>2000-01-01T02:54:14.000Z</time>
      </trkpt>
      <trkpt lat="45.96471" lon="6.88862">
        <ele>1858</ele>
        <time>2000-01-01T02:54:24.000Z</time>
      </trkpt>
      <trkpt lat="45.96496" lon="6.88914">
        <ele>1847</ele>
        <time>2000-01-01T02:54:34.000Z</time>
      </trkpt>
      <trkpt lat="45.96505" lon="6.88916">
        <ele>1852.8</ele>
        <time>2000-01-01T02:54:44.000Z</time>
      </trkpt>
      <trkpt lat="45.96512" lon="6.8892">
        <ele>1854.1</ele>
        <time>2000-01-01T02:54:54.000Z</time>
      </trkpt>
      <trkpt lat="45.9652" lon="6.88931">
        <ele>1847</ele>
        <time>2000-01-01T02:55:04.000Z</time>
      </trkpt>
      <trkpt lat="45.96533" lon="6.88938">
        <ele>1854.8</ele>
        <time>2000-01-01T02:55:14.000Z</time>
      </trkpt>
      <trkpt lat="45.96554" lon="6.88937">
        <ele>1854</ele>
        <time>2000-01-01T02:55:24.000Z</time>
      </trkpt>
      <trkpt lat="45.96559" lon="6.88951">
        <ele>1856.7</ele>
        <time>2000-01-01T02:55:34.000Z</time>
      </trkpt>
      <trkpt lat="45.96576" lon="6.88966">
        <ele>1862</ele>
        <time>2000-01-01T02:55:44.000Z</time>
      </trkpt>
      <trkpt lat="45.9659" lon="6.8897">
        <ele>1861.1</ele>
        <time>2000-01-01T02:55:54.000Z</time>
      </trkpt>
      <trkpt lat="45.96638" lon="6.89011">
        <ele>1860</ele>
        <time>2000-01-01T02:56:04.000Z</time>
      </trkpt>
      <trkpt lat="45.96652" lon="6.89013">
        <ele>1871.7</ele>
        <time>2000-01-01T02:56:14.000Z</time>
      </trkpt>
      <trkpt lat="45.96655" lon="6.89033">
        <ele>1862</ele>
        <time>2000-01-01T02:56:24.000Z</time>
      </trkpt>
      <trkpt lat="45.96667" lon="6.89041">
        <ele>1870.8</ele>
        <time>2000-01-01T02:56:34.000Z</time>
      </trkpt>
      <trkpt lat="45.96677" lon="6.89067">
        <ele>1865</ele>
        <time>2000-01-01T02:56:44.000Z</time>
      </trkpt>
      <trkpt lat="45.96687" lon="6.89082">
        <ele>1867.5</ele>
        <time>2000-01-01T02:56:54.000Z</time>
      </trkpt>
      <trkpt lat="45.96696" lon="6.89086">
        <ele>1867</ele>
        <time>2000-01-01T02:57:04.000Z</time>
      </trkpt>
      <trkpt lat="45.96713" lon="6.89111">
        <ele>1868</ele>
        <time>2000-01-01T02:57:14.000Z</time>
      </trkpt>
      <trkpt lat="45.96731" lon="6.89125">
        <ele>1868</ele>
        <time>2000-01-01T02:57:24.000Z</time>
      </trkpt>
      <trkpt lat="45.96737" lon="6.89125">
        <ele>1876.9</ele>
        <time>2000-01-01T02:57:34.000Z</time>
      </trkpt>
      <trkpt lat="45.96742" lon="6.89131">
        <ele>1877.8</ele>
        <time>2000-01-01T02:57:44.000Z</time>
      </trkpt>
      <trkpt lat="45.96747" lon="6.8914">
        <ele>1868</ele>
        <time>2000-01-01T02:57:54.000Z</time>
      </trkpt>
      <trkpt lat="45.96748" lon="6.8915">
        <ele>1877.7</ele>
        <time>2000-01-01T02:58:04.000Z</time>
      </trkpt>
      <trkpt lat="45.96753" lon="6.89164">
        <ele>1879.4</ele>
        <time>2000-01-01T02:58:14.000Z</time>
      </trkpt>
      <trkpt lat="45.96754" lon="6.89174">
        <ele>1869</ele>
        <time>2000-01-01T02:58:24.000Z</time>
      </trkpt>
      <trkpt lat="45.96759" lon="6.89185">
        <ele>1878.8</ele>
        <time>2000-01-01T02:58:34.000Z</time>
      </trkpt>
      <trkpt lat="45.96767" lon="6.89189">
        <ele>1882.1</ele>
        <time>2000-01-01T02:58:44.000Z</time>
      </trkpt>
      <trkpt lat="45.96771" lon="6.89194">
        <ele>1878</ele>
        <time>2000-01-01T02:58:54.000Z</time>
      </trkpt>
      <trkpt lat="45.96782" lon="6.89197">
        <ele>1886.4</ele>
        <time>2000-01-01T02:59:04.000Z</time>
      </trkpt>
      <trkpt lat="45.96789" lon="6.89204">
        <ele>1878</ele>
        <time>2000-01-01T02:59:14.000Z</time>
      </trkpt>
      <trkpt lat="45.968" lon="6.89209">
        <ele>1887.1</ele>
        <time>2000-01-01T02:59:24.000Z</time>
      </trkpt>
      <trkpt lat="45.96824" lon="6.89211">
        <ele>1888</ele>
        <time>2000-01-01T02:59:34.000Z</time>
      </trkpt>
      <trkpt lat="45.96861" lon="6.89229">
        <ele>1899</ele>
        <time>2000-01-01T02:59:44.000Z</time>
      </trkpt>
      <trkpt lat="45.9687" lon="6.89227">
        <ele>1901.6</ele>
        <time>2000-01-01T02:59:54.000Z</time>
      </trkpt>
      <trkpt lat="45.96874" lon="6.89231">
        <ele>1902.4</ele>
        <time>2000-01-01T03:00:04.000Z</time>
      </trkpt>
      <trkpt lat="45.96887" lon="6.89261">
        <ele>1900</ele>
        <time>2000-01-01T03:00:14.000Z</time>
      </trkpt>
      <trkpt lat="45.96898" lon="6.89281">
        <ele>1906.7</ele>
        <time>2000-01-01T03:00:24.000Z</time>
      </trkpt>
      <trkpt lat="45.969" lon="6.89291">
        <ele>1900</ele>
        <time>2000-01-01T03:00:34.000Z</time>
      </trkpt>
      <trkpt lat="45.969" lon="6.89302">
        <ele>1908.1</ele>
        <time>2000-01-01T03:00:44.000Z</time>
      </trkpt>
      <trkpt lat="45.96905" lon="6.89308">
        <ele>1911</ele>
        <time>2000-01-01T03:00:54.000Z</time>
      </trkpt>
      <trkpt lat="45.96906" lon="6.89318">
        <ele>1901</ele>
        <time>2000-01-01T03:01:04.000Z</time>
      </trkpt>
      <trkpt lat="45.9691" lon="6.8931">
        <ele>1913.7</ele>
        <time>2000-01-01T03:01:14.000Z</time>
      </trkpt>
      <trkpt lat="45.96913" lon="6.8931">
        <ele>1915.1</ele>
        <time>2000-01-01T03:01:24.000Z</time>
      </trkpt>
      <trkpt lat="45.96917" lon="6.89304">
        <ele>1916.2</ele>
        <time>2000-01-01T03:01:34.000Z</time>
      </trkpt>
      <trkpt lat="45.96919" lon="6.89306">
        <ele>1917.3</ele>
        <time>2000-01-01T03:01:44.000Z</time>
      </trkpt>
      <trkpt lat="45.96916" lon="6.89379">
        <ele>1912</ele>
        <time>2000-01-01T03:01:54.000Z</time>
      </trkpt>
      <trkpt lat="45.96921" lon="6.89404">
        <ele>1928.3</ele>
        <time>2000-01-01T03:02:04.000Z</time>
      </trkpt>
      <trkpt lat="45.96929" lon="6.89399">
        <ele>1921</ele>
        <time>2000-01-01T03:02:14.000Z</time>
      </trkpt>
      <trkpt lat="45.96935" lon="6.8941">
        <ele>1935.5</ele>
        <time>2000-01-01T03:02:24.000Z</time>
      </trkpt>
      <trkpt lat="45.96956" lon="6.89427">
        <ele>1932</ele>
        <time>2000-01-01T03:02:34.000Z</time>
      </trkpt>
      <trkpt lat="45.96966" lon="6.89429">
        <ele>1944.9</ele>
        <time>2000-01-01T03:02:44.000Z</time>
      </trkpt>
      <trkpt lat="45.96974" lon="6.89434">
        <ele>1945</ele>
        <time>2000-01-01T03:02:54.000Z</time>
      </trkpt>
      <trkpt lat="45.96992" lon="6.8944">
        <ele>1954</ele>
        <time>2000-01-01T03:03:04.000Z</time>
      </trkpt>
      <trkpt lat="45.96996" lon="6.89444">
        <ele>1950</ele>
        <time>2000-01-01T03:03:14.000Z</time>
      </trkpt>
      <trkpt lat="45.97005" lon="6.89457">
        <ele>1954.1</ele>
        <time>2000-01-01T03:03:24.000Z</time>
      </trkpt>
      <trkpt lat="45.97021" lon="6.89474">
        <ele>1957</ele>
        <time>2000-01-01T03:03:34.000Z</time>
      </trkpt>
      <trkpt lat="45.97031" lon="6.89482">
        <ele>1955.6</ele>
        <time>2000-01-01T03:03:44.000Z</time>
      </trkpt>
      <trkpt lat="45.97042" lon="6.89485">
        <ele>1957</ele>
        <time>2000-01-01T03:03:54.000Z</time>
      </trkpt>
      <trkpt lat="45.97049" lon="6.89491">
        <ele>1956.5</ele>
        <time>2000-01-01T03:04:04.000Z</time>
      </trkpt>
      <trkpt lat="45.9707" lon="6.89499">
        <ele>1961</ele>
        <time>2000-01-01T03:04:14.000Z</time>
      </trkpt>
      <trkpt lat="45.97084" lon="6.89517">
        <ele>1963</ele>
        <time>2000-01-01T03:04:24.000Z</time>
      </trkpt>
      <trkpt lat="45.97093" lon="6.89523">
        <ele>1958.7</ele>
        <time>2000-01-01T03:04:34.000Z</time>
      </trkpt>
      <trkpt lat="45.97101" lon="6.89534">
        <ele>1960</ele>
        <time>2000-01-01T03:04:44.000Z</time>
      </trkpt>
      <trkpt lat="45.9711" lon="6.8954">
        <ele>1958.7</ele>
        <time>2000-01-01T03:04:54.000Z</time>
      </trkpt>
      <trkpt lat="45.97121" lon="6.89552">
        <ele>1959</ele>
        <time>2000-01-01T03:05:04.000Z</time>
      </trkpt>
      <trkpt lat="45.97131" lon="6.89567">
        <ele>1956.6</ele>
        <time>2000-01-01T03:05:14.000Z</time>
      </trkpt>
      <trkpt lat="45.9714" lon="6.89573">
        <ele>1959</ele>
        <time>2000-01-01T03:05:24.000Z</time>
      </trkpt>
      <trkpt lat="45.97146" lon="6.89595">
        <ele>1953.5</ele>
        <time>2000-01-01T03:05:34.000Z</time>
      </trkpt>
      <trkpt lat="45.97152" lon="6.89603">
        <ele>1957</ele>
        <time>2000-01-01T03:05:44.000Z</time>
      </trkpt>
      <trkpt lat="45.97163" lon="6.89611">
        <ele>1954.6</ele>
        <time>2000-01-01T03:05:54.000Z</time>
      </trkpt>
      <trkpt lat="45.97181" lon="6.89629">
        <ele>1955</ele>
        <time>2000-01-01T03:06:04.000Z</time>
      </trkpt>
      <trkpt lat="45.97195" lon="6.89654">
        <ele>1956</ele>
        <time>2000-01-01T03:06:14.000Z</time>
      </trkpt>
      <trkpt lat="45.97219" lon="6.89672">
        <ele>1958</ele>
        <time>2000-01-01T03:06:24.000Z</time>
      </trkpt>
      <trkpt lat="45.97245" lon="6.89701">
        <ele>1956</ele>
        <time>2000-01-01T03:06:34.000Z</time>
      </trkpt>
      <trkpt lat="45.9726" lon="6.89729">
        <ele>1958</ele>
        <time>2000-01-01T03:06:44.000Z</time>
      </trkpt>
      <trkpt lat="45.97262" lon="6.89743">
        <ele>1957.1</ele>
        <time>2000-01-01T03:06:54.000Z</time>
      </trkpt>
      <trkpt lat="45.97278" lon="6.89754">
        <ele>1956</ele>
        <time>2000-01-01T03:07:04.000Z</time>
      </trkpt>
      <trkpt lat="45.97296" lon="6.89786">
        <ele>1954</ele>
        <time>2000-01-01T03:07:14.000Z</time>
      </trkpt>
      <trkpt lat="45.97326" lon="6.89788">
        <ele>1954</ele>
        <time>2000-01-01T03:07:24.000Z</time>
      </trkpt>
      <trkpt lat="45.9733" lon="6.89782">
        <ele>1956.5</ele>
        <time>2000-01-01T03:07:34.000Z</time>
      </trkpt>
      <trkpt lat="45.97342" lon="6.89775">
        <ele>1958.1</ele>
        <time>2000-01-01T03:07:44.000Z</time>
      </trkpt>
      <trkpt lat="45.97361" lon="6.89789">
        <ele>1955</ele>
        <time>2000-01-01T03:07:54.000Z</time>
      </trkpt>
      <trkpt lat="45.9739" lon="6.89789">
        <ele>1961</ele>
        <time>2000-01-01T03:08:04.000Z</time>
      </trkpt>
      <trkpt lat="45.97408" lon="6.89771">
        <ele>1961</ele>
        <time>2000-01-01T03:08:14.000Z</time>
      </trkpt>
      <trkpt lat="45.97424" lon="6.89778">
        <ele>1941.2</ele>
        <time>2000-01-01T03:08:24.000Z</time>
      </trkpt>
      <trkpt lat="45.97434" lon="6.89775">
        <ele>1956</ele>
        <time>2000-01-01T03:08:34.000Z</time>
      </trkpt>
      <trkpt lat="45.9746" lon="6.89804">
        <ele>1955</ele>
        <time>2000-01-01T03:08:44.000Z</time>
      </trkpt>
      <trkpt lat="45.97466" lon="6.89808">
        <ele>1939.2</ele>
        <time>2000-01-01T03:08:54.000Z</time>
      </trkpt>
      <trkpt lat="45.9747" lon="6.89818">
        <ele>1938.2</ele>
        <time>2000-01-01T03:09:04.000Z</time>
      </trkpt>
      <trkpt lat="45.97477" lon="6.89819">
        <ele>1955</ele>
        <time>2000-01-01T03:09:14.000Z</time>
      </trkpt>
      <trkpt lat="45.97483" lon="6.89824">
        <ele>1940.8</ele>
        <time>2000-01-01T03:09:24.000Z</time>
      </trkpt>
      <trkpt lat="45.97487" lon="6.89839">
        <ele>1938.2</ele>
        <time>2000-01-01T03:09:34.000Z</time>
      </trkpt>
      <trkpt lat="45.97498" lon="6.89841">
        <ele>1954</ele>
        <time>2000-01-01T03:09:44.000Z</time>
      </trkpt>
      <trkpt lat="45.97506" lon="6.89845">
        <ele>1940.8</ele>
        <time>2000-01-01T03:09:54.000Z</time>
      </trkpt>
      <trkpt lat="45.97513" lon="6.89845">
        <ele>1942.4</ele>
        <time>2000-01-01T03:10:04.000Z</time>
      </trkpt>
      <trkpt lat="45.97517" lon="6.89849">
        <ele>1954</ele>
        <time>2000-01-01T03:10:14.000Z</time>
      </trkpt>
      <trkpt lat="45.97528" lon="6.8985">
        <ele>1944.1</ele>
        <time>2000-01-01T03:10:24.000Z</time>
      </trkpt>
      <trkpt lat="45.97555" lon="6.89867">
        <ele>1954</ele>
        <time>2000-01-01T03:10:34.000Z</time>
      </trkpt>
      <trkpt lat="45.97592" lon="6.89878">
        <ele>1954</ele>
        <time>2000-01-01T03:10:44.000Z</time>
      </trkpt>
      <trkpt lat="45.97614" lon="6.8988">
        <ele>1959</ele>
        <time>2000-01-01T03:10:54.000Z</time>
      </trkpt>
      <trkpt lat="45.97634" lon="6.89885">
        <ele>1962</ele>
        <time>2000-01-01T03:11:04.000Z</time>
      </trkpt>
      <trkpt lat="45.97663" lon="6.89899">
        <ele>1968</ele>
        <time>2000-01-01T03:11:14.000Z</time>
      </trkpt>
      <trkpt lat="45.97682" lon="6.89906">
        <ele>1968</ele>
        <time>2000-01-01T03:11:24.000Z</time>
      </trkpt>
      <trkpt lat="45.9769" lon="6.89914">
        <ele>1951.3</ele>
        <time>2000-01-01T03:11:34.000Z</time>
      </trkpt>
      <trkpt lat="45.97696" lon="6.89916">
        <ele>1951.5</ele>
        <time>2000-01-01T03:11:44.000Z</time>
      </trkpt>
      <trkpt lat="45.97706" lon="6.8991">
        <ele>1967</ele>
        <time>2000-01-01T03:11:54.000Z</time>
      </trkpt>
      <trkpt lat="45.9774" lon="6.8993">
        <ele>1968</ele>
        <time>2000-01-01T03:12:04.000Z</time>
      </trkpt>
      <trkpt lat="45.97754" lon="6.89928">
        <ele>1958.8</ele>
        <time>2000-01-01T03:12:14.000Z</time>
      </trkpt>
      <trkpt lat="45.97759" lon="6.89931">
        <ele>1967</ele>
        <time>2000-01-01T03:12:24.000Z</time>
      </trkpt>
      <trkpt lat="45.97765" lon="6.89931">
        <ele>1960.4</ele>
        <time>2000-01-01T03:12:34.000Z</time>
      </trkpt>
      <trkpt lat="45.97784" lon="6.89945">
        <ele>1967</ele>
        <time>2000-01-01T03:12:44.000Z</time>
      </trkpt>
      <trkpt lat="45.97782" lon="6.89943">
        <ele>1962</ele>
        <time>2000-01-01T03:12:54.000Z</time>
      </trkpt>
      <trkpt lat="45.9779" lon="6.89959">
        <ele>1961.6</ele>
        <time>2000-01-01T03:13:04.000Z</time>
      </trkpt>
      <trkpt lat="45.97806" lon="6.89972">
        <ele>1968</ele>
        <time>2000-01-01T03:13:14.000Z</time>
      </trkpt>
      <trkpt lat="45.97813" lon="6.89988">
        <ele>1965.1</ele>
        <time>2000-01-01T03:13:24.000Z</time>
      </trkpt>
      <trkpt lat="45.97822" lon="6.90001">
        <ele>1966</ele>
        <time>2000-01-01T03:13:34.000Z</time>
      </trkpt>
      <trkpt lat="45.97831" lon="6.90018">
        <ele>1969.4</ele>
        <time>2000-01-01T03:13:44.000Z</time>
      </trkpt>
      <trkpt lat="45.97841" lon="6.90087">
        <ele>1975</ele>
        <time>2000-01-01T03:13:54.000Z</time>
      </trkpt>
      <trkpt lat="45.97853" lon="6.90115">
        <ele>1985</ele>
        <time>2000-01-01T03:14:04.000Z</time>
      </trkpt>
      <trkpt lat="45.97861" lon="6.90149">
        <ele>1988</ele>
        <time>2000-01-01T03:14:14.000Z</time>
      </trkpt>
      <trkpt lat="45.9787" lon="6.90189">
        <ele>1988</ele>
        <time>2000-01-01T03:14:24.000Z</time>
      </trkpt>
      <trkpt lat="45.97875" lon="6.90204">
        <ele>1994.4</ele>
        <time>2000-01-01T03:14:34.000Z</time>
      </trkpt>
      <trkpt lat="45.97874" lon="6.90224">
        <ele>1989</ele>
        <time>2000-01-01T03:14:44.000Z</time>
      </trkpt>
      <trkpt lat="45.97868" lon="6.90239">
        <ele>1997.6</ele>
        <time>2000-01-01T03:14:54.000Z</time>
      </trkpt>
      <trkpt lat="45.97868" lon="6.90265">
        <ele>1990</ele>
        <time>2000-01-01T03:15:04.000Z</time>
      </trkpt>
      <trkpt lat="45.97876" lon="6.90288">
        <ele>2001.5</ele>
        <time>2000-01-01T03:15:14.000Z</time>
      </trkpt>
      <trkpt lat="45.97879" lon="6.90306">
        <ele>1997</ele>
        <time>2000-01-01T03:15:24.000Z</time>
      </trkpt>
      <trkpt lat="45.97893" lon="6.90337">
        <ele>1997</ele>
        <time>2000-01-01T03:15:34.000Z</time>
      </trkpt>
      <trkpt lat="45.97904" lon="6.90355">
        <ele>2008.7</ele>
        <time>2000-01-01T03:15:44.000Z</time>
      </trkpt>
      <trkpt lat="45.97911" lon="6.90361">
        <ele>2005</ele>
        <time>2000-01-01T03:15:54.000Z</time>
      </trkpt>
      <trkpt lat="45.97931" lon="6.90362">
        <ele>2005</ele>
        <time>2000-01-01T03:16:04.000Z</time>
      </trkpt>
      <trkpt lat="45.97943" lon="6.90355">
        <ele>2016.6</ele>
        <time>2000-01-01T03:16:14.000Z</time>
      </trkpt>
      <trkpt lat="45.97971" lon="6.90349">
        <ele>2021</ele>
        <time>2000-01-01T03:16:24.000Z</time>
      </trkpt>
      <trkpt lat="45.97984" lon="6.90352">
        <ele>2022.3</ele>
        <time>2000-01-01T03:16:34.000Z</time>
      </trkpt>
      <trkpt lat="45.97996" lon="6.90348">
        <ele>2024</ele>
        <time>2000-01-01T03:16:44.000Z</time>
      </trkpt>
      <trkpt lat="45.98003" lon="6.90352">
        <ele>2025.7</ele>
        <time>2000-01-01T03:16:54.000Z</time>
      </trkpt>
      <trkpt lat="45.98023" lon="6.90353">
        <ele>2025</ele>
        <time>2000-01-01T03:17:04.000Z</time>
      </trkpt>
      <trkpt lat="45.98027" lon="6.90364">
        <ele>2032.9</ele>
        <time>2000-01-01T03:17:14.000Z</time>
      </trkpt>
      <trkpt lat="45.98027" lon="6.90384">
        <ele>2019</ele>
        <time>2000-01-01T03:17:24.000Z</time>
      </trkpt>
      <trkpt lat="45.98024" lon="6.90402">
        <ele>2035.4</ele>
        <time>2000-01-01T03:17:34.000Z</time>
      </trkpt>
      <trkpt lat="45.98019" lon="6.9041">
        <ele>2021</ele>
        <time>2000-01-01T03:17:44.000Z</time>
      </trkpt>
      <trkpt lat="45.98018" lon="6.90419">
        <ele>2034</ele>
        <time>2000-01-01T03:17:54.000Z</time>
      </trkpt>
      <trkpt lat="45.98024" lon="6.90428">
        <ele>2037.9</ele>
        <time>2000-01-01T03:18:04.000Z</time>
      </trkpt>
      <trkpt lat="45.98031" lon="6.90426">
        <ele>2018</ele>
        <time>2000-01-01T03:18:14.000Z</time>
      </trkpt>
      <trkpt lat="45.98033" lon="6.90428">
        <ele>2043.6</ele>
        <time>2000-01-01T03:18:24.000Z</time>
      </trkpt>
      <trkpt lat="45.98034" lon="6.90426">
        <ele>2044.1</ele>
        <time>2000-01-01T03:18:34.000Z</time>
      </trkpt>
      <trkpt lat="45.98037" lon="6.90424">
        <ele>2045.8</ele>
        <time>2000-01-01T03:18:44.000Z</time>
      </trkpt>
      <trkpt lat="45.9804" lon="6.90455">
        <ele>2028</ele>
        <time>2000-01-01T03:18:54.000Z</time>
      </trkpt>
      <trkpt lat="45.98045" lon="6.90462">
        <ele>2051.4</ele>
        <time>2000-01-01T03:19:04.000Z</time>
      </trkpt>
      <trkpt lat="45.98047" lon="6.90468">
        <ele>2052.3</ele>
        <time>2000-01-01T03:19:14.000Z</time>
      </trkpt>
      <trkpt lat="45.98052" lon="6.90472">
        <ele>2055</ele>
        <time>2000-01-01T03:19:24.000Z</time>
      </trkpt>
      <trkpt lat="45.98065" lon="6.90475">
        <ele>2038</ele>
        <time>2000-01-01T03:19:34.000Z</time>
      </trkpt>
      <trkpt lat="45.98074" lon="6.90475">
        <ele>2062.4</ele>
        <time>2000-01-01T03:19:44.000Z</time>
      </trkpt>
      <trkpt lat="45.98082" lon="6.90479">
        <ele>2064.5</ele>
        <time>2000-01-01T03:19:54.000Z</time>
      </trkpt>
      <trkpt lat="45.98092" lon="6.90496">
        <ele>2049</ele>
        <time>2000-01-01T03:20:04.000Z</time>
      </trkpt>
      <trkpt lat="45.98099" lon="6.90495">
        <ele>2068.2</ele>
        <time>2000-01-01T03:20:14.000Z</time>
      </trkpt>
      <trkpt lat="45.98102" lon="6.90493">
        <ele>2069.4</ele>
        <time>2000-01-01T03:20:24.000Z</time>
      </trkpt>
      <trkpt lat="45.98107" lon="6.90484">
        <ele>2071.8</ele>
        <time>2000-01-01T03:20:34.000Z</time>
      </trkpt>
      <trkpt lat="45.98111" lon="6.90488">
        <ele>2053</ele>
        <time>2000-01-01T03:20:44.000Z</time>
      </trkpt>
      <trkpt lat="45.9812" lon="6.90493">
        <ele>2076.3</ele>
        <time>2000-01-01T03:20:54.000Z</time>
      </trkpt>
      <trkpt lat="45.98122" lon="6.90498">
        <ele>2077.1</ele>
        <time>2000-01-01T03:21:04.000Z</time>
      </trkpt>
      <trkpt lat="45.98128" lon="6.90503">
        <ele>2058</ele>
        <time>2000-01-01T03:21:14.000Z</time>
      </trkpt>
      <trkpt lat="45.98131" lon="6.9049">
        <ele>2081</ele>
        <time>2000-01-01T03:21:24.000Z</time>
      </trkpt>
      <trkpt lat="45.98136" lon="6.90487">
        <ele>2082.9</ele>
        <time>2000-01-01T03:21:34.000Z</time>
      </trkpt>
      <trkpt lat="45.98141" lon="6.90505">
        <ele>2075</ele>
        <time>2000-01-01T03:21:44.000Z</time>
      </trkpt>
      <trkpt lat="45.9814" lon="6.90517">
        <ele>2086.5</ele>
        <time>2000-01-01T03:21:54.000Z</time>
      </trkpt>
      <trkpt lat="45.98142" lon="6.90518">
        <ele>2088.2</ele>
        <time>2000-01-01T03:22:04.000Z</time>
      </trkpt>
      <trkpt lat="45.98151" lon="6.9051">
        <ele>2075</ele>
        <time>2000-01-01T03:22:14.000Z</time>
      </trkpt>
      <trkpt lat="45.98153" lon="6.90511">
        <ele>2097.1</ele>
        <time>2000-01-01T03:22:24.000Z</time>
      </trkpt>
      <trkpt lat="45.9815" lon="6.90521">
        <ele>2095</ele>
        <time>2000-01-01T03:22:34.000Z</time>
      </trkpt>
      <trkpt lat="45.98156" lon="6.9052">
        <ele>2099.9</ele>
        <time>2000-01-01T03:22:44.000Z</time>
      </trkpt>
      <trkpt lat="45.98157" lon="6.90523">
        <ele>2100.8</ele>
        <time>2000-01-01T03:22:54.000Z</time>
      </trkpt>
      <trkpt lat="45.98154" lon="6.90536">
        <ele>2075</ele>
        <time>2000-01-01T03:23:04.000Z</time>
      </trkpt>
      <trkpt lat="45.98156" lon="6.90538">
        <ele>2099.6</ele>
        <time>2000-01-01T03:23:14.000Z</time>
      </trkpt>
      <trkpt lat="45.98157" lon="6.90535">
        <ele>2100.6</ele>
        <time>2000-01-01T03:23:24.000Z</time>
      </trkpt>
      <trkpt lat="45.98159" lon="6.90535">
        <ele>2102.2</ele>
        <time>2000-01-01T03:23:34.000Z</time>
      </trkpt>
      <trkpt lat="45.98161" lon="6.90546">
        <ele>2102.9</ele>
        <time>2000-01-01T03:23:44.000Z</time>
      </trkpt>
      <trkpt lat="45.98163" lon="6.90545">
        <ele>2104.4</ele>
        <time>2000-01-01T03:23:54.000Z</time>
      </trkpt>
      <trkpt lat="45.98165" lon="6.90554">
        <ele>2096</ele>
        <time>2000-01-01T03:24:04.000Z</time>
      </trkpt>
      <trkpt lat="45.9817" lon="6.90554">
        <ele>2108.2</ele>
        <time>2000-01-01T03:24:14.000Z</time>
      </trkpt>
      <trkpt lat="45.98181" lon="6.90589">
        <ele>2097</ele>
        <time>2000-01-01T03:24:24.000Z</time>
      </trkpt>
      <trkpt lat="45.9819" lon="6.90602">
        <ele>2110.5</ele>
        <time>2000-01-01T03:24:34.000Z</time>
      </trkpt>
      <trkpt lat="45.98195" lon="6.90602">
        <ele>2113.3</ele>
        <time>2000-01-01T03:24:44.000Z</time>
      </trkpt>
      <trkpt lat="45.98203" lon="6.90615">
        <ele>2105</ele>
        <time>2000-01-01T03:24:54.000Z</time>
      </trkpt>
      <trkpt lat="45.98204" lon="6.90609">
        <ele>2118</ele>
        <time>2000-01-01T03:25:04.000Z</time>
      </trkpt>
      <trkpt lat="45.98206" lon="6.90612">
        <ele>2118.7</ele>
        <time>2000-01-01T03:25:14.000Z</time>
      </trkpt>
      <trkpt lat="45.98209" lon="6.90613">
        <ele>2120.6</ele>
        <time>2000-01-01T03:25:24.000Z</time>
      </trkpt>
      <trkpt lat="45.98211" lon="6.90627">
        <ele>2108</ele>
        <time>2000-01-01T03:25:34.000Z</time>
      </trkpt>
      <trkpt lat="45.9822" lon="6.90638">
        <ele>2123.6</ele>
        <time>2000-01-01T03:25:44.000Z</time>
      </trkpt>
      <trkpt lat="45.98224" lon="6.9064">
        <ele>2125.5</ele>
        <time>2000-01-01T03:25:54.000Z</time>
      </trkpt>
      <trkpt lat="45.98229" lon="6.9065">
        <ele>2112</ele>
        <time>2000-01-01T03:26:04.000Z</time>
      </trkpt>
      <trkpt lat="45.98236" lon="6.90657">
        <ele>2126.4</ele>
        <time>2000-01-01T03:26:14.000Z</time>
      </trkpt>
      <trkpt lat="45.98245" lon="6.90655">
        <ele>2130.8</ele>
        <time>2000-01-01T03:26:24.000Z</time>
      </trkpt>
      <trkpt lat="45.9828" lon="6.90638">
        <ele>2138</ele>
        <time>2000-01-01T03:26:34.000Z</time>
      </trkpt>
      <trkpt lat="45.98293" lon="6.90642">
        <ele>2138.3</ele>
        <time>2000-01-01T03:26:44.000Z</time>
      </trkpt>
      <trkpt lat="45.983" lon="6.90642">
        <ele>2138</ele>
        <time>2000-01-01T03:26:54.000Z</time>
      </trkpt>
      <trkpt lat="45.98309" lon="6.9065">
        <ele>2137.6</ele>
        <time>2000-01-01T03:27:04.000Z</time>
      </trkpt>
      <trkpt lat="45.98322" lon="6.90656">
        <ele>2140</ele>
        <time>2000-01-01T03:27:14.000Z</time>
      </trkpt>
      <trkpt lat="45.9833" lon="6.90655">
        <ele>2138.3</ele>
        <time>2000-01-01T03:27:24.000Z</time>
      </trkpt>
      <trkpt lat="45.98339" lon="6.90657">
        <ele>2139.5</ele>
        <time>2000-01-01T03:27:34.000Z</time>
      </trkpt>
      <trkpt lat="45.98345" lon="6.90667">
        <ele>2141</ele>
        <time>2000-01-01T03:27:44.000Z</time>
      </trkpt>
      <trkpt lat="45.98354" lon="6.90672">
        <ele>2137.7</ele>
        <time>2000-01-01T03:27:54.000Z</time>
      </trkpt>
      <trkpt lat="45.98362" lon="6.90682">
        <ele>2142</ele>
        <time>2000-01-01T03:28:04.000Z</time>
      </trkpt>
      <trkpt lat="45.98396" lon="6.90709">
        <ele>2140</ele>
        <time>2000-01-01T03:28:14.000Z</time>
      </trkpt>
      <trkpt lat="45.98419" lon="6.90732">
        <ele>2138</ele>
        <time>2000-01-01T03:28:24.000Z</time>
      </trkpt>
      <trkpt lat="45.98427" lon="6.90745">
        <ele>2131.5</ele>
        <time>2000-01-01T03:28:34.000Z</time>
      </trkpt>
      <trkpt lat="45.98443" lon="6.90747">
        <ele>2136</ele>
        <time>2000-01-01T03:28:44.000Z</time>
      </trkpt>
      <trkpt lat="45.98451" lon="6.90751">
        <ele>2134.2</ele>
        <time>2000-01-01T03:28:54.000Z</time>
      </trkpt>
      <trkpt lat="45.9846" lon="6.90758">
        <ele>2132.9</ele>
        <time>2000-01-01T03:29:04.000Z</time>
      </trkpt>
      <trkpt lat="45.98491" lon="6.90772">
        <ele>2129</ele>
        <time>2000-01-01T03:29:14.000Z</time>
      </trkpt>
      <trkpt lat="45.98502" lon="6.9077">
        <ele>2131.7</ele>
        <time>2000-01-01T03:29:24.000Z</time>
      </trkpt>
      <trkpt lat="45.98508" lon="6.90775">
        <ele>2130.7</ele>
        <time>2000-01-01T03:29:34.000Z</time>
      </trkpt>
      <trkpt lat="45.98516" lon="6.90778">
        <ele>2129</ele>
        <time>2000-01-01T03:29:44.000Z</time>
      </trkpt>
      <trkpt lat="45.98526" lon="6.90776">
        <ele>2132.3</ele>
        <time>2000-01-01T03:29:54.000Z</time>
      </trkpt>
      <trkpt lat="45.98536" lon="6.90795">
        <ele>2123</ele>
        <time>2000-01-01T03:30:04.000Z</time>
      </trkpt>
      <trkpt lat="45.98542" lon="6.90812">
        <ele>2123.3</ele>
        <time>2000-01-01T03:30:14.000Z</time>
      </trkpt>
      <trkpt lat="45.98549" lon="6.90824">
        <ele>2124</ele>
        <time>2000-01-01T03:30:24.000Z</time>
      </trkpt>
      <trkpt lat="45.98561" lon="6.9083">
        <ele>2122.6</ele>
        <time>2000-01-01T03:30:34.000Z</time>
      </trkpt>
      <trkpt lat="45.98567" lon="6.90831">
        <ele>2121</ele>
        <time>2000-01-01T03:30:44.000Z</time>
      </trkpt>
      <trkpt lat="45.98575" lon="6.90848">
        <ele>2118.6</ele>
        <time>2000-01-01T03:30:54.000Z</time>
      </trkpt>
      <trkpt lat="45.98579" lon="6.90852">
        <ele>2120</ele>
        <time>2000-01-01T03:31:04.000Z</time>
      </trkpt>
      <trkpt lat="45.98601" lon="6.90858">
        <ele>2120</ele>
        <time>2000-01-01T03:31:14.000Z</time>
      </trkpt>
      <trkpt lat="45.98608" lon="6.90869">
        <ele>2115.9</ele>
        <time>2000-01-01T03:31:24.000Z</time>
      </trkpt>
      <trkpt lat="45.98611" lon="6.90878">
        <ele>2115.2</ele>
        <time>2000-01-01T03:31:34.000Z</time>
      </trkpt>
      <trkpt lat="45.98611" lon="6.90894">
        <ele>2119</ele>
        <time>2000-01-01T03:31:44.000Z</time>
      </trkpt>
      <trkpt lat="45.98614" lon="6.90902">
        <ele>2110.2</ele>
        <time>2000-01-01T03:31:54.000Z</time>
      </trkpt>
      <trkpt lat="45.98619" lon="6.90908">
        <ele>2108.7</ele>
        <time>2000-01-01T03:32:04.000Z</time>
      </trkpt>
      <trkpt lat="45.98628" lon="6.9091">
        <ele>2119</ele>
        <time>2000-01-01T03:32:14.000Z</time>
      </trkpt>
      <trkpt lat="45.98642" lon="6.90917">
        <ele>2107.4</ele>
        <time>2000-01-01T03:32:24.000Z</time>
      </trkpt>
      <trkpt lat="45.98643" lon="6.90933">
        <ele>2116</ele>
        <time>2000-01-01T03:32:34.000Z</time>
      </trkpt>
      <trkpt lat="45.98646" lon="6.90938">
        <ele>2104.6</ele>
        <time>2000-01-01T03:32:44.000Z</time>
      </trkpt>
      <trkpt lat="45.98648" lon="6.90955">
        <ele>2102.9</ele>
        <time>2000-01-01T03:32:54.000Z</time>
      </trkpt>
      <trkpt lat="45.9868" lon="6.91006">
        <ele>2103</ele>
        <time>2000-01-01T03:33:04.000Z</time>
      </trkpt>
      <trkpt lat="45.98685" lon="6.9101">
        <ele>2096.8</ele>
        <time>2000-01-01T03:33:14.000Z</time>
      </trkpt>
      <trkpt lat="45.98686" lon="6.91019">
        <ele>2094.3</ele>
        <time>2000-01-01T03:33:24.000Z</time>
      </trkpt>
      <trkpt lat="45.98691" lon="6.91024">
        <ele>2094</ele>
        <time>2000-01-01T03:33:34.000Z</time>
      </trkpt>
      <trkpt lat="45.98701" lon="6.91027">
        <ele>2098</ele>
        <time>2000-01-01T03:33:44.000Z</time>
      </trkpt>
      <trkpt lat="45.98705" lon="6.91033">
        <ele>2091.4</ele>
        <time>2000-01-01T03:33:54.000Z</time>
      </trkpt>
      <trkpt lat="45.98712" lon="6.91038">
        <ele>2089.8</ele>
        <time>2000-01-01T03:34:04.000Z</time>
      </trkpt>
      <trkpt lat="45.98726" lon="6.91043">
        <ele>2097</ele>
        <time>2000-01-01T03:34:14.000Z</time>
      </trkpt>
      <trkpt lat="45.98753" lon="6.91075">
        <ele>2090</ele>
        <time>2000-01-01T03:34:24.000Z</time>
      </trkpt>
      <trkpt lat="45.98764" lon="6.91085">
        <ele>2081.5</ele>
        <time>2000-01-01T03:34:34.000Z</time>
      </trkpt>
      <trkpt lat="45.98776" lon="6.91089">
        <ele>2083</ele>
        <time>2000-01-01T03:34:44.000Z</time>
      </trkpt>
      <trkpt lat="45.98786" lon="6.91096">
        <ele>2077.1</ele>
        <time>2000-01-01T03:34:54.000Z</time>
      </trkpt>
      <trkpt lat="45.98802" lon="6.91116">
        <ele>2081</ele>
        <time>2000-01-01T03:35:04.000Z</time>
      </trkpt>
      <trkpt lat="45.98804" lon="6.91123">
        <ele>2074.1</ele>
        <time>2000-01-01T03:35:14.000Z</time>
      </trkpt>
      <trkpt lat="45.98818" lon="6.91132">
        <ele>2078</ele>
        <time>2000-01-01T03:35:24.000Z</time>
      </trkpt>
      <trkpt lat="45.98846" lon="6.91143">
        <ele>2075</ele>
        <time>2000-01-01T03:35:34.000Z</time>
      </trkpt>
      <trkpt lat="45.98865" lon="6.91166">
        <ele>2071</ele>
        <time>2000-01-01T03:35:44.000Z</time>
      </trkpt>
      <trkpt lat="45.98876" lon="6.91172">
        <ele>2066.7</ele>
        <time>2000-01-01T03:35:54.000Z</time>
      </trkpt>
      <trkpt lat="45.98884" lon="6.91181">
        <ele>2068</ele>
        <time>2000-01-01T03:36:04.000Z</time>
      </trkpt>
      <trkpt lat="45.98899" lon="6.91187">
        <ele>2063.9</ele>
        <time>2000-01-01T03:36:14.000Z</time>
      </trkpt>
      <trkpt lat="45.98924" lon="6.91215">
        <ele>2065</ele>
        <time>2000-01-01T03:36:24.000Z</time>
      </trkpt>
      <trkpt lat="45.98934" lon="6.9122">
        <ele>2056.4</ele>
        <time>2000-01-01T03:36:34.000Z</time>
      </trkpt>
      <trkpt lat="45.98937" lon="6.91219">
        <ele>2056.6</ele>
        <time>2000-01-01T03:36:44.000Z</time>
      </trkpt>
      <trkpt lat="45.98939" lon="6.91213">
        <ele>2057.5</ele>
        <time>2000-01-01T03:36:54.000Z</time>
      </trkpt>
      <trkpt lat="45.98938" lon="6.91208">
        <ele>2066</ele>
        <time>2000-01-01T03:37:04.000Z</time>
      </trkpt>
      <trkpt lat="45.98942" lon="6.91201">
        <ele>2059.3</ele>
        <time>2000-01-01T03:37:14.000Z</time>
      </trkpt>
      <trkpt lat="45.98955" lon="6.91205">
        <ele>2062</ele>
        <time>2000-01-01T03:37:24.000Z</time>
      </trkpt>
      <trkpt lat="45.98969" lon="6.91214">
        <ele>2055.8</ele>
        <time>2000-01-01T03:37:34.000Z</time>
      </trkpt>
      <trkpt lat="45.98975" lon="6.91212">
        <ele>2059</ele>
        <time>2000-01-01T03:37:44.000Z</time>
      </trkpt>
      <trkpt lat="45.98985" lon="6.91204">
        <ele>2054.1</ele>
        <time>2000-01-01T03:37:54.000Z</time>
      </trkpt>
      <trkpt lat="45.98992" lon="6.91195">
        <ele>2056</ele>
        <time>2000-01-01T03:38:04.000Z</time>
      </trkpt>
      <trkpt lat="45.98999" lon="6.91178">
        <ele>2056.5</ele>
        <time>2000-01-01T03:38:14.000Z</time>
      </trkpt>
      <trkpt lat="45.99031" lon="6.9115">
        <ele>2054</ele>
        <time>2000-01-01T03:38:24.000Z</time>
      </trkpt>
      <trkpt lat="45.99055" lon="6.91115">
        <ele>2054</ele>
        <time>2000-01-01T03:38:34.000Z</time>
      </trkpt>
      <trkpt lat="45.99063" lon="6.9111">
        <ele>2053.7</ele>
        <time>2000-01-01T03:38:44.000Z</time>
      </trkpt>
      <trkpt lat="45.99084" lon="6.91125">
        <ele>2055</ele>
        <time>2000-01-01T03:38:54.000Z</time>
      </trkpt>
      <trkpt lat="45.99108" lon="6.91134">
        <ele>2055</ele>
        <time>2000-01-01T03:39:04.000Z</time>
      </trkpt>
      <trkpt lat="45.99139" lon="6.91138">
        <ele>2057</ele>
        <time>2000-01-01T03:39:14.000Z</time>
      </trkpt>
      <trkpt lat="45.99159" lon="6.91134">
        <ele>2057</ele>
        <time>2000-01-01T03:39:24.000Z</time>
      </trkpt>
      <trkpt lat="45.99165" lon="6.91136">
        <ele>2058.3</ele>
        <time>2000-01-01T03:39:34.000Z</time>
      </trkpt>
      <trkpt lat="45.9919" lon="6.9117">
        <ele>2059</ele>
        <time>2000-01-01T03:39:44.000Z</time>
      </trkpt>
      <trkpt lat="45.99221" lon="6.91162">
        <ele>2061</ele>
        <time>2000-01-01T03:39:54.000Z</time>
      </trkpt>
      <trkpt lat="45.99245" lon="6.91165">
        <ele>2064</ele>
        <time>2000-01-01T03:40:04.000Z</time>
      </trkpt>
      <trkpt lat="45.99255" lon="6.91156">
        <ele>2065.5</ele>
        <time>2000-01-01T03:40:14.000Z</time>
      </trkpt>
      <trkpt lat="45.99264" lon="6.91155">
        <ele>2065</ele>
        <time>2000-01-01T03:40:24.000Z</time>
      </trkpt>
      <trkpt lat="45.99279" lon="6.91166">
        <ele>2063.3</ele>
        <time>2000-01-01T03:40:34.000Z</time>
      </trkpt>
      <trkpt lat="45.99291" lon="6.9117">
        <ele>2064</ele>
        <time>2000-01-01T03:40:44.000Z</time>
      </trkpt>
      <trkpt lat="45.99302" lon="6.91171">
        <ele>2063.8</ele>
        <time>2000-01-01T03:40:54.000Z</time>
      </trkpt>
      <trkpt lat="45.99322" lon="6.91166">
        <ele>2064</ele>
        <time>2000-01-01T03:41:04.000Z</time>
      </trkpt>
      <trkpt lat="45.99334" lon="6.91174">
        <ele>2062.4</ele>
        <time>2000-01-01T03:41:14.000Z</time>
      </trkpt>
      <trkpt lat="45.99341" lon="6.91183">
        <ele>2064</ele>
        <time>2000-01-01T03:41:24.000Z</time>
      </trkpt>
      <trkpt lat="45.99347" lon="6.91175">
        <ele>2061.5</ele>
        <time>2000-01-01T03:41:34.000Z</time>
      </trkpt>
      <trkpt lat="45.99357" lon="6.9117">
        <ele>2065</ele>
        <time>2000-01-01T03:41:44.000Z</time>
      </trkpt>
      <trkpt lat="45.99365" lon="6.91173">
        <ele>2060.8</ele>
        <time>2000-01-01T03:41:54.000Z</time>
      </trkpt>
      <trkpt lat="45.99387" lon="6.91175">
        <ele>2066</ele>
        <time>2000-01-01T03:42:04.000Z</time>
      </trkpt>
      <trkpt lat="45.99401" lon="6.91166">
        <ele>2059.8</ele>
        <time>2000-01-01T03:42:14.000Z</time>
      </trkpt>
      <trkpt lat="45.99408" lon="6.91166">
        <ele>2066</ele>
        <time>2000-01-01T03:42:24.000Z</time>
      </trkpt>
      <trkpt lat="45.9943" lon="6.91186">
        <ele>2061</ele>
        <time>2000-01-01T03:42:34.000Z</time>
      </trkpt>
      <trkpt lat="45.99458" lon="6.91212">
        <ele>2056</ele>
        <time>2000-01-01T03:42:44.000Z</time>
      </trkpt>
      <trkpt lat="45.9948" lon="6.91224">
        <ele>2047</ele>
        <time>2000-01-01T03:42:54.000Z</time>
      </trkpt>
      <trkpt lat="45.99487" lon="6.91244">
        <ele>2041.8</ele>
        <time>2000-01-01T03:43:04.000Z</time>
      </trkpt>
      <trkpt lat="45.9949" lon="6.91247">
        <ele>2042</ele>
        <time>2000-01-01T03:43:14.000Z</time>
      </trkpt>
      <trkpt lat="45.99496" lon="6.91243">
        <ele>2038.7</ele>
        <time>2000-01-01T03:43:24.000Z</time>
      </trkpt>
      <trkpt lat="45.99506" lon="6.91256">
        <ele>2038</ele>
        <time>2000-01-01T03:43:34.000Z</time>
      </trkpt>
      <trkpt lat="45.99511" lon="6.91255">
        <ele>2034.8</ele>
        <time>2000-01-01T03:43:44.000Z</time>
      </trkpt>
      <trkpt lat="45.99517" lon="6.91251">
        <ele>2032.8</ele>
        <time>2000-01-01T03:43:54.000Z</time>
      </trkpt>
      <trkpt lat="45.99526" lon="6.91251">
        <ele>2034</ele>
        <time>2000-01-01T03:44:04.000Z</time>
      </trkpt>
      <trkpt lat="45.9955" lon="6.91261">
        <ele>2034</ele>
        <time>2000-01-01T03:44:14.000Z</time>
      </trkpt>
      <trkpt lat="45.99559" lon="6.91266">
        <ele>2024.4</ele>
        <time>2000-01-01T03:44:24.000Z</time>
      </trkpt>
      <trkpt lat="45.99564" lon="6.91273">
        <ele>2023.7</ele>
        <time>2000-01-01T03:44:34.000Z</time>
      </trkpt>
      <trkpt lat="45.99582" lon="6.91281">
        <ele>2024</ele>
        <time>2000-01-01T03:44:44.000Z</time>
      </trkpt>
      <trkpt lat="45.99593" lon="6.9129">
        <ele>2018.8</ele>
        <time>2000-01-01T03:44:54.000Z</time>
      </trkpt>
      <trkpt lat="45.99606" lon="6.91294">
        <ele>2022</ele>
        <time>2000-01-01T03:45:04.000Z</time>
      </trkpt>
      <trkpt lat="45.99614" lon="6.91304">
        <ele>2017.8</ele>
        <time>2000-01-01T03:45:14.000Z</time>
      </trkpt>
      <trkpt lat="45.99621" lon="6.91303">
        <ele>2017.6</ele>
        <time>2000-01-01T03:45:24.000Z</time>
      </trkpt>
      <trkpt lat="45.99631" lon="6.91312">
        <ele>2022</ele>
        <time>2000-01-01T03:45:34.000Z</time>
      </trkpt>
      <trkpt lat="45.99638" lon="6.91313">
        <ele>2017</ele>
        <time>2000-01-01T03:45:44.000Z</time>
      </trkpt>
      <trkpt lat="45.99658" lon="6.91322">
        <ele>2022</ele>
        <time>2000-01-01T03:45:54.000Z</time>
      </trkpt>
      <trkpt lat="45.99678" lon="6.91316">
        <ele>2020</ele>
        <time>2000-01-01T03:46:04.000Z</time>
      </trkpt>
      <trkpt lat="45.99701" lon="6.91336">
        <ele>2012</ele>
        <time>2000-01-01T03:46:14.000Z</time>
      </trkpt>
      <trkpt lat="45.99712" lon="6.9136">
        <ele>2002</ele>
        <time>2000-01-01T03:46:24.000Z</time>
      </trkpt>
      <trkpt lat="45.99755" lon="6.91384">
        <ele>1989</ele>
        <time>2000-01-01T03:46:34.000Z</time>
      </trkpt>
      <trkpt lat="45.99765" lon="6.91374">
        <ele>1987.3</ele>
        <time>2000-01-01T03:46:44.000Z</time>
      </trkpt>
      <trkpt lat="45.99792" lon="6.91389">
        <ele>1986</ele>
        <time>2000-01-01T03:46:54.000Z</time>
      </trkpt>
      <trkpt lat="45.99802" lon="6.91386">
        <ele>1977.7</ele>
        <time>2000-01-01T03:47:04.000Z</time>
      </trkpt>
      <trkpt lat="45.998" lon="6.91407">
        <ele>1986</ele>
        <time>2000-01-01T03:47:14.000Z</time>
      </trkpt>
      <trkpt lat="45.99811" lon="6.91426">
        <ele>1963.7</ele>
        <time>2000-01-01T03:47:24.000Z</time>
      </trkpt>
      <trkpt lat="45.99822" lon="6.91429">
        <ele>1973</ele>
        <time>2000-01-01T03:47:34.000Z</time>
      </trkpt>
      <trkpt lat="45.99825" lon="6.91452">
        <ele>1950.9</ele>
        <time>2000-01-01T03:47:44.000Z</time>
      </trkpt>
      <trkpt lat="45.99843" lon="6.91459">
        <ele>1957</ele>
        <time>2000-01-01T03:47:54.000Z</time>
      </trkpt>
      <trkpt lat="45.99867" lon="6.91451">
        <ele>1957</ele>
        <time>2000-01-01T03:48:04.000Z</time>
      </trkpt>
      <trkpt lat="45.99878" lon="6.91461">
        <ele>1935.2</ele>
        <time>2000-01-01T03:48:14.000Z</time>
      </trkpt>
      <trkpt lat="45.9988" lon="6.91482">
        <ele>1948</ele>
        <time>2000-01-01T03:48:24.000Z</time>
      </trkpt>
      <trkpt lat="45.99886" lon="6.91488">
        <ele>1920.4</ele>
        <time>2000-01-01T03:48:34.000Z</time>
      </trkpt>
      <trkpt lat="45.99919" lon="6.91499">
        <ele>1919</ele>
        <time>2000-01-01T03:48:44.000Z</time>
      </trkpt>
      <trkpt lat="45.99929" lon="6.91512">
        <ele>1905</ele>
        <time>2000-01-01T03:48:54.000Z</time>
      </trkpt>
      <trkpt lat="45.99943" lon="6.91514">
        <ele>1921</ele>
        <time>2000-01-01T03:49:04.000Z</time>
      </trkpt>
      <trkpt lat="45.99956" lon="6.91505">
        <ele>1904.2</ele>
        <time>2000-01-01T03:49:14.000Z</time>
      </trkpt>
      <trkpt lat="45.99972" lon="6.91515">
        <ele>1923</ele>
        <time>2000-01-01T03:49:24.000Z</time>
      </trkpt>
      <trkpt lat="46.00001" lon="6.91505">
        <ele>1923</ele>
        <time>2000-01-01T03:49:34.000Z</time>
      </trkpt>
      <trkpt lat="46.00026" lon="6.91516">
        <ele>1903</ele>
        <time>2000-01-01T03:49:44.000Z</time>
      </trkpt>
      <trkpt lat="46.00051" lon="6.91554">
        <ele>1883</ele>
        <time>2000-01-01T03:49:54.000Z</time>
      </trkpt>
      <trkpt lat="46.00071" lon="6.91552">
        <ele>1883</ele>
        <time>2000-01-01T03:50:04.000Z</time>
      </trkpt>
      <trkpt lat="46.00072" lon="6.91557">
        <ele>1861.1</ele>
        <time>2000-01-01T03:50:14.000Z</time>
      </trkpt>
      <trkpt lat="46.00066" lon="6.91566">
        <ele>1856.4</ele>
        <time>2000-01-01T03:50:24.000Z</time>
      </trkpt>
      <trkpt lat="46.00062" lon="6.91566">
        <ele>1857.1</ele>
        <time>2000-01-01T03:50:34.000Z</time>
      </trkpt>
      <trkpt lat="46.00059" lon="6.91569">
        <ele>1883</ele>
        <time>2000-01-01T03:50:44.000Z</time>
      </trkpt>
      <trkpt lat="46.00065" lon="6.91579">
        <ele>1848.1</ele>
        <time>2000-01-01T03:50:54.000Z</time>
      </trkpt>
      <trkpt lat="46.0008" lon="6.91583">
        <ele>1858</ele>
        <time>2000-01-01T03:51:04.000Z</time>
      </trkpt>
      <trkpt lat="46.00089" lon="6.91578">
        <ele>1843.4</ele>
        <time>2000-01-01T03:51:14.000Z</time>
      </trkpt>
      <trkpt lat="46.00091" lon="6.91585">
        <ele>1838.1</ele>
        <time>2000-01-01T03:51:24.000Z</time>
      </trkpt>
      <trkpt lat="46.00075" lon="6.91603">
        <ele>1853</ele>
        <time>2000-01-01T03:51:34.000Z</time>
      </trkpt>
      <trkpt lat="46.00055" lon="6.91603">
        <ele>1866</ele>
        <time>2000-01-01T03:51:44.000Z</time>
      </trkpt>
      <trkpt lat="46.00033" lon="6.916">
        <ele>1860</ele>
        <time>2000-01-01T03:51:54.000Z</time>
      </trkpt>
      <trkpt lat="46.00004" lon="6.91612">
        <ele>1854</ele>
        <time>2000-01-01T03:52:04.000Z</time>
      </trkpt>
      <trkpt lat="45.99997" lon="6.91613">
        <ele>1830</ele>
        <time>2000-01-01T03:52:14.000Z</time>
      </trkpt>
      <trkpt lat="46.00001" lon="6.91619">
        <ele>1826.7</ele>
        <time>2000-01-01T03:52:24.000Z</time>
      </trkpt>
      <trkpt lat="46.00015" lon="6.91626">
        <ele>1854</ele>
        <time>2000-01-01T03:52:34.000Z</time>
      </trkpt>
      <trkpt lat="46.00016" lon="6.9163">
        <ele>1820.8</ele>
        <time>2000-01-01T03:52:44.000Z</time>
      </trkpt>
      <trkpt lat="46.00013" lon="6.91634">
        <ele>1818.6</ele>
        <time>2000-01-01T03:52:54.000Z</time>
      </trkpt>
      <trkpt lat="45.99994" lon="6.91636">
        <ele>1830</ele>
        <time>2000-01-01T03:53:04.000Z</time>
      </trkpt>
      <trkpt lat="45.99985" lon="6.91645">
        <ele>1812.1</ele>
        <time>2000-01-01T03:53:14.000Z</time>
      </trkpt>
      <trkpt lat="45.99959" lon="6.91656">
        <ele>1830</ele>
        <time>2000-01-01T03:53:24.000Z</time>
      </trkpt>
      <trkpt lat="45.99956" lon="6.91663">
        <ele>1804.9</ele>
        <time>2000-01-01T03:53:34.000Z</time>
      </trkpt>
      <trkpt lat="45.99958" lon="6.9167">
        <ele>1800.6</ele>
        <time>2000-01-01T03:53:44.000Z</time>
      </trkpt>
      <trkpt lat="45.99966" lon="6.91677">
        <ele>1791</ele>
        <time>2000-01-01T03:53:54.000Z</time>
      </trkpt>
      <trkpt lat="45.99965" lon="6.91679">
        <ele>1794.2</ele>
        <time>2000-01-01T03:54:04.000Z</time>
      </trkpt>
      <trkpt lat="45.99954" lon="6.91682">
        <ele>1794.4</ele>
        <time>2000-01-01T03:54:14.000Z</time>
      </trkpt>
      <trkpt lat="45.99955" lon="6.91687">
        <ele>1791.4</ele>
        <time>2000-01-01T03:54:24.000Z</time>
      </trkpt>
      <trkpt lat="45.99968" lon="6.91691">
        <ele>1778</ele>
        <time>2000-01-01T03:54:34.000Z</time>
      </trkpt>
      <trkpt lat="45.99968" lon="6.91694">
        <ele>1785</ele>
        <time>2000-01-01T03:54:44.000Z</time>
      </trkpt>
      <trkpt lat="45.99962" lon="6.91701">
        <ele>1781.9</ele>
        <time>2000-01-01T03:54:54.000Z</time>
      </trkpt>
      <trkpt lat="45.99969" lon="6.9171">
        <ele>1778</ele>
        <time>2000-01-01T03:55:04.000Z</time>
      </trkpt>
      <trkpt lat="45.99982" lon="6.91716">
        <ele>1769.9</ele>
        <time>2000-01-01T03:55:14.000Z</time>
      </trkpt>
      <trkpt lat="45.99994" lon="6.91714">
        <ele>1761</ele>
        <time>2000-01-01T03:55:24.000Z</time>
      </trkpt>
      <trkpt lat="46.00004" lon="6.91728">
        <ele>1759</ele>
        <time>2000-01-01T03:55:34.000Z</time>
      </trkpt>
      <trkpt lat="46.00003" lon="6.91743">
        <ele>1746</ele>
        <time>2000-01-01T03:55:44.000Z</time>
      </trkpt>
      <trkpt lat="46.00016" lon="6.91742">
        <ele>1748.5</ele>
        <time>2000-01-01T03:55:54.000Z</time>
      </trkpt>
      <trkpt lat="46.00036" lon="6.91744">
        <ele>1745</ele>
        <time>2000-01-01T03:56:04.000Z</time>
      </trkpt>
      <trkpt lat="46.00044" lon="6.91752">
        <ele>1738.8</ele>
        <time>2000-01-01T03:56:14.000Z</time>
      </trkpt>
      <trkpt lat="46.00062" lon="6.91759">
        <ele>1739</ele>
        <time>2000-01-01T03:56:24.000Z</time>
      </trkpt>
      <trkpt lat="46.00056" lon="6.91761">
        <ele>1733.4</ele>
        <time>2000-01-01T03:56:34.000Z</time>
      </trkpt>
      <trkpt lat="46.00047" lon="6.9177">
        <ele>1729.5</ele>
        <time>2000-01-01T03:56:44.000Z</time>
      </trkpt>
      <trkpt lat="46.00037" lon="6.91775">
        <ele>1730</ele>
        <time>2000-01-01T03:56:54.000Z</time>
      </trkpt>
      <trkpt lat="46.00038" lon="6.91786">
        <ele>1722.4</ele>
        <time>2000-01-01T03:57:04.000Z</time>
      </trkpt>
      <trkpt lat="46.00058" lon="6.91783">
        <ele>1722</ele>
        <time>2000-01-01T03:57:14.000Z</time>
      </trkpt>
      <trkpt lat="46.00067" lon="6.91787">
        <ele>1721.3</ele>
        <time>2000-01-01T03:57:24.000Z</time>
      </trkpt>
      <trkpt lat="46.00075" lon="6.91811">
        <ele>1713</ele>
        <time>2000-01-01T03:57:34.000Z</time>
      </trkpt>
      <trkpt lat="46.00084" lon="6.91803">
        <ele>1714.7</ele>
        <time>2000-01-01T03:57:44.000Z</time>
      </trkpt>
      <trkpt lat="46.0011" lon="6.91796">
        <ele>1705</ele>
        <time>2000-01-01T03:57:54.000Z</time>
      </trkpt>
      <trkpt lat="46.00116" lon="6.91792">
        <ele>1712</ele>
        <time>2000-01-01T03:58:04.000Z</time>
      </trkpt>
      <trkpt lat="46.00112" lon="6.91801">
        <ele>1708.1</ele>
        <time>2000-01-01T03:58:14.000Z</time>
      </trkpt>
      <trkpt lat="46.0011" lon="6.9183">
        <ele>1681</ele>
        <time>2000-01-01T03:58:24.000Z</time>
      </trkpt>
      <trkpt lat="46.00122" lon="6.91821">
        <ele>1695.5</ele>
        <time>2000-01-01T03:58:34.000Z</time>
      </trkpt>
      <trkpt lat="46.00119" lon="6.9183">
        <ele>1681</ele>
        <time>2000-01-01T03:58:44.000Z</time>
      </trkpt>
      <trkpt lat="46.00121" lon="6.91831">
        <ele>1690.4</ele>
        <time>2000-01-01T03:58:54.000Z</time>
      </trkpt>
      <trkpt lat="46.00123" lon="6.91828">
        <ele>1691.3</ele>
        <time>2000-01-01T03:59:04.000Z</time>
      </trkpt>
      <trkpt lat="46.00127" lon="6.91827">
        <ele>1690.5</ele>
        <time>2000-01-01T03:59:14.000Z</time>
      </trkpt>
      <trkpt lat="46.0013" lon="6.9183">
        <ele>1687.6</ele>
        <time>2000-01-01T03:59:24.000Z</time>
      </trkpt>
      <trkpt lat="46.0013" lon="6.9184">
        <ele>1681</ele>
        <time>2000-01-01T03:59:34.000Z</time>
      </trkpt>
      <trkpt lat="46.00139" lon="6.91837">
        <ele>1679.7</ele>
        <time>2000-01-01T03:59:44.000Z</time>
      </trkpt>
      <trkpt lat="46.00146" lon="6.91847">
        <ele>1676</ele>
        <time>2000-01-01T03:59:54.000Z</time>
      </trkpt>
      <trkpt lat="46.00155" lon="6.91844">
        <ele>1668.4</ele>
        <time>2000-01-01T04:00:04.000Z</time>
      </trkpt>
      <trkpt lat="46.00164" lon="6.91848">
        <ele>1662.2</ele>
        <time>2000-01-01T04:00:14.000Z</time>
      </trkpt>
      <trkpt lat="46.0019" lon="6.9184">
        <ele>1675</ele>
        <time>2000-01-01T04:00:24.000Z</time>
      </trkpt>
      <trkpt lat="46.00191" lon="6.91842">
        <ele>1651.2</ele>
        <time>2000-01-01T04:00:34.000Z</time>
      </trkpt>
      <trkpt lat="46.00186" lon="6.91849">
        <ele>1650.1</ele>
        <time>2000-01-01T04:00:44.000Z</time>
      </trkpt>
      <trkpt lat="46.00192" lon="6.91854">
        <ele>1644.2</ele>
        <time>2000-01-01T04:00:54.000Z</time>
      </trkpt>
      <trkpt lat="46.00188" lon="6.91858">
        <ele>1658</ele>
        <time>2000-01-01T04:01:04.000Z</time>
      </trkpt>
      <trkpt lat="46.00186" lon="6.91863">
        <ele>1642.3</ele>
        <time>2000-01-01T04:01:14.000Z</time>
      </trkpt>
      <trkpt lat="46.00192" lon="6.91865">
        <ele>1637.6</ele>
        <time>2000-01-01T04:01:24.000Z</time>
      </trkpt>
      <trkpt lat="46.00188" lon="6.91869">
        <ele>1637</ele>
        <time>2000-01-01T04:01:34.000Z</time>
      </trkpt>
      <trkpt lat="46.00189" lon="6.91871">
        <ele>1635</ele>
        <time>2000-01-01T04:01:44.000Z</time>
      </trkpt>
      <trkpt lat="46.00197" lon="6.91872">
        <ele>1649</ele>
        <time>2000-01-01T04:01:54.000Z</time>
      </trkpt>
      <trkpt lat="46.00196" lon="6.91875">
        <ele>1629</ele>
        <time>2000-01-01T04:02:04.000Z</time>
      </trkpt>
      <trkpt lat="46.00187" lon="6.91877">
        <ele>1632</ele>
        <time>2000-01-01T04:02:14.000Z</time>
      </trkpt>
      <trkpt lat="46.00185" lon="6.9188">
        <ele>1631.2</ele>
        <time>2000-01-01T04:02:24.000Z</time>
      </trkpt>
      <trkpt lat="46.00186" lon="6.91884">
        <ele>1627.8</ele>
        <time>2000-01-01T04:02:34.000Z</time>
      </trkpt>
      <trkpt lat="46.00208" lon="6.91886">
        <ele>1641</ele>
        <time>2000-01-01T04:02:44.000Z</time>
      </trkpt>
      <trkpt lat="46.00208" lon="6.91889">
        <ele>1618</ele>
        <time>2000-01-01T04:02:54.000Z</time>
      </trkpt>
      <trkpt lat="46.00203" lon="6.91896">
        <ele>1614.1</ele>
        <time>2000-01-01T04:03:04.000Z</time>
      </trkpt>
      <trkpt lat="46.00187" lon="6.91904">
        <ele>1633</ele>
        <time>2000-01-01T04:03:14.000Z</time>
      </trkpt>
      <trkpt lat="46.00182" lon="6.9191">
        <ele>1613.3</ele>
        <time>2000-01-01T04:03:24.000Z</time>
      </trkpt>
      <trkpt lat="46.00181" lon="6.91914">
        <ele>1611.1</ele>
        <time>2000-01-01T04:03:34.000Z</time>
      </trkpt>
      <trkpt lat="46.00186" lon="6.91918">
        <ele>1606.6</ele>
        <time>2000-01-01T04:03:44.000Z</time>
      </trkpt>
      <trkpt lat="46.00206" lon="6.91921">
        <ele>1603</ele>
        <time>2000-01-01T04:03:54.000Z</time>
      </trkpt>
      <trkpt lat="46.00212" lon="6.91924">
        <ele>1595.5</ele>
        <time>2000-01-01T04:04:04.000Z</time>
      </trkpt>
      <trkpt lat="46.00214" lon="6.91929">
        <ele>1592.2</ele>
        <time>2000-01-01T04:04:14.000Z</time>
      </trkpt>
      <trkpt lat="46.00211" lon="6.91937">
        <ele>1588.7</ele>
        <time>2000-01-01T04:04:24.000Z</time>
      </trkpt>
      <trkpt lat="46.00203" lon="6.91944">
        <ele>1592</ele>
        <time>2000-01-01T04:04:34.000Z</time>
      </trkpt>
      <trkpt lat="46.00195" lon="6.91958">
        <ele>1582.5</ele>
        <time>2000-01-01T04:04:44.000Z</time>
      </trkpt>
      <trkpt lat="46.00175" lon="6.91974">
        <ele>1585</ele>
        <time>2000-01-01T04:04:54.000Z</time>
      </trkpt>
      <trkpt lat="46.00175" lon="6.91978">
        <ele>1573.1</ele>
        <time>2000-01-01T04:05:04.000Z</time>
      </trkpt>
      <trkpt lat="46.00178" lon="6.9198">
        <ele>1571.8</ele>
        <time>2000-01-01T04:05:14.000Z</time>
      </trkpt>
      <trkpt lat="46.00191" lon="6.91982">
        <ele>1580</ele>
        <time>2000-01-01T04:05:24.000Z</time>
      </trkpt>
      <trkpt lat="46.00195" lon="6.91986">
        <ele>1567.9</ele>
        <time>2000-01-01T04:05:34.000Z</time>
      </trkpt>
      <trkpt lat="46.00195" lon="6.9199">
        <ele>1565.9</ele>
        <time>2000-01-01T04:05:44.000Z</time>
      </trkpt>
      <trkpt lat="46.00191" lon="6.91993">
        <ele>1564.5</ele>
        <time>2000-01-01T04:05:54.000Z</time>
      </trkpt>
      <trkpt lat="46.00176" lon="6.91994">
        <ele>1571</ele>
        <time>2000-01-01T04:06:04.000Z</time>
      </trkpt>
      <trkpt lat="46.00174" lon="6.91998">
        <ele>1561.4</ele>
        <time>2000-01-01T04:06:14.000Z</time>
      </trkpt>
      <trkpt lat="46.00186" lon="6.92006">
        <ele>1557.6</ele>
        <time>2000-01-01T04:06:24.000Z</time>
      </trkpt>
      <trkpt lat="46.00202" lon="6.92013">
        <ele>1568</ele>
        <time>2000-01-01T04:06:34.000Z</time>
      </trkpt>
      <trkpt lat="46.00202" lon="6.92017">
        <ele>1551.2</ele>
        <time>2000-01-01T04:06:44.000Z</time>
      </trkpt>
      <trkpt lat="46.00192" lon="6.92025">
        <ele>1548.2</ele>
        <time>2000-01-01T04:06:54.000Z</time>
      </trkpt>
      <trkpt lat="46.0018" lon="6.92025">
        <ele>1554</ele>
        <time>2000-01-01T04:07:04.000Z</time>
      </trkpt>
      <trkpt lat="46.0018" lon="6.92033">
        <ele>1543.2</ele>
        <time>2000-01-01T04:07:14.000Z</time>
      </trkpt>
      <trkpt lat="46.00193" lon="6.92042">
        <ele>1554</ele>
        <time>2000-01-01T04:07:24.000Z</time>
      </trkpt>
      <trkpt lat="46.00207" lon="6.92042">
        <ele>1538.3</ele>
        <time>2000-01-01T04:07:34.000Z</time>
      </trkpt>
      <trkpt lat="46.00205" lon="6.92047">
        <ele>1536.1</ele>
        <time>2000-01-01T04:07:44.000Z</time>
      </trkpt>
      <trkpt lat="46.00196" lon="6.92055">
        <ele>1548</ele>
        <time>2000-01-01T04:07:54.000Z</time>
      </trkpt>
      <trkpt lat="46.0017" lon="6.92065">
        <ele>1543</ele>
        <time>2000-01-01T04:08:04.000Z</time>
      </trkpt>
      <trkpt lat="46.00176" lon="6.92072">
        <ele>1523.7</ele>
        <time>2000-01-01T04:08:14.000Z</time>
      </trkpt>
      <trkpt lat="46.00184" lon="6.92078">
        <ele>1521.7</ele>
        <time>2000-01-01T04:08:24.000Z</time>
      </trkpt>
      <trkpt lat="46.0018" lon="6.92085">
        <ele>1531</ele>
        <time>2000-01-01T04:08:34.000Z</time>
      </trkpt>
      <trkpt lat="46.00182" lon="6.92092">
        <ele>1515</ele>
        <time>2000-01-01T04:08:44.000Z</time>
      </trkpt>
      <trkpt lat="46.00189" lon="6.92097">
        <ele>1513.2</ele>
        <time>2000-01-01T04:08:54.000Z</time>
      </trkpt>
      <trkpt lat="46.0022" lon="6.92105">
        <ele>1511</ele>
        <time>2000-01-01T04:09:04.000Z</time>
      </trkpt>
      <trkpt lat="46.0026" lon="6.92127">
        <ele>1498</ele>
        <time>2000-01-01T04:09:14.000Z</time>
      </trkpt>
      <trkpt lat="46.00283" lon="6.92132">
        <ele>1483</ele>
        <time>2000-01-01T04:09:24.000Z</time>
      </trkpt>
      <trkpt lat="46.00285" lon="6.92148">
        <ele>1481.4</ele>
        <time>2000-01-01T04:09:34.000Z</time>
      </trkpt>
      <trkpt lat="46.00293" lon="6.92154">
        <ele>1483</ele>
        <time>2000-01-01T04:09:44.000Z</time>
      </trkpt>
      <trkpt lat="46.00291" lon="6.92172">
        <ele>1474.2</ele>
        <time>2000-01-01T04:09:54.000Z</time>
      </trkpt>
      <trkpt lat="46.00296" lon="6.92179">
        <ele>1476</ele>
        <time>2000-01-01T04:10:04.000Z</time>
      </trkpt>
      <trkpt lat="46.00306" lon="6.92176">
        <ele>1472.9</ele>
        <time>2000-01-01T04:10:14.000Z</time>
      </trkpt>
      <trkpt lat="46.00315" lon="6.92185">
        <ele>1472</ele>
        <time>2000-01-01T04:10:24.000Z</time>
      </trkpt>
      <trkpt lat="46.00329" lon="6.92186">
        <ele>1469.5</ele>
        <time>2000-01-01T04:10:34.000Z</time>
      </trkpt>
      <trkpt lat="46.00351" lon="6.92202">
        <ele>1465</ele>
        <time>2000-01-01T04:10:44.000Z</time>
      </trkpt>
      <trkpt lat="46.00361" lon="6.92226">
        <ele>1461</ele>
        <time>2000-01-01T04:10:54.000Z</time>
      </trkpt>
      <trkpt lat="46.0037" lon="6.92254">
        <ele>1456</ele>
        <time>2000-01-01T04:11:04.000Z</time>
      </trkpt>
      <trkpt lat="46.00367" lon="6.9228">
        <ele>1459.1</ele>
        <time>2000-01-01T04:11:14.000Z</time>
      </trkpt>
      <trkpt lat="46.00368" lon="6.92293">
        <ele>1454</ele>
        <time>2000-01-01T04:11:24.000Z</time>
      </trkpt>
      <trkpt lat="46.00371" lon="6.923">
        <ele>1458.3</ele>
        <time>2000-01-01T04:11:34.000Z</time>
      </trkpt>
      <trkpt lat="46.00377" lon="6.92317">
        <ele>1454</ele>
        <time>2000-01-01T04:11:44.000Z</time>
      </trkpt>
      <trkpt lat="46.00384" lon="6.92331">
        <ele>1458</ele>
        <time>2000-01-01T04:11:54.000Z</time>
      </trkpt>
      <trkpt lat="46.00394" lon="6.92335">
        <ele>1456</ele>
        <time>2000-01-01T04:12:04.000Z</time>
      </trkpt>
      <trkpt lat="46.00403" lon="6.92323">
        <ele>1458.2</ele>
        <time>2000-01-01T04:12:14.000Z</time>
      </trkpt>
      <trkpt lat="46.00416" lon="6.9231">
        <ele>1459</ele>
        <time>2000-01-01T04:12:24.000Z</time>
      </trkpt>
      <trkpt lat="46.00442" lon="6.92303">
        <ele>1459</ele>
        <time>2000-01-01T04:12:34.000Z</time>
      </trkpt>
      <trkpt lat="46.00448" lon="6.92303">
        <ele>1462.4</ele>
        <time>2000-01-01T04:12:44.000Z</time>
      </trkpt>
      <trkpt lat="46.00453" lon="6.92298">
        <ele>1463.3</ele>
        <time>2000-01-01T04:12:54.000Z</time>
      </trkpt>
      <trkpt lat="46.00466" lon="6.92306">
        <ele>1452</ele>
        <time>2000-01-01T04:13:04.000Z</time>
      </trkpt>
      <trkpt lat="46.00471" lon="6.92304">
        <ele>1462.2</ele>
        <time>2000-01-01T04:13:14.000Z</time>
      </trkpt>
      <trkpt lat="46.00478" lon="6.92308">
        <ele>1461</ele>
        <time>2000-01-01T04:13:24.000Z</time>
      </trkpt>
      <trkpt lat="46.00484" lon="6.92305">
        <ele>1452</ele>
        <time>2000-01-01T04:13:34.000Z</time>
      </trkpt>
      <trkpt lat="46.00492" lon="6.92297">
        <ele>1461.1</ele>
        <time>2000-01-01T04:13:44.000Z</time>
      </trkpt>
      <trkpt lat="46.005" lon="6.92293">
        <ele>1460.8</ele>
        <time>2000-01-01T04:13:54.000Z</time>
      </trkpt>
      <trkpt lat="46.00511" lon="6.92289">
        <ele>1454</ele>
        <time>2000-01-01T04:14:04.000Z</time>
      </trkpt>
      <trkpt lat="46.00544" lon="6.92282">
        <ele>1451</ele>
        <time>2000-01-01T04:14:14.000Z</time>
      </trkpt>
      <trkpt lat="46.00549" lon="6.92273">
        <ele>1456.8</ele>
        <time>2000-01-01T04:14:24.000Z</time>
      </trkpt>
      <trkpt lat="46.00556" lon="6.92268">
        <ele>1456.7</ele>
        <time>2000-01-01T04:14:34.000Z</time>
      </trkpt>
      <trkpt lat="46.00566" lon="6.92271">
        <ele>1451</ele>
        <time>2000-01-01T04:14:44.000Z</time>
      </trkpt>
      <trkpt lat="46.00576" lon="6.92265">
        <ele>1454.8</ele>
        <time>2000-01-01T04:14:54.000Z</time>
      </trkpt>
      <trkpt lat="46.00586" lon="6.92268">
        <ele>1448</ele>
        <time>2000-01-01T04:15:04.000Z</time>
      </trkpt>
      <trkpt lat="46.00593" lon="6.92263">
        <ele>1452.9</ele>
        <time>2000-01-01T04:15:14.000Z</time>
      </trkpt>
      <trkpt lat="46.00604" lon="6.92271">
        <ele>1449</ele>
        <time>2000-01-01T04:15:24.000Z</time>
      </trkpt>
      <trkpt lat="46.00614" lon="6.92266">
        <ele>1449.9</ele>
        <time>2000-01-01T04:15:34.000Z</time>
      </trkpt>
      <trkpt lat="46.00629" lon="6.92252">
        <ele>1447</ele>
        <time>2000-01-01T04:15:44.000Z</time>
      </trkpt>
      <trkpt lat="46.00644" lon="6.9226">
        <ele>1446</ele>
        <time>2000-01-01T04:15:54.000Z</time>
      </trkpt>
      <trkpt lat="46.00667" lon="6.9227">
        <ele>1445</ele>
        <time>2000-01-01T04:16:04.000Z</time>
      </trkpt>
      <trkpt lat="46.00687" lon="6.92267">
        <ele>1445</ele>
        <time>2000-01-01T04:16:14.000Z</time>
      </trkpt>
      <trkpt lat="46.00705" lon="6.9228">
        <ele>1442</ele>
        <time>2000-01-01T04:16:24.000Z</time>
      </trkpt>
      <trkpt lat="46.00709" lon="6.9227">
        <ele>1435.7</ele>
        <time>2000-01-01T04:16:34.000Z</time>
      </trkpt>
      <trkpt lat="46.00746" lon="6.9225">
        <ele>1440</ele>
        <time>2000-01-01T04:16:44.000Z</time>
      </trkpt>
      <trkpt lat="46.00768" lon="6.92246">
        <ele>1440</ele>
        <time>2000-01-01T04:16:54.000Z</time>
      </trkpt>
      <trkpt lat="46.00798" lon="6.9225">
        <ele>1435</ele>
        <time>2000-01-01T04:17:04.000Z</time>
      </trkpt>
      <trkpt lat="46.00809" lon="6.92255">
        <ele>1433.6</ele>
        <time>2000-01-01T04:17:14.000Z</time>
      </trkpt>
      <trkpt lat="46.00825" lon="6.92272">
        <ele>1434</ele>
        <time>2000-01-01T04:17:24.000Z</time>
      </trkpt>
      <trkpt lat="46.00858" lon="6.92296">
        <ele>1434</ele>
        <time>2000-01-01T04:17:34.000Z</time>
      </trkpt>
      <trkpt lat="46.00897" lon="6.92319">
        <ele>1433</ele>
        <time>2000-01-01T04:17:44.000Z</time>
      </trkpt>
      <trkpt lat="46.00915" lon="6.92317">
        <ele>1425.3</ele>
        <time>2000-01-01T04:17:54.000Z</time>
      </trkpt>
      <trkpt lat="46.00945" lon="6.9231">
        <ele>1432</ele>
        <time>2000-01-01T04:18:04.000Z</time>
      </trkpt>
      <trkpt lat="46.00965" lon="6.92299">
        <ele>1435</ele>
        <time>2000-01-01T04:18:14.000Z</time>
      </trkpt>
      <trkpt lat="46.01001" lon="6.92268">
        <ele>1436</ele>
        <time>2000-01-01T04:18:24.000Z</time>
      </trkpt>
      <trkpt lat="46.01025" lon="6.92256">
        <ele>1432</ele>
        <time>2000-01-01T04:18:34.000Z</time>
      </trkpt>
      <trkpt lat="46.01055" lon="6.92241">
        <ele>1428</ele>
        <time>2000-01-01T04:18:44.000Z</time>
      </trkpt>
      <trkpt lat="46.01073" lon="6.92234">
        <ele>1425.2</ele>
        <time>2000-01-01T04:18:54.000Z</time>
      </trkpt>
      <trkpt lat="46.01105" lon="6.9223">
        <ele>1422</ele>
        <time>2000-01-01T04:19:04.000Z</time>
      </trkpt>
      <trkpt lat="46.01117" lon="6.92215">
        <ele>1416.5</ele>
        <time>2000-01-01T04:19:14.000Z</time>
      </trkpt>
      <trkpt lat="46.0115" lon="6.92164">
        <ele>1416</ele>
        <time>2000-01-01T04:19:24.000Z</time>
      </trkpt>
      <trkpt lat="46.01147" lon="6.92168">
        <ele>1415.4</ele>
        <time>2000-01-01T04:19:34.000Z</time>
      </trkpt>
      <trkpt lat="46.01165" lon="6.92138">
        <ele>1417</ele>
        <time>2000-01-01T04:19:44.000Z</time>
      </trkpt>
      <trkpt lat="46.01182" lon="6.92125">
        <ele>1413</ele>
        <time>2000-01-01T04:19:54.000Z</time>
      </trkpt>
      <trkpt lat="46.01182" lon="6.921">
        <ele>1416.1</ele>
        <time>2000-01-01T04:20:04.000Z</time>
      </trkpt>
      <trkpt lat="46.01217" lon="6.92078">
        <ele>1415</ele>
        <time>2000-01-01T04:20:14.000Z</time>
      </trkpt>
      <trkpt lat="46.01229" lon="6.92059">
        <ele>1407.9</ele>
        <time>2000-01-01T04:20:24.000Z</time>
      </trkpt>
      <trkpt lat="46.01259" lon="6.92043">
        <ele>1418</ele>
        <time>2000-01-01T04:20:34.000Z</time>
      </trkpt>
      <trkpt lat="46.01288" lon="6.92024">
        <ele>1416</ele>
        <time>2000-01-01T04:20:44.000Z</time>
      </trkpt>
      <trkpt lat="46.01317" lon="6.92039">
        <ele>1414</ele>
        <time>2000-01-01T04:20:54.000Z</time>
      </trkpt>
      <trkpt lat="46.01336" lon="6.92035">
        <ele>1403</ele>
        <time>2000-01-01T04:21:04.000Z</time>
      </trkpt>
      <trkpt lat="46.01359" lon="6.92025">
        <ele>1388</ele>
        <time>2000-01-01T04:21:14.000Z</time>
      </trkpt>
      <trkpt lat="46.01383" lon="6.92014">
        <ele>1385</ele>
        <time>2000-01-01T04:21:24.000Z</time>
      </trkpt>
      <trkpt lat="46.01388" lon="6.92004">
        <ele>1382.9</ele>
        <time>2000-01-01T04:21:34.000Z</time>
      </trkpt>
      <trkpt lat="46.01399" lon="6.92001">
        <ele>1385</ele>
        <time>2000-01-01T04:21:44.000Z</time>
      </trkpt>
      <trkpt lat="46.01404" lon="6.91966">
        <ele>1388</ele>
        <time>2000-01-01T04:21:54.000Z</time>
      </trkpt>
      <trkpt lat="46.01409" lon="6.91925">
        <ele>1387</ele>
        <time>2000-01-01T04:22:04.000Z</time>
      </trkpt>
      <trkpt lat="46.01418" lon="6.91909">
        <ele>1387.5</ele>
        <time>2000-01-01T04:22:14.000Z</time>
      </trkpt>
      <trkpt lat="46.01441" lon="6.91884">
        <ele>1389</ele>
        <time>2000-01-01T04:22:24.000Z</time>
      </trkpt>
      <trkpt lat="46.01461" lon="6.91849">
        <ele>1391</ele>
        <time>2000-01-01T04:22:34.000Z</time>
      </trkpt>
      <trkpt lat="46.01478" lon="6.91814">
        <ele>1397</ele>
        <time>2000-01-01T04:22:44.000Z</time>
      </trkpt>
      <trkpt lat="46.01495" lon="6.91799">
        <ele>1396</ele>
        <time>2000-01-01T04:22:54.000Z</time>
      </trkpt>
      <trkpt lat="46.01508" lon="6.91781">
        <ele>1389.1</ele>
        <time>2000-01-01T04:23:04.000Z</time>
      </trkpt>
      <trkpt lat="46.01521" lon="6.91747">
        <ele>1397</ele>
        <time>2000-01-01T04:23:14.000Z</time>
      </trkpt>
      <trkpt lat="46.01534" lon="6.91725">
        <ele>1394</ele>
        <time>2000-01-01T04:23:24.000Z</time>
      </trkpt>
      <trkpt lat="46.01551" lon="6.91712">
        <ele>1394</ele>
        <time>2000-01-01T04:23:34.000Z</time>
      </trkpt>
      <trkpt lat="46.01583" lon="6.91705">
        <ele>1395</ele>
        <time>2000-01-01T04:23:44.000Z</time>
      </trkpt>
      <trkpt lat="46.01609" lon="6.91692">
        <ele>1397</ele>
        <time>2000-01-01T04:23:54.000Z</time>
      </trkpt>
      <trkpt lat="46.01625" lon="6.91676">
        <ele>1406</ele>
        <time>2000-01-01T04:24:04.000Z</time>
      </trkpt>
      <trkpt lat="46.01629" lon="6.91646">
        <ele>1409</ele>
        <time>2000-01-01T04:24:14.000Z</time>
      </trkpt>
      <trkpt lat="46.01653" lon="6.91603">
        <ele>1405</ele>
        <time>2000-01-01T04:24:24.000Z</time>
      </trkpt>
      <trkpt lat="46.0169" lon="6.91636">
        <ele>1401</ele>
        <time>2000-01-01T04:24:34.000Z</time>
      </trkpt>
      <trkpt lat="46.01722" lon="6.91673">
        <ele>1380</ele>
        <time>2000-01-01T04:24:44.000Z</time>
      </trkpt>
      <trkpt lat="46.01742" lon="6.91693">
        <ele>1366</ele>
        <time>2000-01-01T04:24:54.000Z</time>
      </trkpt>
      <trkpt lat="46.01762" lon="6.91714">
        <ele>1363</ele>
        <time>2000-01-01T04:25:04.000Z</time>
      </trkpt>
      <trkpt lat="46.01792" lon="6.91739">
        <ele>1359</ele>
        <time>2000-01-01T04:25:14.000Z</time>
      </trkpt>
      <trkpt lat="46.01822" lon="6.91758">
        <ele>1355</ele>
        <time>2000-01-01T04:25:24.000Z</time>
      </trkpt>
      <trkpt lat="46.01856" lon="6.91766">
        <ele>1355</ele>
        <time>2000-01-01T04:25:34.000Z</time>
      </trkpt>
      <trkpt lat="46.01872" lon="6.91766">
        <ele>1352.6</ele>
        <time>2000-01-01T04:25:44.000Z</time>
      </trkpt>
    </trkseg>
  </trk>
</gpx>